<?xml version="1.0" encoding="UTF-8" standalone="no" ?>
<gpx xmlns="http://www.topografix.com/GPX/1/1" xmlns:xsi="http://www.w3.org/2001/XMLSchema-instance" xsi:schemaLocation="http://www.topografix.com/GPX/1/1 http://www.topografix.com/GPX/1/1/gpx.xsd" version="1.1" creator="VisuGPX - https://www.visugpx.com">
  <metadata>
    <name>Lac d\'Oncet depuis Super-Barèges</name>
    <desc><![CDATA[18-2-2012

Très chaud, neige pourrie et très long faux plat sur la fin (deuxième grimpette de la journée) .... et à l\'arrivée grosse avalanche partie de la barre rocheuse située au Nord du lac déclenchée par un skieur descendant du  Pic du Midi. A quelques mètres près c\'était pour lui et ses camarades la mort assurée déchiquetés sur les rochers et étouffés par la poudre (très beau spectacle cela dit !).

]]></desc>
  </metadata>
  <trk>
    <name><![CDATA[Lac d\'Oncet depuis Super-Barèges_1]]></name>
    <trkseg>
      <trkpt lat="42.90668" lon="0.13134">
        <ele>1742</ele>
        <time>2012-02-18T13:44:04Z</time>
      </trkpt>
      <trkpt lat="42.90686" lon="0.13107">
        <ele>1749</ele>
        <time>2012-02-18T13:46:20Z</time>
      </trkpt>
      <trkpt lat="42.90688" lon="0.13104">
        <ele>1749</ele>
        <time>2012-02-18T13:46:24Z</time>
      </trkpt>
      <trkpt lat="42.9069" lon="0.13102">
        <ele>1749</ele>
        <time>2012-02-18T13:46:28Z</time>
      </trkpt>
      <trkpt lat="42.90693" lon="0.13099">
        <ele>1749</ele>
        <time>2012-02-18T13:46:33Z</time>
      </trkpt>
      <trkpt lat="42.90694" lon="0.13097">
        <ele>1749</ele>
        <time>2012-02-18T13:46:36Z</time>
      </trkpt>
      <trkpt lat="42.90695" lon="0.13096">
        <ele>1749</ele>
        <time>2012-02-18T13:46:39Z</time>
      </trkpt>
      <trkpt lat="42.90698" lon="0.13093">
        <ele>1749</ele>
        <time>2012-02-18T13:46:44Z</time>
      </trkpt>
      <trkpt lat="42.90699" lon="0.13092">
        <ele>1749</ele>
        <time>2012-02-18T13:46:47Z</time>
      </trkpt>
      <trkpt lat="42.90702" lon="0.1309">
        <ele>1749</ele>
        <time>2012-02-18T13:46:52Z</time>
      </trkpt>
      <trkpt lat="42.90703" lon="0.13088">
        <ele>1749</ele>
        <time>2012-02-18T13:46:55Z</time>
      </trkpt>
      <trkpt lat="42.90704" lon="0.13087">
        <ele>1749</ele>
        <time>2012-02-18T13:46:58Z</time>
      </trkpt>
      <trkpt lat="42.90706" lon="0.13085">
        <ele>1749</ele>
        <time>2012-02-18T13:47:01Z</time>
      </trkpt>
      <trkpt lat="42.90707" lon="0.13084">
        <ele>1749</ele>
        <time>2012-02-18T13:47:04Z</time>
      </trkpt>
      <trkpt lat="42.90709" lon="0.13082">
        <ele>1749</ele>
        <time>2012-02-18T13:47:07Z</time>
      </trkpt>
      <trkpt lat="42.9071" lon="0.13081">
        <ele>1749</ele>
        <time>2012-02-18T13:47:10Z</time>
      </trkpt>
      <trkpt lat="42.90711" lon="0.1308">
        <ele>1749</ele>
        <time>2012-02-18T13:47:13Z</time>
      </trkpt>
      <trkpt lat="42.90713" lon="0.13078">
        <ele>1750</ele>
        <time>2012-02-18T13:47:16Z</time>
      </trkpt>
      <trkpt lat="42.90715" lon="0.13076">
        <ele>1751</ele>
        <time>2012-02-18T13:47:21Z</time>
      </trkpt>
      <trkpt lat="42.90716" lon="0.13074">
        <ele>1751</ele>
        <time>2012-02-18T13:47:24Z</time>
      </trkpt>
      <trkpt lat="42.90718" lon="0.13073">
        <ele>1751</ele>
        <time>2012-02-18T13:47:27Z</time>
      </trkpt>
      <trkpt lat="42.90719" lon="0.13071">
        <ele>1751</ele>
        <time>2012-02-18T13:47:30Z</time>
      </trkpt>
      <trkpt lat="42.9072" lon="0.1307">
        <ele>1752</ele>
        <time>2012-02-18T13:47:47Z</time>
      </trkpt>
      <trkpt lat="42.90721" lon="0.13068">
        <ele>1752</ele>
        <time>2012-02-18T13:47:50Z</time>
      </trkpt>
      <trkpt lat="42.90723" lon="0.13067">
        <ele>1753</ele>
        <time>2012-02-18T13:47:53Z</time>
      </trkpt>
      <trkpt lat="42.90725" lon="0.13065">
        <ele>1754</ele>
        <time>2012-02-18T13:47:57Z</time>
      </trkpt>
      <trkpt lat="42.90726" lon="0.13063">
        <ele>1754</ele>
        <time>2012-02-18T13:48:00Z</time>
      </trkpt>
      <trkpt lat="42.90729" lon="0.13062">
        <ele>1755</ele>
        <time>2012-02-18T13:48:04Z</time>
      </trkpt>
      <trkpt lat="42.90732" lon="0.1306">
        <ele>1755</ele>
        <time>2012-02-18T13:48:08Z</time>
      </trkpt>
      <trkpt lat="42.90734" lon="0.13058">
        <ele>1755</ele>
        <time>2012-02-18T13:48:13Z</time>
      </trkpt>
      <trkpt lat="42.90736" lon="0.13057">
        <ele>1756</ele>
        <time>2012-02-18T13:48:16Z</time>
      </trkpt>
      <trkpt lat="42.90737" lon="0.13056">
        <ele>1756</ele>
        <time>2012-02-18T13:48:19Z</time>
      </trkpt>
      <trkpt lat="42.90739" lon="0.13055">
        <ele>1756</ele>
        <time>2012-02-18T13:48:22Z</time>
      </trkpt>
      <trkpt lat="42.90741" lon="0.13053">
        <ele>1757</ele>
        <time>2012-02-18T13:48:27Z</time>
      </trkpt>
      <trkpt lat="42.90743" lon="0.13051">
        <ele>1757</ele>
        <time>2012-02-18T13:48:30Z</time>
      </trkpt>
      <trkpt lat="42.90744" lon="0.1305">
        <ele>1757</ele>
        <time>2012-02-18T13:48:33Z</time>
      </trkpt>
      <trkpt lat="42.90746" lon="0.13049">
        <ele>1758</ele>
        <time>2012-02-18T13:48:36Z</time>
      </trkpt>
      <trkpt lat="42.90747" lon="0.13048">
        <ele>1758</ele>
        <time>2012-02-18T13:48:39Z</time>
      </trkpt>
      <trkpt lat="42.90749" lon="0.13047">
        <ele>1758</ele>
        <time>2012-02-18T13:48:42Z</time>
      </trkpt>
      <trkpt lat="42.90751" lon="0.13045">
        <ele>1758</ele>
        <time>2012-02-18T13:48:45Z</time>
      </trkpt>
      <trkpt lat="42.90752" lon="0.13044">
        <ele>1758</ele>
        <time>2012-02-18T13:48:48Z</time>
      </trkpt>
      <trkpt lat="42.90754" lon="0.13042">
        <ele>1759</ele>
        <time>2012-02-18T13:48:51Z</time>
      </trkpt>
      <trkpt lat="42.90755" lon="0.13041">
        <ele>1759</ele>
        <time>2012-02-18T13:48:54Z</time>
      </trkpt>
      <trkpt lat="42.90757" lon="0.13038">
        <ele>1759</ele>
        <time>2012-02-18T13:48:59Z</time>
      </trkpt>
      <trkpt lat="42.90759" lon="0.13037">
        <ele>1760</ele>
        <time>2012-02-18T13:49:02Z</time>
      </trkpt>
      <trkpt lat="42.9076" lon="0.13036">
        <ele>1761</ele>
        <time>2012-02-18T13:49:18Z</time>
      </trkpt>
      <trkpt lat="42.90762" lon="0.13034">
        <ele>1761</ele>
        <time>2012-02-18T13:49:21Z</time>
      </trkpt>
      <trkpt lat="42.90763" lon="0.13033">
        <ele>1761</ele>
        <time>2012-02-18T13:49:24Z</time>
      </trkpt>
      <trkpt lat="42.90765" lon="0.13031">
        <ele>1761</ele>
        <time>2012-02-18T13:49:27Z</time>
      </trkpt>
      <trkpt lat="42.90766" lon="0.1303">
        <ele>1761</ele>
        <time>2012-02-18T13:49:30Z</time>
      </trkpt>
      <trkpt lat="42.90767" lon="0.13028">
        <ele>1761</ele>
        <time>2012-02-18T13:49:33Z</time>
      </trkpt>
      <trkpt lat="42.90769" lon="0.13027">
        <ele>1761</ele>
        <time>2012-02-18T13:49:36Z</time>
      </trkpt>
      <trkpt lat="42.9077" lon="0.13025">
        <ele>1762</ele>
        <time>2012-02-18T13:49:39Z</time>
      </trkpt>
      <trkpt lat="42.90771" lon="0.13024">
        <ele>1763</ele>
        <time>2012-02-18T13:49:42Z</time>
      </trkpt>
      <trkpt lat="42.90773" lon="0.13022">
        <ele>1763</ele>
        <time>2012-02-18T13:49:45Z</time>
      </trkpt>
      <trkpt lat="42.90774" lon="0.1302">
        <ele>1764</ele>
        <time>2012-02-18T13:49:48Z</time>
      </trkpt>
      <trkpt lat="42.90775" lon="0.13019">
        <ele>1764</ele>
        <time>2012-02-18T13:49:51Z</time>
      </trkpt>
      <trkpt lat="42.90777" lon="0.13017">
        <ele>1764</ele>
        <time>2012-02-18T13:49:54Z</time>
      </trkpt>
      <trkpt lat="42.90778" lon="0.13015">
        <ele>1765</ele>
        <time>2012-02-18T13:49:57Z</time>
      </trkpt>
      <trkpt lat="42.9078" lon="0.13014">
        <ele>1765</ele>
        <time>2012-02-18T13:50:00Z</time>
      </trkpt>
      <trkpt lat="42.90781" lon="0.13013">
        <ele>1765</ele>
        <time>2012-02-18T13:50:03Z</time>
      </trkpt>
      <trkpt lat="42.90784" lon="0.13011">
        <ele>1766</ele>
        <time>2012-02-18T13:50:07Z</time>
      </trkpt>
      <trkpt lat="42.90786" lon="0.1301">
        <ele>1767</ele>
        <time>2012-02-18T13:50:11Z</time>
      </trkpt>
      <trkpt lat="42.90789" lon="0.13007">
        <ele>1768</ele>
        <time>2012-02-18T13:50:15Z</time>
      </trkpt>
      <trkpt lat="42.90791" lon="0.13005">
        <ele>1768</ele>
        <time>2012-02-18T13:50:19Z</time>
      </trkpt>
      <trkpt lat="42.90794" lon="0.13003">
        <ele>1769</ele>
        <time>2012-02-18T13:50:24Z</time>
      </trkpt>
      <trkpt lat="42.90794" lon="0.13002">
        <ele>1770</ele>
        <time>2012-02-18T13:50:41Z</time>
      </trkpt>
      <trkpt lat="42.90795" lon="0.13001">
        <ele>1770</ele>
        <time>2012-02-18T13:50:53Z</time>
      </trkpt>
      <trkpt lat="42.90797" lon="0.13">
        <ele>1770</ele>
        <time>2012-02-18T13:50:56Z</time>
      </trkpt>
      <trkpt lat="42.90799" lon="0.12997">
        <ele>1770</ele>
        <time>2012-02-18T13:51:01Z</time>
      </trkpt>
      <trkpt lat="42.90802" lon="0.12995">
        <ele>1770</ele>
        <time>2012-02-18T13:51:06Z</time>
      </trkpt>
      <trkpt lat="42.90803" lon="0.12993">
        <ele>1771</ele>
        <time>2012-02-18T13:51:09Z</time>
      </trkpt>
      <trkpt lat="42.90805" lon="0.12992">
        <ele>1771</ele>
        <time>2012-02-18T13:51:12Z</time>
      </trkpt>
      <trkpt lat="42.90806" lon="0.12991">
        <ele>1772</ele>
        <time>2012-02-18T13:51:15Z</time>
      </trkpt>
      <trkpt lat="42.90807" lon="0.12989">
        <ele>1772</ele>
        <time>2012-02-18T13:51:18Z</time>
      </trkpt>
      <trkpt lat="42.90809" lon="0.12988">
        <ele>1772</ele>
        <time>2012-02-18T13:51:21Z</time>
      </trkpt>
      <trkpt lat="42.90811" lon="0.12985">
        <ele>1772</ele>
        <time>2012-02-18T13:51:25Z</time>
      </trkpt>
      <trkpt lat="42.90813" lon="0.12982">
        <ele>1773</ele>
        <time>2012-02-18T13:51:29Z</time>
      </trkpt>
      <trkpt lat="42.90816" lon="0.1298">
        <ele>1773</ele>
        <time>2012-02-18T13:51:33Z</time>
      </trkpt>
      <trkpt lat="42.90818" lon="0.12977">
        <ele>1774</ele>
        <time>2012-02-18T13:51:38Z</time>
      </trkpt>
      <trkpt lat="42.9082" lon="0.12976">
        <ele>1774</ele>
        <time>2012-02-18T13:51:41Z</time>
      </trkpt>
      <trkpt lat="42.90821" lon="0.12974">
        <ele>1775</ele>
        <time>2012-02-18T13:51:44Z</time>
      </trkpt>
      <trkpt lat="42.90823" lon="0.12972">
        <ele>1776</ele>
        <time>2012-02-18T13:51:47Z</time>
      </trkpt>
      <trkpt lat="42.90824" lon="0.12971">
        <ele>1777</ele>
        <time>2012-02-18T13:52:21Z</time>
      </trkpt>
      <trkpt lat="42.90825" lon="0.12969">
        <ele>1777</ele>
        <time>2012-02-18T13:52:24Z</time>
      </trkpt>
      <trkpt lat="42.90828" lon="0.12966">
        <ele>1778</ele>
        <time>2012-02-18T13:52:30Z</time>
      </trkpt>
      <trkpt lat="42.90829" lon="0.12964">
        <ele>1778</ele>
        <time>2012-02-18T13:52:33Z</time>
      </trkpt>
      <trkpt lat="42.9083" lon="0.12962">
        <ele>1779</ele>
        <time>2012-02-18T13:52:36Z</time>
      </trkpt>
      <trkpt lat="42.90831" lon="0.1296">
        <ele>1780</ele>
        <time>2012-02-18T13:52:39Z</time>
      </trkpt>
      <trkpt lat="42.90832" lon="0.12959">
        <ele>1780</ele>
        <time>2012-02-18T13:52:42Z</time>
      </trkpt>
      <trkpt lat="42.90834" lon="0.12956">
        <ele>1781</ele>
        <time>2012-02-18T13:52:47Z</time>
      </trkpt>
      <trkpt lat="42.90836" lon="0.12954">
        <ele>1781</ele>
        <time>2012-02-18T13:52:50Z</time>
      </trkpt>
      <trkpt lat="42.90836" lon="0.12952">
        <ele>1782</ele>
        <time>2012-02-18T13:52:53Z</time>
      </trkpt>
      <trkpt lat="42.90838" lon="0.12951">
        <ele>1782</ele>
        <time>2012-02-18T13:52:56Z</time>
      </trkpt>
      <trkpt lat="42.90839" lon="0.12949">
        <ele>1783</ele>
        <time>2012-02-18T13:52:59Z</time>
      </trkpt>
      <trkpt lat="42.9084" lon="0.12947">
        <ele>1784</ele>
        <time>2012-02-18T13:53:28Z</time>
      </trkpt>
      <trkpt lat="42.90842" lon="0.12945">
        <ele>1784</ele>
        <time>2012-02-18T13:53:32Z</time>
      </trkpt>
      <trkpt lat="42.90845" lon="0.12943">
        <ele>1785</ele>
        <time>2012-02-18T13:53:37Z</time>
      </trkpt>
      <trkpt lat="42.90847" lon="0.12941">
        <ele>1785</ele>
        <time>2012-02-18T13:53:40Z</time>
      </trkpt>
      <trkpt lat="42.90848" lon="0.1294">
        <ele>1785</ele>
        <time>2012-02-18T13:53:43Z</time>
      </trkpt>
      <trkpt lat="42.9085" lon="0.12938">
        <ele>1786</ele>
        <time>2012-02-18T13:53:46Z</time>
      </trkpt>
      <trkpt lat="42.90852" lon="0.12937">
        <ele>1786</ele>
        <time>2012-02-18T13:53:49Z</time>
      </trkpt>
      <trkpt lat="42.90854" lon="0.12935">
        <ele>1788</ele>
        <time>2012-02-18T13:53:54Z</time>
      </trkpt>
      <trkpt lat="42.90856" lon="0.12933">
        <ele>1789</ele>
        <time>2012-02-18T13:53:57Z</time>
      </trkpt>
      <trkpt lat="42.90857" lon="0.12931">
        <ele>1789</ele>
        <time>2012-02-18T13:54:00Z</time>
      </trkpt>
      <trkpt lat="42.90859" lon="0.1293">
        <ele>1790</ele>
        <time>2012-02-18T13:54:03Z</time>
      </trkpt>
      <trkpt lat="42.90858" lon="0.12928">
        <ele>1791</ele>
        <time>2012-02-18T13:54:06Z</time>
      </trkpt>
      <trkpt lat="42.90859" lon="0.12926">
        <ele>1792</ele>
        <time>2012-02-18T13:54:09Z</time>
      </trkpt>
      <trkpt lat="42.90861" lon="0.12925">
        <ele>1792</ele>
        <time>2012-02-18T13:54:12Z</time>
      </trkpt>
      <trkpt lat="42.90862" lon="0.12923">
        <ele>1793</ele>
        <time>2012-02-18T13:54:15Z</time>
      </trkpt>
      <trkpt lat="42.90864" lon="0.12921">
        <ele>1793</ele>
        <time>2012-02-18T13:54:18Z</time>
      </trkpt>
      <trkpt lat="42.90866" lon="0.12918">
        <ele>1794</ele>
        <time>2012-02-18T13:54:23Z</time>
      </trkpt>
      <trkpt lat="42.90867" lon="0.12916">
        <ele>1795</ele>
        <time>2012-02-18T13:54:26Z</time>
      </trkpt>
      <trkpt lat="42.9087" lon="0.12913">
        <ele>1795</ele>
        <time>2012-02-18T13:54:31Z</time>
      </trkpt>
      <trkpt lat="42.90871" lon="0.12912">
        <ele>1796</ele>
        <time>2012-02-18T13:54:34Z</time>
      </trkpt>
      <trkpt lat="42.90874" lon="0.12909">
        <ele>1796</ele>
        <time>2012-02-18T13:54:39Z</time>
      </trkpt>
      <trkpt lat="42.90876" lon="0.12906">
        <ele>1797</ele>
        <time>2012-02-18T13:54:44Z</time>
      </trkpt>
      <trkpt lat="42.90875" lon="0.12904">
        <ele>1797</ele>
        <time>2012-02-18T13:55:11Z</time>
      </trkpt>
      <trkpt lat="42.90876" lon="0.12902">
        <ele>1797</ele>
        <time>2012-02-18T13:55:14Z</time>
      </trkpt>
      <trkpt lat="42.90878" lon="0.12901">
        <ele>1797</ele>
        <time>2012-02-18T13:55:17Z</time>
      </trkpt>
      <trkpt lat="42.90879" lon="0.12899">
        <ele>1797</ele>
        <time>2012-02-18T13:55:20Z</time>
      </trkpt>
      <trkpt lat="42.9088" lon="0.12897">
        <ele>1797</ele>
        <time>2012-02-18T13:55:23Z</time>
      </trkpt>
      <trkpt lat="42.90881" lon="0.12896">
        <ele>1797</ele>
        <time>2012-02-18T13:55:26Z</time>
      </trkpt>
      <trkpt lat="42.90882" lon="0.12894">
        <ele>1798</ele>
        <time>2012-02-18T13:55:29Z</time>
      </trkpt>
      <trkpt lat="42.90884" lon="0.12892">
        <ele>1798</ele>
        <time>2012-02-18T13:55:32Z</time>
      </trkpt>
      <trkpt lat="42.90885" lon="0.12891">
        <ele>1799</ele>
        <time>2012-02-18T13:55:35Z</time>
      </trkpt>
      <trkpt lat="42.90887" lon="0.12889">
        <ele>1800</ele>
        <time>2012-02-18T13:55:38Z</time>
      </trkpt>
      <trkpt lat="42.90888" lon="0.12888">
        <ele>1800</ele>
        <time>2012-02-18T13:55:41Z</time>
      </trkpt>
      <trkpt lat="42.90889" lon="0.12886">
        <ele>1801</ele>
        <time>2012-02-18T13:55:44Z</time>
      </trkpt>
      <trkpt lat="42.90892" lon="0.12883">
        <ele>1801</ele>
        <time>2012-02-18T13:55:49Z</time>
      </trkpt>
      <trkpt lat="42.90893" lon="0.12879">
        <ele>1802</ele>
        <time>2012-02-18T13:55:54Z</time>
      </trkpt>
      <trkpt lat="42.90894" lon="0.12877">
        <ele>1802</ele>
        <time>2012-02-18T13:55:57Z</time>
      </trkpt>
      <trkpt lat="42.90896" lon="0.12874">
        <ele>1803</ele>
        <time>2012-02-18T13:56:02Z</time>
      </trkpt>
      <trkpt lat="42.90897" lon="0.1287">
        <ele>1804</ele>
        <time>2012-02-18T13:56:07Z</time>
      </trkpt>
      <trkpt lat="42.90898" lon="0.12868">
        <ele>1804</ele>
        <time>2012-02-18T13:56:27Z</time>
      </trkpt>
      <trkpt lat="42.90899" lon="0.12867">
        <ele>1804</ele>
        <time>2012-02-18T13:56:30Z</time>
      </trkpt>
      <trkpt lat="42.909" lon="0.12865">
        <ele>1804</ele>
        <time>2012-02-18T13:56:33Z</time>
      </trkpt>
      <trkpt lat="42.90901" lon="0.12863">
        <ele>1805</ele>
        <time>2012-02-18T13:56:36Z</time>
      </trkpt>
      <trkpt lat="42.90902" lon="0.1286">
        <ele>1806</ele>
        <time>2012-02-18T13:56:40Z</time>
      </trkpt>
      <trkpt lat="42.90903" lon="0.12857">
        <ele>1806</ele>
        <time>2012-02-18T13:56:44Z</time>
      </trkpt>
      <trkpt lat="42.90905" lon="0.12853">
        <ele>1807</ele>
        <time>2012-02-18T13:56:49Z</time>
      </trkpt>
      <trkpt lat="42.90906" lon="0.12851">
        <ele>1807</ele>
        <time>2012-02-18T13:56:52Z</time>
      </trkpt>
      <trkpt lat="42.90907" lon="0.12849">
        <ele>1807</ele>
        <time>2012-02-18T13:56:55Z</time>
      </trkpt>
      <trkpt lat="42.90908" lon="0.12847">
        <ele>1808</ele>
        <time>2012-02-18T13:56:58Z</time>
      </trkpt>
      <trkpt lat="42.90909" lon="0.12845">
        <ele>1808</ele>
        <time>2012-02-18T13:57:01Z</time>
      </trkpt>
      <trkpt lat="42.90909" lon="0.12843">
        <ele>1809</ele>
        <time>2012-02-18T13:57:04Z</time>
      </trkpt>
      <trkpt lat="42.9091" lon="0.1284">
        <ele>1809</ele>
        <time>2012-02-18T13:57:08Z</time>
      </trkpt>
      <trkpt lat="42.90911" lon="0.12839">
        <ele>1810</ele>
        <time>2012-02-18T13:57:11Z</time>
      </trkpt>
      <trkpt lat="42.90911" lon="0.12837">
        <ele>1810</ele>
        <time>2012-02-18T13:57:18Z</time>
      </trkpt>
      <trkpt lat="42.90911" lon="0.12839">
        <ele>1811</ele>
        <time>2012-02-18T13:57:36Z</time>
      </trkpt>
      <trkpt lat="42.90912" lon="0.12841">
        <ele>1811</ele>
        <time>2012-02-18T13:57:39Z</time>
      </trkpt>
      <trkpt lat="42.90913" lon="0.12844">
        <ele>1811</ele>
        <time>2012-02-18T13:57:43Z</time>
      </trkpt>
      <trkpt lat="42.90913" lon="0.12846">
        <ele>1811</ele>
        <time>2012-02-18T13:57:46Z</time>
      </trkpt>
      <trkpt lat="42.90914" lon="0.12849">
        <ele>1812</ele>
        <time>2012-02-18T13:57:50Z</time>
      </trkpt>
      <trkpt lat="42.90915" lon="0.12853">
        <ele>1812</ele>
        <time>2012-02-18T13:57:54Z</time>
      </trkpt>
      <trkpt lat="42.90916" lon="0.12856">
        <ele>1812</ele>
        <time>2012-02-18T13:57:58Z</time>
      </trkpt>
      <trkpt lat="42.90916" lon="0.1286">
        <ele>1813</ele>
        <time>2012-02-18T13:58:02Z</time>
      </trkpt>
      <trkpt lat="42.90917" lon="0.12864">
        <ele>1813</ele>
        <time>2012-02-18T13:58:06Z</time>
      </trkpt>
      <trkpt lat="42.90918" lon="0.12867">
        <ele>1813</ele>
        <time>2012-02-18T13:58:10Z</time>
      </trkpt>
      <trkpt lat="42.90919" lon="0.1287">
        <ele>1813</ele>
        <time>2012-02-18T13:58:14Z</time>
      </trkpt>
      <trkpt lat="42.90921" lon="0.12873">
        <ele>1814</ele>
        <time>2012-02-18T13:58:19Z</time>
      </trkpt>
      <trkpt lat="42.90922" lon="0.12877">
        <ele>1814</ele>
        <time>2012-02-18T13:58:24Z</time>
      </trkpt>
      <trkpt lat="42.90923" lon="0.12878">
        <ele>1815</ele>
        <time>2012-02-18T13:58:27Z</time>
      </trkpt>
      <trkpt lat="42.90924" lon="0.12882">
        <ele>1815</ele>
        <time>2012-02-18T13:58:32Z</time>
      </trkpt>
      <trkpt lat="42.90925" lon="0.12884">
        <ele>1815</ele>
        <time>2012-02-18T13:58:35Z</time>
      </trkpt>
      <trkpt lat="42.90926" lon="0.12886">
        <ele>1816</ele>
        <time>2012-02-18T13:58:38Z</time>
      </trkpt>
      <trkpt lat="42.90926" lon="0.12888">
        <ele>1816</ele>
        <time>2012-02-18T13:58:41Z</time>
      </trkpt>
      <trkpt lat="42.90927" lon="0.12889">
        <ele>1816</ele>
        <time>2012-02-18T13:58:44Z</time>
      </trkpt>
      <trkpt lat="42.90928" lon="0.12891">
        <ele>1817</ele>
        <time>2012-02-18T13:59:02Z</time>
      </trkpt>
      <trkpt lat="42.90929" lon="0.12894">
        <ele>1818</ele>
        <time>2012-02-18T13:59:07Z</time>
      </trkpt>
      <trkpt lat="42.9093" lon="0.12896">
        <ele>1818</ele>
        <time>2012-02-18T13:59:10Z</time>
      </trkpt>
      <trkpt lat="42.90931" lon="0.12898">
        <ele>1818</ele>
        <time>2012-02-18T13:59:13Z</time>
      </trkpt>
      <trkpt lat="42.90931" lon="0.129">
        <ele>1818</ele>
        <time>2012-02-18T13:59:16Z</time>
      </trkpt>
      <trkpt lat="42.90932" lon="0.12903">
        <ele>1819</ele>
        <time>2012-02-18T13:59:20Z</time>
      </trkpt>
      <trkpt lat="42.90934" lon="0.12907">
        <ele>1820</ele>
        <time>2012-02-18T13:59:25Z</time>
      </trkpt>
      <trkpt lat="42.90934" lon="0.1291">
        <ele>1820</ele>
        <time>2012-02-18T13:59:30Z</time>
      </trkpt>
      <trkpt lat="42.90935" lon="0.12913">
        <ele>1821</ele>
        <time>2012-02-18T13:59:34Z</time>
      </trkpt>
      <trkpt lat="42.90937" lon="0.12916">
        <ele>1821</ele>
        <time>2012-02-18T13:59:39Z</time>
      </trkpt>
      <trkpt lat="42.90937" lon="0.12918">
        <ele>1822</ele>
        <time>2012-02-18T13:59:57Z</time>
      </trkpt>
      <trkpt lat="42.90939" lon="0.12922">
        <ele>1822</ele>
        <time>2012-02-18T14:00:02Z</time>
      </trkpt>
      <trkpt lat="42.9094" lon="0.12925">
        <ele>1822</ele>
        <time>2012-02-18T14:00:07Z</time>
      </trkpt>
      <trkpt lat="42.90941" lon="0.12929">
        <ele>1822</ele>
        <time>2012-02-18T14:00:12Z</time>
      </trkpt>
      <trkpt lat="42.90942" lon="0.12932">
        <ele>1823</ele>
        <time>2012-02-18T14:00:16Z</time>
      </trkpt>
      <trkpt lat="42.90943" lon="0.12935">
        <ele>1824</ele>
        <time>2012-02-18T14:00:20Z</time>
      </trkpt>
      <trkpt lat="42.90944" lon="0.12937">
        <ele>1824</ele>
        <time>2012-02-18T14:00:23Z</time>
      </trkpt>
      <trkpt lat="42.90944" lon="0.12939">
        <ele>1825</ele>
        <time>2012-02-18T14:00:26Z</time>
      </trkpt>
      <trkpt lat="42.90945" lon="0.12942">
        <ele>1826</ele>
        <time>2012-02-18T14:00:30Z</time>
      </trkpt>
      <trkpt lat="42.90946" lon="0.12946">
        <ele>1826</ele>
        <time>2012-02-18T14:00:35Z</time>
      </trkpt>
      <trkpt lat="42.90947" lon="0.12949">
        <ele>1827</ele>
        <time>2012-02-18T14:00:39Z</time>
      </trkpt>
      <trkpt lat="42.90948" lon="0.12952">
        <ele>1827</ele>
        <time>2012-02-18T14:00:44Z</time>
      </trkpt>
      <trkpt lat="42.90949" lon="0.1295">
        <ele>1829</ele>
        <time>2012-02-18T14:00:59Z</time>
      </trkpt>
      <trkpt lat="42.90949" lon="0.12947">
        <ele>1830</ele>
        <time>2012-02-18T14:01:02Z</time>
      </trkpt>
      <trkpt lat="42.90949" lon="0.12949">
        <ele>1831</ele>
        <time>2012-02-18T14:01:18Z</time>
      </trkpt>
      <trkpt lat="42.90948" lon="0.1295">
        <ele>1832</ele>
        <time>2012-02-18T14:01:27Z</time>
      </trkpt>
      <trkpt lat="42.90949" lon="0.12955">
        <ele>1832</ele>
        <time>2012-02-18T14:01:32Z</time>
      </trkpt>
      <trkpt lat="42.90949" lon="0.12958">
        <ele>1833</ele>
        <time>2012-02-18T14:01:35Z</time>
      </trkpt>
      <trkpt lat="42.9095" lon="0.12961">
        <ele>1834</ele>
        <time>2012-02-18T14:01:39Z</time>
      </trkpt>
      <trkpt lat="42.9095" lon="0.12965">
        <ele>1834</ele>
        <time>2012-02-18T14:01:44Z</time>
      </trkpt>
      <trkpt lat="42.9095" lon="0.12968">
        <ele>1835</ele>
        <time>2012-02-18T14:01:47Z</time>
      </trkpt>
      <trkpt lat="42.90952" lon="0.12971">
        <ele>1835</ele>
        <time>2012-02-18T14:01:51Z</time>
      </trkpt>
      <trkpt lat="42.90953" lon="0.12975">
        <ele>1835</ele>
        <time>2012-02-18T14:01:56Z</time>
      </trkpt>
      <trkpt lat="42.90953" lon="0.12978">
        <ele>1835</ele>
        <time>2012-02-18T14:01:59Z</time>
      </trkpt>
      <trkpt lat="42.90953" lon="0.12982">
        <ele>1837</ele>
        <time>2012-02-18T14:02:04Z</time>
      </trkpt>
      <trkpt lat="42.90955" lon="0.12981">
        <ele>1837</ele>
        <time>2012-02-18T14:02:17Z</time>
      </trkpt>
      <trkpt lat="42.90955" lon="0.12982">
        <ele>1837</ele>
        <time>2012-02-18T14:02:32Z</time>
      </trkpt>
      <trkpt lat="42.90956" lon="0.12986">
        <ele>1837</ele>
        <time>2012-02-18T14:02:35Z</time>
      </trkpt>
      <trkpt lat="42.90957" lon="0.12989">
        <ele>1837</ele>
        <time>2012-02-18T14:02:39Z</time>
      </trkpt>
      <trkpt lat="42.90958" lon="0.12992">
        <ele>1838</ele>
        <time>2012-02-18T14:03:04Z</time>
      </trkpt>
      <trkpt lat="42.90958" lon="0.12993">
        <ele>1839</ele>
        <time>2012-02-18T14:03:23Z</time>
      </trkpt>
      <trkpt lat="42.90958" lon="0.12991">
        <ele>1840</ele>
        <time>2012-02-18T14:04:16Z</time>
      </trkpt>
      <trkpt lat="42.9096" lon="0.12987">
        <ele>1840</ele>
        <time>2012-02-18T14:04:20Z</time>
      </trkpt>
      <trkpt lat="42.90961" lon="0.12984">
        <ele>1841</ele>
        <time>2012-02-18T14:04:25Z</time>
      </trkpt>
      <trkpt lat="42.90961" lon="0.12982">
        <ele>1841</ele>
        <time>2012-02-18T14:04:28Z</time>
      </trkpt>
      <trkpt lat="42.90962" lon="0.1298">
        <ele>1842</ele>
        <time>2012-02-18T14:04:31Z</time>
      </trkpt>
      <trkpt lat="42.90963" lon="0.12978">
        <ele>1842</ele>
        <time>2012-02-18T14:04:34Z</time>
      </trkpt>
      <trkpt lat="42.90964" lon="0.12975">
        <ele>1843</ele>
        <time>2012-02-18T14:04:39Z</time>
      </trkpt>
      <trkpt lat="42.90965" lon="0.12972">
        <ele>1843</ele>
        <time>2012-02-18T14:04:43Z</time>
      </trkpt>
      <trkpt lat="42.90966" lon="0.1297">
        <ele>1844</ele>
        <time>2012-02-18T14:04:46Z</time>
      </trkpt>
      <trkpt lat="42.90968" lon="0.12966">
        <ele>1844</ele>
        <time>2012-02-18T14:04:51Z</time>
      </trkpt>
      <trkpt lat="42.9097" lon="0.12963">
        <ele>1844</ele>
        <time>2012-02-18T14:04:56Z</time>
      </trkpt>
      <trkpt lat="42.90971" lon="0.12961">
        <ele>1845</ele>
        <time>2012-02-18T14:04:59Z</time>
      </trkpt>
      <trkpt lat="42.90972" lon="0.12958">
        <ele>1846</ele>
        <time>2012-02-18T14:05:03Z</time>
      </trkpt>
      <trkpt lat="42.90973" lon="0.12954">
        <ele>1846</ele>
        <time>2012-02-18T14:05:08Z</time>
      </trkpt>
      <trkpt lat="42.90974" lon="0.12951">
        <ele>1847</ele>
        <time>2012-02-18T14:05:13Z</time>
      </trkpt>
      <trkpt lat="42.90975" lon="0.12947">
        <ele>1848</ele>
        <time>2012-02-18T14:05:18Z</time>
      </trkpt>
      <trkpt lat="42.90976" lon="0.12947">
        <ele>1849</ele>
        <time>2012-02-18T14:05:52Z</time>
      </trkpt>
      <trkpt lat="42.90977" lon="0.12945">
        <ele>1849</ele>
        <time>2012-02-18T14:05:55Z</time>
      </trkpt>
      <trkpt lat="42.90977" lon="0.12942">
        <ele>1849</ele>
        <time>2012-02-18T14:05:59Z</time>
      </trkpt>
      <trkpt lat="42.90978" lon="0.1294">
        <ele>1850</ele>
        <time>2012-02-18T14:06:02Z</time>
      </trkpt>
      <trkpt lat="42.90979" lon="0.12938">
        <ele>1850</ele>
        <time>2012-02-18T14:06:05Z</time>
      </trkpt>
      <trkpt lat="42.90979" lon="0.12935">
        <ele>1851</ele>
        <time>2012-02-18T14:06:09Z</time>
      </trkpt>
      <trkpt lat="42.90979" lon="0.12932">
        <ele>1852</ele>
        <time>2012-02-18T14:06:13Z</time>
      </trkpt>
      <trkpt lat="42.90979" lon="0.12928">
        <ele>1852</ele>
        <time>2012-02-18T14:06:17Z</time>
      </trkpt>
      <trkpt lat="42.9098" lon="0.12925">
        <ele>1853</ele>
        <time>2012-02-18T14:06:21Z</time>
      </trkpt>
      <trkpt lat="42.90982" lon="0.12922">
        <ele>1853</ele>
        <time>2012-02-18T14:06:26Z</time>
      </trkpt>
      <trkpt lat="42.90982" lon="0.12918">
        <ele>1854</ele>
        <time>2012-02-18T14:06:30Z</time>
      </trkpt>
      <trkpt lat="42.90983" lon="0.12915">
        <ele>1854</ele>
        <time>2012-02-18T14:06:34Z</time>
      </trkpt>
      <trkpt lat="42.90984" lon="0.12912">
        <ele>1855</ele>
        <time>2012-02-18T14:06:38Z</time>
      </trkpt>
      <trkpt lat="42.90984" lon="0.12909">
        <ele>1856</ele>
        <time>2012-02-18T14:06:42Z</time>
      </trkpt>
      <trkpt lat="42.90985" lon="0.12906">
        <ele>1857</ele>
        <time>2012-02-18T14:06:46Z</time>
      </trkpt>
      <trkpt lat="42.90986" lon="0.12904">
        <ele>1857</ele>
        <time>2012-02-18T14:07:21Z</time>
      </trkpt>
      <trkpt lat="42.90986" lon="0.12901">
        <ele>1858</ele>
        <time>2012-02-18T14:07:25Z</time>
      </trkpt>
      <trkpt lat="42.90987" lon="0.12899">
        <ele>1858</ele>
        <time>2012-02-18T14:07:28Z</time>
      </trkpt>
      <trkpt lat="42.90988" lon="0.12895">
        <ele>1859</ele>
        <time>2012-02-18T14:07:33Z</time>
      </trkpt>
      <trkpt lat="42.90989" lon="0.12893">
        <ele>1859</ele>
        <time>2012-02-18T14:07:36Z</time>
      </trkpt>
      <trkpt lat="42.9099" lon="0.1289">
        <ele>1860</ele>
        <time>2012-02-18T14:07:41Z</time>
      </trkpt>
      <trkpt lat="42.90991" lon="0.12887">
        <ele>1861</ele>
        <time>2012-02-18T14:07:45Z</time>
      </trkpt>
      <trkpt lat="42.90992" lon="0.12883">
        <ele>1861</ele>
        <time>2012-02-18T14:07:49Z</time>
      </trkpt>
      <trkpt lat="42.90993" lon="0.1288">
        <ele>1862</ele>
        <time>2012-02-18T14:07:53Z</time>
      </trkpt>
      <trkpt lat="42.90995" lon="0.12877">
        <ele>1862</ele>
        <time>2012-02-18T14:07:57Z</time>
      </trkpt>
      <trkpt lat="42.90996" lon="0.12874">
        <ele>1863</ele>
        <time>2012-02-18T14:08:01Z</time>
      </trkpt>
      <trkpt lat="42.90996" lon="0.12872">
        <ele>1864</ele>
        <time>2012-02-18T14:08:04Z</time>
      </trkpt>
      <trkpt lat="42.90997" lon="0.12868">
        <ele>1865</ele>
        <time>2012-02-18T14:08:08Z</time>
      </trkpt>
      <trkpt lat="42.90998" lon="0.12867">
        <ele>1865</ele>
        <time>2012-02-18T14:08:39Z</time>
      </trkpt>
      <trkpt lat="42.91" lon="0.12864">
        <ele>1865</ele>
        <time>2012-02-18T14:08:43Z</time>
      </trkpt>
      <trkpt lat="42.91001" lon="0.12861">
        <ele>1865</ele>
        <time>2012-02-18T14:08:47Z</time>
      </trkpt>
      <trkpt lat="42.91003" lon="0.12858">
        <ele>1866</ele>
        <time>2012-02-18T14:08:51Z</time>
      </trkpt>
      <trkpt lat="42.91004" lon="0.12855">
        <ele>1866</ele>
        <time>2012-02-18T14:08:55Z</time>
      </trkpt>
      <trkpt lat="42.91005" lon="0.12852">
        <ele>1866</ele>
        <time>2012-02-18T14:08:59Z</time>
      </trkpt>
      <trkpt lat="42.91006" lon="0.12848">
        <ele>1866</ele>
        <time>2012-02-18T14:09:03Z</time>
      </trkpt>
      <trkpt lat="42.91007" lon="0.12845">
        <ele>1867</ele>
        <time>2012-02-18T14:09:07Z</time>
      </trkpt>
      <trkpt lat="42.91008" lon="0.12842">
        <ele>1868</ele>
        <time>2012-02-18T14:09:11Z</time>
      </trkpt>
      <trkpt lat="42.91008" lon="0.1284">
        <ele>1868</ele>
        <time>2012-02-18T14:09:14Z</time>
      </trkpt>
      <trkpt lat="42.9101" lon="0.12836">
        <ele>1868</ele>
        <time>2012-02-18T14:09:18Z</time>
      </trkpt>
      <trkpt lat="42.9101" lon="0.12834">
        <ele>1868</ele>
        <time>2012-02-18T14:09:21Z</time>
      </trkpt>
      <trkpt lat="42.91011" lon="0.12832">
        <ele>1869</ele>
        <time>2012-02-18T14:09:25Z</time>
      </trkpt>
      <trkpt lat="42.91013" lon="0.12829">
        <ele>1870</ele>
        <time>2012-02-18T14:09:29Z</time>
      </trkpt>
      <trkpt lat="42.91013" lon="0.12825">
        <ele>1870</ele>
        <time>2012-02-18T14:09:33Z</time>
      </trkpt>
      <trkpt lat="42.91015" lon="0.12822">
        <ele>1870</ele>
        <time>2012-02-18T14:09:37Z</time>
      </trkpt>
      <trkpt lat="42.91016" lon="0.12822">
        <ele>1871</ele>
        <time>2012-02-18T14:09:59Z</time>
      </trkpt>
      <trkpt lat="42.91016" lon="0.12824">
        <ele>1871</ele>
        <time>2012-02-18T14:10:02Z</time>
      </trkpt>
      <trkpt lat="42.91016" lon="0.12826">
        <ele>1871</ele>
        <time>2012-02-18T14:10:05Z</time>
      </trkpt>
      <trkpt lat="42.91017" lon="0.12828">
        <ele>1871</ele>
        <time>2012-02-18T14:10:08Z</time>
      </trkpt>
      <trkpt lat="42.91018" lon="0.12831">
        <ele>1872</ele>
        <time>2012-02-18T14:10:12Z</time>
      </trkpt>
      <trkpt lat="42.91018" lon="0.12834">
        <ele>1872</ele>
        <time>2012-02-18T14:10:16Z</time>
      </trkpt>
      <trkpt lat="42.91018" lon="0.12837">
        <ele>1873</ele>
        <time>2012-02-18T14:10:20Z</time>
      </trkpt>
      <trkpt lat="42.91019" lon="0.12841">
        <ele>1874</ele>
        <time>2012-02-18T14:10:24Z</time>
      </trkpt>
      <trkpt lat="42.9102" lon="0.12844">
        <ele>1874</ele>
        <time>2012-02-18T14:10:29Z</time>
      </trkpt>
      <trkpt lat="42.9102" lon="0.12842">
        <ele>1875</ele>
        <time>2012-02-18T14:10:51Z</time>
      </trkpt>
      <trkpt lat="42.91021" lon="0.12844">
        <ele>1875</ele>
        <time>2012-02-18T14:10:55Z</time>
      </trkpt>
      <trkpt lat="42.91021" lon="0.12846">
        <ele>1875</ele>
        <time>2012-02-18T14:10:59Z</time>
      </trkpt>
      <trkpt lat="42.91021" lon="0.12849">
        <ele>1875</ele>
        <time>2012-02-18T14:11:03Z</time>
      </trkpt>
      <trkpt lat="42.91022" lon="0.12852">
        <ele>1876</ele>
        <time>2012-02-18T14:11:07Z</time>
      </trkpt>
      <trkpt lat="42.91022" lon="0.12855">
        <ele>1878</ele>
        <time>2012-02-18T14:11:11Z</time>
      </trkpt>
      <trkpt lat="42.91023" lon="0.12858">
        <ele>1879</ele>
        <time>2012-02-18T14:11:15Z</time>
      </trkpt>
      <trkpt lat="42.91023" lon="0.1286">
        <ele>1879</ele>
        <time>2012-02-18T14:11:18Z</time>
      </trkpt>
      <trkpt lat="42.91024" lon="0.12863">
        <ele>1879</ele>
        <time>2012-02-18T14:11:22Z</time>
      </trkpt>
      <trkpt lat="42.91024" lon="0.12866">
        <ele>1880</ele>
        <time>2012-02-18T14:11:26Z</time>
      </trkpt>
      <trkpt lat="42.91025" lon="0.12869">
        <ele>1880</ele>
        <time>2012-02-18T14:11:30Z</time>
      </trkpt>
      <trkpt lat="42.91025" lon="0.12872">
        <ele>1881</ele>
        <time>2012-02-18T14:11:34Z</time>
      </trkpt>
      <trkpt lat="42.91026" lon="0.12875">
        <ele>1883</ele>
        <time>2012-02-18T14:12:14Z</time>
      </trkpt>
      <trkpt lat="42.91027" lon="0.12878">
        <ele>1883</ele>
        <time>2012-02-18T14:12:18Z</time>
      </trkpt>
      <trkpt lat="42.91027" lon="0.12882">
        <ele>1884</ele>
        <time>2012-02-18T14:12:22Z</time>
      </trkpt>
      <trkpt lat="42.91028" lon="0.12885">
        <ele>1884</ele>
        <time>2012-02-18T14:12:26Z</time>
      </trkpt>
      <trkpt lat="42.91028" lon="0.12888">
        <ele>1885</ele>
        <time>2012-02-18T14:12:30Z</time>
      </trkpt>
      <trkpt lat="42.91029" lon="0.1289">
        <ele>1886</ele>
        <time>2012-02-18T14:12:33Z</time>
      </trkpt>
      <trkpt lat="42.9103" lon="0.12893">
        <ele>1886</ele>
        <time>2012-02-18T14:12:37Z</time>
      </trkpt>
      <trkpt lat="42.91031" lon="0.12896">
        <ele>1887</ele>
        <time>2012-02-18T14:12:41Z</time>
      </trkpt>
      <trkpt lat="42.91031" lon="0.12898">
        <ele>1887</ele>
        <time>2012-02-18T14:12:44Z</time>
      </trkpt>
      <trkpt lat="42.91032" lon="0.12902">
        <ele>1888</ele>
        <time>2012-02-18T14:12:49Z</time>
      </trkpt>
      <trkpt lat="42.91033" lon="0.12904">
        <ele>1888</ele>
        <time>2012-02-18T14:12:52Z</time>
      </trkpt>
      <trkpt lat="42.91034" lon="0.12905">
        <ele>1888</ele>
        <time>2012-02-18T14:12:55Z</time>
      </trkpt>
      <trkpt lat="42.91035" lon="0.12907">
        <ele>1888</ele>
        <time>2012-02-18T14:13:13Z</time>
      </trkpt>
      <trkpt lat="42.91035" lon="0.12909">
        <ele>1888</ele>
        <time>2012-02-18T14:13:16Z</time>
      </trkpt>
      <trkpt lat="42.91037" lon="0.12912">
        <ele>1888</ele>
        <time>2012-02-18T14:13:21Z</time>
      </trkpt>
      <trkpt lat="42.91038" lon="0.12916">
        <ele>1888</ele>
        <time>2012-02-18T14:13:26Z</time>
      </trkpt>
      <trkpt lat="42.91039" lon="0.12919">
        <ele>1888</ele>
        <time>2012-02-18T14:13:30Z</time>
      </trkpt>
      <trkpt lat="42.9104" lon="0.12921">
        <ele>1889</ele>
        <time>2012-02-18T14:13:33Z</time>
      </trkpt>
      <trkpt lat="42.91041" lon="0.12924">
        <ele>1889</ele>
        <time>2012-02-18T14:13:38Z</time>
      </trkpt>
      <trkpt lat="42.91042" lon="0.12923">
        <ele>1889</ele>
        <time>2012-02-18T14:14:03Z</time>
      </trkpt>
      <trkpt lat="42.91042" lon="0.12924">
        <ele>1889</ele>
        <time>2012-02-18T14:14:11Z</time>
      </trkpt>
      <trkpt lat="42.91043" lon="0.12927">
        <ele>1889</ele>
        <time>2012-02-18T14:14:16Z</time>
      </trkpt>
      <trkpt lat="42.91044" lon="0.12929">
        <ele>1890</ele>
        <time>2012-02-18T14:14:19Z</time>
      </trkpt>
      <trkpt lat="42.91045" lon="0.12931">
        <ele>1890</ele>
        <time>2012-02-18T14:14:22Z</time>
      </trkpt>
      <trkpt lat="42.91045" lon="0.12933">
        <ele>1891</ele>
        <time>2012-02-18T14:14:25Z</time>
      </trkpt>
      <trkpt lat="42.91047" lon="0.12937">
        <ele>1892</ele>
        <time>2012-02-18T14:14:30Z</time>
      </trkpt>
      <trkpt lat="42.91048" lon="0.12939">
        <ele>1892</ele>
        <time>2012-02-18T14:14:33Z</time>
      </trkpt>
      <trkpt lat="42.91049" lon="0.12941">
        <ele>1893</ele>
        <time>2012-02-18T14:14:36Z</time>
      </trkpt>
      <trkpt lat="42.9105" lon="0.12943">
        <ele>1893</ele>
        <time>2012-02-18T14:14:39Z</time>
      </trkpt>
      <trkpt lat="42.91051" lon="0.12945">
        <ele>1894</ele>
        <time>2012-02-18T14:14:42Z</time>
      </trkpt>
      <trkpt lat="42.91051" lon="0.12946">
        <ele>1894</ele>
        <time>2012-02-18T14:14:45Z</time>
      </trkpt>
      <trkpt lat="42.91053" lon="0.12948">
        <ele>1894</ele>
        <time>2012-02-18T14:14:48Z</time>
      </trkpt>
      <trkpt lat="42.91054" lon="0.1295">
        <ele>1894</ele>
        <time>2012-02-18T14:14:51Z</time>
      </trkpt>
      <trkpt lat="42.91055" lon="0.12952">
        <ele>1895</ele>
        <time>2012-02-18T14:14:54Z</time>
      </trkpt>
      <trkpt lat="42.91056" lon="0.12953">
        <ele>1895</ele>
        <time>2012-02-18T14:14:57Z</time>
      </trkpt>
      <trkpt lat="42.91058" lon="0.12955">
        <ele>1895</ele>
        <time>2012-02-18T14:15:00Z</time>
      </trkpt>
      <trkpt lat="42.91059" lon="0.12957">
        <ele>1896</ele>
        <time>2012-02-18T14:15:04Z</time>
      </trkpt>
      <trkpt lat="42.91061" lon="0.12958">
        <ele>1898</ele>
        <time>2012-02-18T14:15:38Z</time>
      </trkpt>
      <trkpt lat="42.91062" lon="0.1296">
        <ele>1898</ele>
        <time>2012-02-18T14:15:41Z</time>
      </trkpt>
      <trkpt lat="42.91063" lon="0.12962">
        <ele>1899</ele>
        <time>2012-02-18T14:15:44Z</time>
      </trkpt>
      <trkpt lat="42.91065" lon="0.12963">
        <ele>1900</ele>
        <time>2012-02-18T14:15:47Z</time>
      </trkpt>
      <trkpt lat="42.91066" lon="0.12965">
        <ele>1900</ele>
        <time>2012-02-18T14:15:50Z</time>
      </trkpt>
      <trkpt lat="42.91067" lon="0.12967">
        <ele>1901</ele>
        <time>2012-02-18T14:15:53Z</time>
      </trkpt>
      <trkpt lat="42.91069" lon="0.12968">
        <ele>1901</ele>
        <time>2012-02-18T14:15:56Z</time>
      </trkpt>
      <trkpt lat="42.9107" lon="0.1297">
        <ele>1901</ele>
        <time>2012-02-18T14:15:59Z</time>
      </trkpt>
      <trkpt lat="42.91071" lon="0.12971">
        <ele>1902</ele>
        <time>2012-02-18T14:16:02Z</time>
      </trkpt>
      <trkpt lat="42.91074" lon="0.12974">
        <ele>1903</ele>
        <time>2012-02-18T14:16:07Z</time>
      </trkpt>
      <trkpt lat="42.91077" lon="0.12976">
        <ele>1904</ele>
        <time>2012-02-18T14:16:12Z</time>
      </trkpt>
      <trkpt lat="42.91079" lon="0.12978">
        <ele>1905</ele>
        <time>2012-02-18T14:16:15Z</time>
      </trkpt>
      <trkpt lat="42.9108" lon="0.12979">
        <ele>1905</ele>
        <time>2012-02-18T14:16:18Z</time>
      </trkpt>
      <trkpt lat="42.91083" lon="0.12981">
        <ele>1906</ele>
        <time>2012-02-18T14:16:22Z</time>
      </trkpt>
      <trkpt lat="42.91084" lon="0.12982">
        <ele>1906</ele>
        <time>2012-02-18T14:16:25Z</time>
      </trkpt>
      <trkpt lat="42.91086" lon="0.12983">
        <ele>1907</ele>
        <time>2012-02-18T14:16:28Z</time>
      </trkpt>
      <trkpt lat="42.91087" lon="0.12984">
        <ele>1907</ele>
        <time>2012-02-18T14:16:31Z</time>
      </trkpt>
      <trkpt lat="42.91088" lon="0.12985">
        <ele>1908</ele>
        <time>2012-02-18T14:16:58Z</time>
      </trkpt>
      <trkpt lat="42.9109" lon="0.12986">
        <ele>1908</ele>
        <time>2012-02-18T14:17:01Z</time>
      </trkpt>
      <trkpt lat="42.91091" lon="0.12987">
        <ele>1908</ele>
        <time>2012-02-18T14:17:04Z</time>
      </trkpt>
      <trkpt lat="42.91093" lon="0.12989">
        <ele>1908</ele>
        <time>2012-02-18T14:17:07Z</time>
      </trkpt>
      <trkpt lat="42.91094" lon="0.12991">
        <ele>1909</ele>
        <time>2012-02-18T14:17:10Z</time>
      </trkpt>
      <trkpt lat="42.91095" lon="0.12992">
        <ele>1910</ele>
        <time>2012-02-18T14:17:13Z</time>
      </trkpt>
      <trkpt lat="42.91097" lon="0.12994">
        <ele>1910</ele>
        <time>2012-02-18T14:17:16Z</time>
      </trkpt>
      <trkpt lat="42.91098" lon="0.12996">
        <ele>1911</ele>
        <time>2012-02-18T14:17:19Z</time>
      </trkpt>
      <trkpt lat="42.911" lon="0.12997">
        <ele>1912</ele>
        <time>2012-02-18T14:17:22Z</time>
      </trkpt>
      <trkpt lat="42.911" lon="0.12999">
        <ele>1912</ele>
        <time>2012-02-18T14:17:25Z</time>
      </trkpt>
      <trkpt lat="42.91101" lon="0.13001">
        <ele>1913</ele>
        <time>2012-02-18T14:17:28Z</time>
      </trkpt>
      <trkpt lat="42.91104" lon="0.13003">
        <ele>1915</ele>
        <time>2012-02-18T14:17:33Z</time>
      </trkpt>
      <trkpt lat="42.91106" lon="0.13003">
        <ele>1915</ele>
        <time>2012-02-18T14:17:37Z</time>
      </trkpt>
      <trkpt lat="42.91108" lon="0.13002">
        <ele>1915</ele>
        <time>2012-02-18T14:17:40Z</time>
      </trkpt>
      <trkpt lat="42.9111" lon="0.13">
        <ele>1918</ele>
        <time>2012-02-18T14:18:00Z</time>
      </trkpt>
      <trkpt lat="42.91111" lon="0.12999">
        <ele>1918</ele>
        <time>2012-02-18T14:18:03Z</time>
      </trkpt>
      <trkpt lat="42.91113" lon="0.12998">
        <ele>1919</ele>
        <time>2012-02-18T14:18:06Z</time>
      </trkpt>
      <trkpt lat="42.91116" lon="0.12997">
        <ele>1919</ele>
        <time>2012-02-18T14:18:10Z</time>
      </trkpt>
      <trkpt lat="42.91118" lon="0.12996">
        <ele>1920</ele>
        <time>2012-02-18T14:18:15Z</time>
      </trkpt>
      <trkpt lat="42.91121" lon="0.12995">
        <ele>1920</ele>
        <time>2012-02-18T14:18:19Z</time>
      </trkpt>
      <trkpt lat="42.91124" lon="0.12995">
        <ele>1920</ele>
        <time>2012-02-18T14:18:23Z</time>
      </trkpt>
      <trkpt lat="42.91127" lon="0.12995">
        <ele>1921</ele>
        <time>2012-02-18T14:18:27Z</time>
      </trkpt>
      <trkpt lat="42.91129" lon="0.12993">
        <ele>1921</ele>
        <time>2012-02-18T14:18:31Z</time>
      </trkpt>
      <trkpt lat="42.91132" lon="0.12992">
        <ele>1922</ele>
        <time>2012-02-18T14:18:38Z</time>
      </trkpt>
      <trkpt lat="42.91134" lon="0.12991">
        <ele>1922</ele>
        <time>2012-02-18T14:18:50Z</time>
      </trkpt>
      <trkpt lat="42.91136" lon="0.1299">
        <ele>1922</ele>
        <time>2012-02-18T14:18:54Z</time>
      </trkpt>
      <trkpt lat="42.91139" lon="0.12989">
        <ele>1922</ele>
        <time>2012-02-18T14:18:58Z</time>
      </trkpt>
      <trkpt lat="42.91142" lon="0.12987">
        <ele>1923</ele>
        <time>2012-02-18T14:19:17Z</time>
      </trkpt>
      <trkpt lat="42.91145" lon="0.12986">
        <ele>1923</ele>
        <time>2012-02-18T14:19:21Z</time>
      </trkpt>
      <trkpt lat="42.91148" lon="0.12984">
        <ele>1923</ele>
        <time>2012-02-18T14:19:25Z</time>
      </trkpt>
      <trkpt lat="42.91151" lon="0.12983">
        <ele>1923</ele>
        <time>2012-02-18T14:19:29Z</time>
      </trkpt>
      <trkpt lat="42.91154" lon="0.12981">
        <ele>1924</ele>
        <time>2012-02-18T14:19:33Z</time>
      </trkpt>
      <trkpt lat="42.91158" lon="0.12981">
        <ele>1924</ele>
        <time>2012-02-18T14:19:37Z</time>
      </trkpt>
      <trkpt lat="42.91161" lon="0.12981">
        <ele>1924</ele>
        <time>2012-02-18T14:19:41Z</time>
      </trkpt>
      <trkpt lat="42.91163" lon="0.12982">
        <ele>1925</ele>
        <time>2012-02-18T14:19:45Z</time>
      </trkpt>
      <trkpt lat="42.91166" lon="0.12983">
        <ele>1926</ele>
        <time>2012-02-18T14:19:49Z</time>
      </trkpt>
      <trkpt lat="42.91169" lon="0.12986">
        <ele>1927</ele>
        <time>2012-02-18T14:19:53Z</time>
      </trkpt>
      <trkpt lat="42.91173" lon="0.12988">
        <ele>1927</ele>
        <time>2012-02-18T14:19:57Z</time>
      </trkpt>
      <trkpt lat="42.91176" lon="0.12989">
        <ele>1927</ele>
        <time>2012-02-18T14:20:00Z</time>
      </trkpt>
      <trkpt lat="42.91179" lon="0.12991">
        <ele>1927</ele>
        <time>2012-02-18T14:20:13Z</time>
      </trkpt>
      <trkpt lat="42.91182" lon="0.12992">
        <ele>1927</ele>
        <time>2012-02-18T14:20:17Z</time>
      </trkpt>
      <trkpt lat="42.91185" lon="0.12994">
        <ele>1927</ele>
        <time>2012-02-18T14:20:21Z</time>
      </trkpt>
      <trkpt lat="42.91187" lon="0.12995">
        <ele>1927</ele>
        <time>2012-02-18T14:20:26Z</time>
      </trkpt>
      <trkpt lat="42.91188" lon="0.12993">
        <ele>1927</ele>
        <time>2012-02-18T14:21:18Z</time>
      </trkpt>
      <trkpt lat="42.91188" lon="0.12995">
        <ele>1925</ele>
        <time>2012-02-18T14:22:11Z</time>
      </trkpt>
      <trkpt lat="42.91187" lon="0.12995">
        <ele>1925</ele>
        <time>2012-02-18T14:22:48Z</time>
      </trkpt>
      <trkpt lat="42.91186" lon="0.12995">
        <ele>1926</ele>
        <time>2012-02-18T14:23:11Z</time>
      </trkpt>
      <trkpt lat="42.91187" lon="0.12995">
        <ele>1927</ele>
        <time>2012-02-18T14:24:22Z</time>
      </trkpt>
      <trkpt lat="42.91188" lon="0.12994">
        <ele>1927</ele>
        <time>2012-02-18T14:25:32Z</time>
      </trkpt>
      <trkpt lat="42.91189" lon="0.12995">
        <ele>1927</ele>
        <time>2012-02-18T14:26:13Z</time>
      </trkpt>
      <trkpt lat="42.91188" lon="0.12996">
        <ele>1927</ele>
        <time>2012-02-18T14:27:35Z</time>
      </trkpt>
      <trkpt lat="42.91187" lon="0.12996">
        <ele>1930</ele>
        <time>2012-02-18T14:29:33Z</time>
      </trkpt>
      <trkpt lat="42.91189" lon="0.12998">
        <ele>1930</ele>
        <time>2012-02-18T14:30:21Z</time>
      </trkpt>
      <trkpt lat="42.91192" lon="0.12999">
        <ele>1930</ele>
        <time>2012-02-18T14:30:25Z</time>
      </trkpt>
      <trkpt lat="42.91194" lon="0.13001">
        <ele>1930</ele>
        <time>2012-02-18T14:30:29Z</time>
      </trkpt>
      <trkpt lat="42.91198" lon="0.13002">
        <ele>1930</ele>
        <time>2012-02-18T14:30:33Z</time>
      </trkpt>
      <trkpt lat="42.912" lon="0.13004">
        <ele>1930</ele>
        <time>2012-02-18T14:30:37Z</time>
      </trkpt>
      <trkpt lat="42.91203" lon="0.13005">
        <ele>1930</ele>
        <time>2012-02-18T14:30:41Z</time>
      </trkpt>
      <trkpt lat="42.91206" lon="0.13007">
        <ele>1931</ele>
        <time>2012-02-18T14:30:45Z</time>
      </trkpt>
      <trkpt lat="42.91209" lon="0.13009">
        <ele>1931</ele>
        <time>2012-02-18T14:30:49Z</time>
      </trkpt>
      <trkpt lat="42.91211" lon="0.13011">
        <ele>1931</ele>
        <time>2012-02-18T14:30:53Z</time>
      </trkpt>
      <trkpt lat="42.91214" lon="0.13012">
        <ele>1932</ele>
        <time>2012-02-18T14:30:57Z</time>
      </trkpt>
      <trkpt lat="42.91215" lon="0.13013">
        <ele>1932</ele>
        <time>2012-02-18T14:31:00Z</time>
      </trkpt>
      <trkpt lat="42.91217" lon="0.13014">
        <ele>1932</ele>
        <time>2012-02-18T14:31:04Z</time>
      </trkpt>
      <trkpt lat="42.9122" lon="0.13015">
        <ele>1933</ele>
        <time>2012-02-18T14:31:08Z</time>
      </trkpt>
      <trkpt lat="42.91221" lon="0.13016">
        <ele>1933</ele>
        <time>2012-02-18T14:31:11Z</time>
      </trkpt>
      <trkpt lat="42.91223" lon="0.13018">
        <ele>1933</ele>
        <time>2012-02-18T14:31:14Z</time>
      </trkpt>
      <trkpt lat="42.91225" lon="0.13019">
        <ele>1933</ele>
        <time>2012-02-18T14:31:18Z</time>
      </trkpt>
      <trkpt lat="42.91228" lon="0.1302">
        <ele>1934</ele>
        <time>2012-02-18T14:31:23Z</time>
      </trkpt>
      <trkpt lat="42.9123" lon="0.13022">
        <ele>1934</ele>
        <time>2012-02-18T14:31:27Z</time>
      </trkpt>
      <trkpt lat="42.91232" lon="0.13023">
        <ele>1934</ele>
        <time>2012-02-18T14:31:30Z</time>
      </trkpt>
      <trkpt lat="42.91235" lon="0.13024">
        <ele>1934</ele>
        <time>2012-02-18T14:31:35Z</time>
      </trkpt>
      <trkpt lat="42.91236" lon="0.13025">
        <ele>1934</ele>
        <time>2012-02-18T14:31:38Z</time>
      </trkpt>
      <trkpt lat="42.91239" lon="0.13026">
        <ele>1934</ele>
        <time>2012-02-18T14:31:42Z</time>
      </trkpt>
      <trkpt lat="42.91241" lon="0.13028">
        <ele>1934</ele>
        <time>2012-02-18T14:31:47Z</time>
      </trkpt>
      <trkpt lat="42.91243" lon="0.13029">
        <ele>1934</ele>
        <time>2012-02-18T14:31:50Z</time>
      </trkpt>
      <trkpt lat="42.91244" lon="0.1303">
        <ele>1935</ele>
        <time>2012-02-18T14:31:53Z</time>
      </trkpt>
      <trkpt lat="42.91247" lon="0.13031">
        <ele>1935</ele>
        <time>2012-02-18T14:31:58Z</time>
      </trkpt>
      <trkpt lat="42.91248" lon="0.13032">
        <ele>1935</ele>
        <time>2012-02-18T14:32:01Z</time>
      </trkpt>
      <trkpt lat="42.9125" lon="0.13033">
        <ele>1936</ele>
        <time>2012-02-18T14:32:04Z</time>
      </trkpt>
      <trkpt lat="42.91253" lon="0.13035">
        <ele>1936</ele>
        <time>2012-02-18T14:32:09Z</time>
      </trkpt>
      <trkpt lat="42.91254" lon="0.13036">
        <ele>1937</ele>
        <time>2012-02-18T14:32:12Z</time>
      </trkpt>
      <trkpt lat="42.91256" lon="0.13037">
        <ele>1938</ele>
        <time>2012-02-18T14:32:15Z</time>
      </trkpt>
      <trkpt lat="42.91257" lon="0.13038">
        <ele>1938</ele>
        <time>2012-02-18T14:32:18Z</time>
      </trkpt>
      <trkpt lat="42.91259" lon="0.13039">
        <ele>1939</ele>
        <time>2012-02-18T14:32:21Z</time>
      </trkpt>
      <trkpt lat="42.9126" lon="0.13039">
        <ele>1939</ele>
        <time>2012-02-18T14:32:24Z</time>
      </trkpt>
      <trkpt lat="42.91262" lon="0.1304">
        <ele>1939</ele>
        <time>2012-02-18T14:32:27Z</time>
      </trkpt>
      <trkpt lat="42.91264" lon="0.13041">
        <ele>1939</ele>
        <time>2012-02-18T14:32:32Z</time>
      </trkpt>
      <trkpt lat="42.91266" lon="0.13042">
        <ele>1939</ele>
        <time>2012-02-18T14:32:37Z</time>
      </trkpt>
      <trkpt lat="42.91267" lon="0.13043">
        <ele>1939</ele>
        <time>2012-02-18T14:32:40Z</time>
      </trkpt>
      <trkpt lat="42.91269" lon="0.13043">
        <ele>1939</ele>
        <time>2012-02-18T14:32:43Z</time>
      </trkpt>
      <trkpt lat="42.9127" lon="0.13044">
        <ele>1939</ele>
        <time>2012-02-18T14:32:46Z</time>
      </trkpt>
      <trkpt lat="42.91272" lon="0.13045">
        <ele>1940</ele>
        <time>2012-02-18T14:32:49Z</time>
      </trkpt>
      <trkpt lat="42.91273" lon="0.13045">
        <ele>1941</ele>
        <time>2012-02-18T14:32:52Z</time>
      </trkpt>
      <trkpt lat="42.91275" lon="0.13046">
        <ele>1941</ele>
        <time>2012-02-18T14:32:55Z</time>
      </trkpt>
      <trkpt lat="42.91277" lon="0.13046">
        <ele>1942</ele>
        <time>2012-02-18T14:32:58Z</time>
      </trkpt>
      <trkpt lat="42.91278" lon="0.13047">
        <ele>1942</ele>
        <time>2012-02-18T14:33:01Z</time>
      </trkpt>
      <trkpt lat="42.91279" lon="0.13047">
        <ele>1942</ele>
        <time>2012-02-18T14:33:04Z</time>
      </trkpt>
      <trkpt lat="42.91281" lon="0.13048">
        <ele>1942</ele>
        <time>2012-02-18T14:33:07Z</time>
      </trkpt>
      <trkpt lat="42.91282" lon="0.13048">
        <ele>1943</ele>
        <time>2012-02-18T14:33:10Z</time>
      </trkpt>
      <trkpt lat="42.91284" lon="0.13049">
        <ele>1943</ele>
        <time>2012-02-18T14:33:13Z</time>
      </trkpt>
      <trkpt lat="42.91285" lon="0.1305">
        <ele>1943</ele>
        <time>2012-02-18T14:33:16Z</time>
      </trkpt>
      <trkpt lat="42.91287" lon="0.1305">
        <ele>1943</ele>
        <time>2012-02-18T14:33:19Z</time>
      </trkpt>
      <trkpt lat="42.91289" lon="0.13051">
        <ele>1943</ele>
        <time>2012-02-18T14:33:24Z</time>
      </trkpt>
      <trkpt lat="42.91291" lon="0.13052">
        <ele>1943</ele>
        <time>2012-02-18T14:33:27Z</time>
      </trkpt>
      <trkpt lat="42.91292" lon="0.13053">
        <ele>1944</ele>
        <time>2012-02-18T14:33:30Z</time>
      </trkpt>
      <trkpt lat="42.91294" lon="0.13054">
        <ele>1945</ele>
        <time>2012-02-18T14:33:33Z</time>
      </trkpt>
      <trkpt lat="42.91295" lon="0.13055">
        <ele>1945</ele>
        <time>2012-02-18T14:33:36Z</time>
      </trkpt>
      <trkpt lat="42.91296" lon="0.13056">
        <ele>1946</ele>
        <time>2012-02-18T14:33:39Z</time>
      </trkpt>
      <trkpt lat="42.91298" lon="0.13057">
        <ele>1946</ele>
        <time>2012-02-18T14:33:42Z</time>
      </trkpt>
      <trkpt lat="42.913" lon="0.13058">
        <ele>1947</ele>
        <time>2012-02-18T14:33:47Z</time>
      </trkpt>
      <trkpt lat="42.91302" lon="0.13059">
        <ele>1947</ele>
        <time>2012-02-18T14:33:50Z</time>
      </trkpt>
      <trkpt lat="42.91303" lon="0.1306">
        <ele>1947</ele>
        <time>2012-02-18T14:33:53Z</time>
      </trkpt>
      <trkpt lat="42.91304" lon="0.13061">
        <ele>1947</ele>
        <time>2012-02-18T14:33:56Z</time>
      </trkpt>
      <trkpt lat="42.91305" lon="0.13062">
        <ele>1948</ele>
        <time>2012-02-18T14:33:59Z</time>
      </trkpt>
      <trkpt lat="42.91307" lon="0.13063">
        <ele>1948</ele>
        <time>2012-02-18T14:34:02Z</time>
      </trkpt>
      <trkpt lat="42.91308" lon="0.13065">
        <ele>1948</ele>
        <time>2012-02-18T14:34:05Z</time>
      </trkpt>
      <trkpt lat="42.91309" lon="0.13066">
        <ele>1949</ele>
        <time>2012-02-18T14:34:08Z</time>
      </trkpt>
      <trkpt lat="42.9131" lon="0.13067">
        <ele>1949</ele>
        <time>2012-02-18T14:34:11Z</time>
      </trkpt>
      <trkpt lat="42.91312" lon="0.13068">
        <ele>1949</ele>
        <time>2012-02-18T14:34:14Z</time>
      </trkpt>
      <trkpt lat="42.91313" lon="0.1307">
        <ele>1949</ele>
        <time>2012-02-18T14:34:17Z</time>
      </trkpt>
      <trkpt lat="42.91314" lon="0.13071">
        <ele>1950</ele>
        <time>2012-02-18T14:34:20Z</time>
      </trkpt>
      <trkpt lat="42.91315" lon="0.13072">
        <ele>1950</ele>
        <time>2012-02-18T14:34:25Z</time>
      </trkpt>
      <trkpt lat="42.91317" lon="0.13073">
        <ele>1951</ele>
        <time>2012-02-18T14:34:28Z</time>
      </trkpt>
      <trkpt lat="42.91318" lon="0.13074">
        <ele>1951</ele>
        <time>2012-02-18T14:34:31Z</time>
      </trkpt>
      <trkpt lat="42.91319" lon="0.13076">
        <ele>1951</ele>
        <time>2012-02-18T14:34:34Z</time>
      </trkpt>
      <trkpt lat="42.9132" lon="0.13077">
        <ele>1952</ele>
        <time>2012-02-18T14:34:37Z</time>
      </trkpt>
      <trkpt lat="42.91321" lon="0.13078">
        <ele>1953</ele>
        <time>2012-02-18T14:34:40Z</time>
      </trkpt>
      <trkpt lat="42.91323" lon="0.13079">
        <ele>1954</ele>
        <time>2012-02-18T14:34:43Z</time>
      </trkpt>
      <trkpt lat="42.91324" lon="0.1308">
        <ele>1954</ele>
        <time>2012-02-18T14:34:46Z</time>
      </trkpt>
      <trkpt lat="42.91325" lon="0.13081">
        <ele>1954</ele>
        <time>2012-02-18T14:34:49Z</time>
      </trkpt>
      <trkpt lat="42.91326" lon="0.13082">
        <ele>1954</ele>
        <time>2012-02-18T14:34:52Z</time>
      </trkpt>
      <trkpt lat="42.91328" lon="0.13083">
        <ele>1954</ele>
        <time>2012-02-18T14:34:55Z</time>
      </trkpt>
      <trkpt lat="42.91329" lon="0.13084">
        <ele>1954</ele>
        <time>2012-02-18T14:34:58Z</time>
      </trkpt>
      <trkpt lat="42.9133" lon="0.13085">
        <ele>1955</ele>
        <time>2012-02-18T14:35:01Z</time>
      </trkpt>
      <trkpt lat="42.91331" lon="0.13085">
        <ele>1955</ele>
        <time>2012-02-18T14:35:04Z</time>
      </trkpt>
      <trkpt lat="42.91333" lon="0.13087">
        <ele>1955</ele>
        <time>2012-02-18T14:35:07Z</time>
      </trkpt>
      <trkpt lat="42.91334" lon="0.13088">
        <ele>1955</ele>
        <time>2012-02-18T14:35:10Z</time>
      </trkpt>
      <trkpt lat="42.91335" lon="0.1309">
        <ele>1956</ele>
        <time>2012-02-18T14:35:13Z</time>
      </trkpt>
      <trkpt lat="42.91336" lon="0.13091">
        <ele>1956</ele>
        <time>2012-02-18T14:35:16Z</time>
      </trkpt>
      <trkpt lat="42.91338" lon="0.13092">
        <ele>1957</ele>
        <time>2012-02-18T14:35:19Z</time>
      </trkpt>
      <trkpt lat="42.91339" lon="0.13094">
        <ele>1957</ele>
        <time>2012-02-18T14:35:22Z</time>
      </trkpt>
      <trkpt lat="42.9134" lon="0.13095">
        <ele>1957</ele>
        <time>2012-02-18T14:35:25Z</time>
      </trkpt>
      <trkpt lat="42.91341" lon="0.13096">
        <ele>1958</ele>
        <time>2012-02-18T14:35:28Z</time>
      </trkpt>
      <trkpt lat="42.91343" lon="0.13097">
        <ele>1958</ele>
        <time>2012-02-18T14:35:32Z</time>
      </trkpt>
      <trkpt lat="42.91344" lon="0.13098">
        <ele>1959</ele>
        <time>2012-02-18T14:35:35Z</time>
      </trkpt>
      <trkpt lat="42.91347" lon="0.131">
        <ele>1960</ele>
        <time>2012-02-18T14:35:40Z</time>
      </trkpt>
      <trkpt lat="42.9135" lon="0.13101">
        <ele>1960</ele>
        <time>2012-02-18T14:35:45Z</time>
      </trkpt>
      <trkpt lat="42.91352" lon="0.13104">
        <ele>1960</ele>
        <time>2012-02-18T14:35:50Z</time>
      </trkpt>
      <trkpt lat="42.91354" lon="0.13105">
        <ele>1960</ele>
        <time>2012-02-18T14:35:53Z</time>
      </trkpt>
      <trkpt lat="42.91356" lon="0.13106">
        <ele>1961</ele>
        <time>2012-02-18T14:35:56Z</time>
      </trkpt>
      <trkpt lat="42.91357" lon="0.13107">
        <ele>1961</ele>
        <time>2012-02-18T14:35:59Z</time>
      </trkpt>
      <trkpt lat="42.91358" lon="0.13108">
        <ele>1961</ele>
        <time>2012-02-18T14:36:02Z</time>
      </trkpt>
      <trkpt lat="42.91359" lon="0.1311">
        <ele>1961</ele>
        <time>2012-02-18T14:36:05Z</time>
      </trkpt>
      <trkpt lat="42.9136" lon="0.13111">
        <ele>1961</ele>
        <time>2012-02-18T14:36:08Z</time>
      </trkpt>
      <trkpt lat="42.91362" lon="0.13112">
        <ele>1961</ele>
        <time>2012-02-18T14:36:11Z</time>
      </trkpt>
      <trkpt lat="42.91363" lon="0.13113">
        <ele>1961</ele>
        <time>2012-02-18T14:36:14Z</time>
      </trkpt>
      <trkpt lat="42.91365" lon="0.13115">
        <ele>1961</ele>
        <time>2012-02-18T14:36:17Z</time>
      </trkpt>
      <trkpt lat="42.91366" lon="0.13116">
        <ele>1961</ele>
        <time>2012-02-18T14:36:21Z</time>
      </trkpt>
      <trkpt lat="42.91367" lon="0.13117">
        <ele>1961</ele>
        <time>2012-02-18T14:36:24Z</time>
      </trkpt>
      <trkpt lat="42.91368" lon="0.13118">
        <ele>1961</ele>
        <time>2012-02-18T14:36:27Z</time>
      </trkpt>
      <trkpt lat="42.91369" lon="0.1312">
        <ele>1961</ele>
        <time>2012-02-18T14:36:30Z</time>
      </trkpt>
      <trkpt lat="42.9137" lon="0.13122">
        <ele>1962</ele>
        <time>2012-02-18T14:36:33Z</time>
      </trkpt>
      <trkpt lat="42.91372" lon="0.13123">
        <ele>1962</ele>
        <time>2012-02-18T14:36:37Z</time>
      </trkpt>
      <trkpt lat="42.91373" lon="0.13125">
        <ele>1963</ele>
        <time>2012-02-18T14:36:40Z</time>
      </trkpt>
      <trkpt lat="42.91374" lon="0.13126">
        <ele>1964</ele>
        <time>2012-02-18T14:36:44Z</time>
      </trkpt>
      <trkpt lat="42.91375" lon="0.13128">
        <ele>1964</ele>
        <time>2012-02-18T14:36:47Z</time>
      </trkpt>
      <trkpt lat="42.91376" lon="0.13129">
        <ele>1964</ele>
        <time>2012-02-18T14:36:50Z</time>
      </trkpt>
      <trkpt lat="42.91378" lon="0.1313">
        <ele>1964</ele>
        <time>2012-02-18T14:36:53Z</time>
      </trkpt>
      <trkpt lat="42.91379" lon="0.13132">
        <ele>1965</ele>
        <time>2012-02-18T14:36:56Z</time>
      </trkpt>
      <trkpt lat="42.9138" lon="0.13133">
        <ele>1966</ele>
        <time>2012-02-18T14:36:59Z</time>
      </trkpt>
      <trkpt lat="42.91381" lon="0.13135">
        <ele>1967</ele>
        <time>2012-02-18T14:37:02Z</time>
      </trkpt>
      <trkpt lat="42.91384" lon="0.13136">
        <ele>1967</ele>
        <time>2012-02-18T14:37:06Z</time>
      </trkpt>
      <trkpt lat="42.91386" lon="0.13138">
        <ele>1968</ele>
        <time>2012-02-18T14:37:11Z</time>
      </trkpt>
      <trkpt lat="42.91388" lon="0.13138">
        <ele>1968</ele>
        <time>2012-02-18T14:37:14Z</time>
      </trkpt>
      <trkpt lat="42.9139" lon="0.13139">
        <ele>1968</ele>
        <time>2012-02-18T14:37:18Z</time>
      </trkpt>
      <trkpt lat="42.91392" lon="0.1314">
        <ele>1968</ele>
        <time>2012-02-18T14:37:21Z</time>
      </trkpt>
      <trkpt lat="42.91393" lon="0.13141">
        <ele>1968</ele>
        <time>2012-02-18T14:37:24Z</time>
      </trkpt>
      <trkpt lat="42.91394" lon="0.13142">
        <ele>1968</ele>
        <time>2012-02-18T14:37:27Z</time>
      </trkpt>
      <trkpt lat="42.91396" lon="0.13142">
        <ele>1968</ele>
        <time>2012-02-18T14:37:30Z</time>
      </trkpt>
      <trkpt lat="42.91397" lon="0.13143">
        <ele>1968</ele>
        <time>2012-02-18T14:37:33Z</time>
      </trkpt>
      <trkpt lat="42.91398" lon="0.13144">
        <ele>1968</ele>
        <time>2012-02-18T14:37:36Z</time>
      </trkpt>
      <trkpt lat="42.91399" lon="0.13145">
        <ele>1968</ele>
        <time>2012-02-18T14:37:39Z</time>
      </trkpt>
      <trkpt lat="42.91401" lon="0.13146">
        <ele>1969</ele>
        <time>2012-02-18T14:37:42Z</time>
      </trkpt>
      <trkpt lat="42.91402" lon="0.13147">
        <ele>1969</ele>
        <time>2012-02-18T14:37:45Z</time>
      </trkpt>
      <trkpt lat="42.91403" lon="0.13148">
        <ele>1970</ele>
        <time>2012-02-18T14:37:48Z</time>
      </trkpt>
      <trkpt lat="42.91405" lon="0.13149">
        <ele>1970</ele>
        <time>2012-02-18T14:37:51Z</time>
      </trkpt>
      <trkpt lat="42.91406" lon="0.1315">
        <ele>1970</ele>
        <time>2012-02-18T14:37:54Z</time>
      </trkpt>
      <trkpt lat="42.91407" lon="0.13151">
        <ele>1970</ele>
        <time>2012-02-18T14:37:57Z</time>
      </trkpt>
      <trkpt lat="42.91409" lon="0.13152">
        <ele>1971</ele>
        <time>2012-02-18T14:38:00Z</time>
      </trkpt>
      <trkpt lat="42.9141" lon="0.13153">
        <ele>1971</ele>
        <time>2012-02-18T14:38:03Z</time>
      </trkpt>
      <trkpt lat="42.91411" lon="0.13155">
        <ele>1971</ele>
        <time>2012-02-18T14:38:06Z</time>
      </trkpt>
      <trkpt lat="42.91414" lon="0.13156">
        <ele>1972</ele>
        <time>2012-02-18T14:38:11Z</time>
      </trkpt>
      <trkpt lat="42.91415" lon="0.13157">
        <ele>1972</ele>
        <time>2012-02-18T14:38:14Z</time>
      </trkpt>
      <trkpt lat="42.91417" lon="0.13158">
        <ele>1973</ele>
        <time>2012-02-18T14:38:17Z</time>
      </trkpt>
      <trkpt lat="42.91418" lon="0.13159">
        <ele>1973</ele>
        <time>2012-02-18T14:38:20Z</time>
      </trkpt>
      <trkpt lat="42.91419" lon="0.1316">
        <ele>1974</ele>
        <time>2012-02-18T14:38:23Z</time>
      </trkpt>
      <trkpt lat="42.91422" lon="0.13161">
        <ele>1974</ele>
        <time>2012-02-18T14:38:28Z</time>
      </trkpt>
      <trkpt lat="42.91423" lon="0.13162">
        <ele>1974</ele>
        <time>2012-02-18T14:38:31Z</time>
      </trkpt>
      <trkpt lat="42.91425" lon="0.13163">
        <ele>1975</ele>
        <time>2012-02-18T14:38:34Z</time>
      </trkpt>
      <trkpt lat="42.91426" lon="0.13164">
        <ele>1975</ele>
        <time>2012-02-18T14:38:37Z</time>
      </trkpt>
      <trkpt lat="42.91427" lon="0.13165">
        <ele>1975</ele>
        <time>2012-02-18T14:38:40Z</time>
      </trkpt>
      <trkpt lat="42.9143" lon="0.13167">
        <ele>1976</ele>
        <time>2012-02-18T14:38:45Z</time>
      </trkpt>
      <trkpt lat="42.91431" lon="0.13168">
        <ele>1976</ele>
        <time>2012-02-18T14:38:48Z</time>
      </trkpt>
      <trkpt lat="42.91433" lon="0.13169">
        <ele>1976</ele>
        <time>2012-02-18T14:38:51Z</time>
      </trkpt>
      <trkpt lat="42.91435" lon="0.1317">
        <ele>1977</ele>
        <time>2012-02-18T14:38:55Z</time>
      </trkpt>
      <trkpt lat="42.91438" lon="0.13171">
        <ele>1977</ele>
        <time>2012-02-18T14:39:00Z</time>
      </trkpt>
      <trkpt lat="42.91439" lon="0.13172">
        <ele>1977</ele>
        <time>2012-02-18T14:39:03Z</time>
      </trkpt>
      <trkpt lat="42.91441" lon="0.13174">
        <ele>1977</ele>
        <time>2012-02-18T14:39:06Z</time>
      </trkpt>
      <trkpt lat="42.91444" lon="0.13175">
        <ele>1977</ele>
        <time>2012-02-18T14:39:11Z</time>
      </trkpt>
      <trkpt lat="42.91446" lon="0.13176">
        <ele>1977</ele>
        <time>2012-02-18T14:39:15Z</time>
      </trkpt>
      <trkpt lat="42.91448" lon="0.13177">
        <ele>1977</ele>
        <time>2012-02-18T14:39:18Z</time>
      </trkpt>
      <trkpt lat="42.91451" lon="0.13177">
        <ele>1977</ele>
        <time>2012-02-18T14:39:23Z</time>
      </trkpt>
      <trkpt lat="42.91452" lon="0.13177">
        <ele>1978</ele>
        <time>2012-02-18T14:39:26Z</time>
      </trkpt>
      <trkpt lat="42.91455" lon="0.13177">
        <ele>1978</ele>
        <time>2012-02-18T14:39:30Z</time>
      </trkpt>
      <trkpt lat="42.91457" lon="0.13178">
        <ele>1979</ele>
        <time>2012-02-18T14:39:33Z</time>
      </trkpt>
      <trkpt lat="42.91458" lon="0.13178">
        <ele>1979</ele>
        <time>2012-02-18T14:39:37Z</time>
      </trkpt>
      <trkpt lat="42.9146" lon="0.13178">
        <ele>1980</ele>
        <time>2012-02-18T14:40:02Z</time>
      </trkpt>
      <trkpt lat="42.91462" lon="0.13179">
        <ele>1980</ele>
        <time>2012-02-18T14:40:06Z</time>
      </trkpt>
      <trkpt lat="42.91465" lon="0.13179">
        <ele>1981</ele>
        <time>2012-02-18T14:40:11Z</time>
      </trkpt>
      <trkpt lat="42.91466" lon="0.13179">
        <ele>1981</ele>
        <time>2012-02-18T14:40:14Z</time>
      </trkpt>
      <trkpt lat="42.91466" lon="0.13179">
        <ele>1983</ele>
        <time>2012-02-18T14:40:33Z</time>
      </trkpt>
      <trkpt lat="42.91468" lon="0.13179">
        <ele>1983</ele>
        <time>2012-02-18T14:40:37Z</time>
      </trkpt>
      <trkpt lat="42.9147" lon="0.13179">
        <ele>1984</ele>
        <time>2012-02-18T14:40:40Z</time>
      </trkpt>
      <trkpt lat="42.91472" lon="0.13178">
        <ele>1984</ele>
        <time>2012-02-18T14:40:44Z</time>
      </trkpt>
      <trkpt lat="42.91473" lon="0.13178">
        <ele>1985</ele>
        <time>2012-02-18T14:40:47Z</time>
      </trkpt>
      <trkpt lat="42.91475" lon="0.13178">
        <ele>1985</ele>
        <time>2012-02-18T14:40:50Z</time>
      </trkpt>
      <trkpt lat="42.91477" lon="0.13178">
        <ele>1985</ele>
        <time>2012-02-18T14:40:53Z</time>
      </trkpt>
      <trkpt lat="42.91478" lon="0.13178">
        <ele>1985</ele>
        <time>2012-02-18T14:40:56Z</time>
      </trkpt>
      <trkpt lat="42.91481" lon="0.13177">
        <ele>1986</ele>
        <time>2012-02-18T14:41:13Z</time>
      </trkpt>
      <trkpt lat="42.91482" lon="0.13177">
        <ele>1986</ele>
        <time>2012-02-18T14:41:16Z</time>
      </trkpt>
      <trkpt lat="42.91483" lon="0.13176">
        <ele>1986</ele>
        <time>2012-02-18T14:41:19Z</time>
      </trkpt>
      <trkpt lat="42.91484" lon="0.13176">
        <ele>1987</ele>
        <time>2012-02-18T14:41:22Z</time>
      </trkpt>
      <trkpt lat="42.91486" lon="0.13176">
        <ele>1987</ele>
        <time>2012-02-18T14:41:25Z</time>
      </trkpt>
      <trkpt lat="42.91488" lon="0.13175">
        <ele>1988</ele>
        <time>2012-02-18T14:41:29Z</time>
      </trkpt>
      <trkpt lat="42.91489" lon="0.13175">
        <ele>1988</ele>
        <time>2012-02-18T14:41:32Z</time>
      </trkpt>
      <trkpt lat="42.91491" lon="0.13174">
        <ele>1989</ele>
        <time>2012-02-18T14:41:35Z</time>
      </trkpt>
      <trkpt lat="42.91493" lon="0.13173">
        <ele>1990</ele>
        <time>2012-02-18T14:41:40Z</time>
      </trkpt>
      <trkpt lat="42.91494" lon="0.13172">
        <ele>1990</ele>
        <time>2012-02-18T14:41:43Z</time>
      </trkpt>
      <trkpt lat="42.91497" lon="0.13171">
        <ele>1992</ele>
        <time>2012-02-18T14:42:14Z</time>
      </trkpt>
      <trkpt lat="42.915" lon="0.1317">
        <ele>1993</ele>
        <time>2012-02-18T14:42:20Z</time>
      </trkpt>
      <trkpt lat="42.91502" lon="0.13169">
        <ele>1994</ele>
        <time>2012-02-18T14:42:25Z</time>
      </trkpt>
      <trkpt lat="42.91504" lon="0.13168">
        <ele>1994</ele>
        <time>2012-02-18T14:42:28Z</time>
      </trkpt>
      <trkpt lat="42.91506" lon="0.13167">
        <ele>1995</ele>
        <time>2012-02-18T14:42:32Z</time>
      </trkpt>
      <trkpt lat="42.91508" lon="0.13166">
        <ele>1995</ele>
        <time>2012-02-18T14:42:36Z</time>
      </trkpt>
      <trkpt lat="42.91511" lon="0.13165">
        <ele>1996</ele>
        <time>2012-02-18T14:42:40Z</time>
      </trkpt>
      <trkpt lat="42.91513" lon="0.13164">
        <ele>1996</ele>
        <time>2012-02-18T14:42:43Z</time>
      </trkpt>
      <trkpt lat="42.91515" lon="0.13163">
        <ele>1997</ele>
        <time>2012-02-18T14:42:47Z</time>
      </trkpt>
      <trkpt lat="42.91518" lon="0.13162">
        <ele>1997</ele>
        <time>2012-02-18T14:42:51Z</time>
      </trkpt>
      <trkpt lat="42.91521" lon="0.13161">
        <ele>1999</ele>
        <time>2012-02-18T14:43:26Z</time>
      </trkpt>
      <trkpt lat="42.91523" lon="0.1316">
        <ele>2000</ele>
        <time>2012-02-18T14:43:32Z</time>
      </trkpt>
      <trkpt lat="42.91526" lon="0.1316">
        <ele>2001</ele>
        <time>2012-02-18T14:43:37Z</time>
      </trkpt>
      <trkpt lat="42.91529" lon="0.13159">
        <ele>2001</ele>
        <time>2012-02-18T14:43:41Z</time>
      </trkpt>
      <trkpt lat="42.91532" lon="0.13158">
        <ele>2001</ele>
        <time>2012-02-18T14:43:45Z</time>
      </trkpt>
      <trkpt lat="42.91534" lon="0.13157">
        <ele>2001</ele>
        <time>2012-02-18T14:43:49Z</time>
      </trkpt>
      <trkpt lat="42.91537" lon="0.13156">
        <ele>2001</ele>
        <time>2012-02-18T14:43:53Z</time>
      </trkpt>
      <trkpt lat="42.9154" lon="0.13156">
        <ele>2001</ele>
        <time>2012-02-18T14:43:57Z</time>
      </trkpt>
      <trkpt lat="42.91543" lon="0.13155">
        <ele>2002</ele>
        <time>2012-02-18T14:44:02Z</time>
      </trkpt>
      <trkpt lat="42.91544" lon="0.13155">
        <ele>2002</ele>
        <time>2012-02-18T14:44:05Z</time>
      </trkpt>
      <trkpt lat="42.91546" lon="0.13155">
        <ele>2003</ele>
        <time>2012-02-18T14:44:08Z</time>
      </trkpt>
      <trkpt lat="42.91548" lon="0.13154">
        <ele>2003</ele>
        <time>2012-02-18T14:44:13Z</time>
      </trkpt>
      <trkpt lat="42.91551" lon="0.13153">
        <ele>2005</ele>
        <time>2012-02-18T14:44:36Z</time>
      </trkpt>
      <trkpt lat="42.91553" lon="0.13154">
        <ele>2006</ele>
        <time>2012-02-18T14:44:40Z</time>
      </trkpt>
      <trkpt lat="42.91556" lon="0.13155">
        <ele>2006</ele>
        <time>2012-02-18T14:44:44Z</time>
      </trkpt>
      <trkpt lat="42.91558" lon="0.13156">
        <ele>2006</ele>
        <time>2012-02-18T14:44:47Z</time>
      </trkpt>
      <trkpt lat="42.9156" lon="0.13158">
        <ele>2006</ele>
        <time>2012-02-18T14:44:51Z</time>
      </trkpt>
      <trkpt lat="42.91563" lon="0.1316">
        <ele>2007</ele>
        <time>2012-02-18T14:44:57Z</time>
      </trkpt>
      <trkpt lat="42.91563" lon="0.13159">
        <ele>2008</ele>
        <time>2012-02-18T14:45:00Z</time>
      </trkpt>
      <trkpt lat="42.91564" lon="0.13157">
        <ele>2008</ele>
        <time>2012-02-18T14:45:04Z</time>
      </trkpt>
      <trkpt lat="42.91564" lon="0.13154">
        <ele>2008</ele>
        <time>2012-02-18T14:45:08Z</time>
      </trkpt>
      <trkpt lat="42.91563" lon="0.1315">
        <ele>2009</ele>
        <time>2012-02-18T14:45:12Z</time>
      </trkpt>
      <trkpt lat="42.91564" lon="0.13149">
        <ele>2012</ele>
        <time>2012-02-18T14:45:30Z</time>
      </trkpt>
      <trkpt lat="42.91567" lon="0.13151">
        <ele>2012</ele>
        <time>2012-02-18T14:45:34Z</time>
      </trkpt>
      <trkpt lat="42.91569" lon="0.13153">
        <ele>2012</ele>
        <time>2012-02-18T14:45:38Z</time>
      </trkpt>
      <trkpt lat="42.9157" lon="0.13155">
        <ele>2012</ele>
        <time>2012-02-18T14:45:41Z</time>
      </trkpt>
      <trkpt lat="42.91571" lon="0.13157">
        <ele>2012</ele>
        <time>2012-02-18T14:45:44Z</time>
      </trkpt>
      <trkpt lat="42.91573" lon="0.13156">
        <ele>2013</ele>
        <time>2012-02-18T14:45:50Z</time>
      </trkpt>
      <trkpt lat="42.91573" lon="0.13152">
        <ele>2014</ele>
        <time>2012-02-18T14:45:54Z</time>
      </trkpt>
      <trkpt lat="42.91574" lon="0.13149">
        <ele>2014</ele>
        <time>2012-02-18T14:45:58Z</time>
      </trkpt>
      <trkpt lat="42.91575" lon="0.13149">
        <ele>2015</ele>
        <time>2012-02-18T14:46:15Z</time>
      </trkpt>
      <trkpt lat="42.91577" lon="0.13152">
        <ele>2016</ele>
        <time>2012-02-18T14:46:19Z</time>
      </trkpt>
      <trkpt lat="42.91578" lon="0.13153">
        <ele>2016</ele>
        <time>2012-02-18T14:46:22Z</time>
      </trkpt>
      <trkpt lat="42.91579" lon="0.13157">
        <ele>2017</ele>
        <time>2012-02-18T14:46:27Z</time>
      </trkpt>
      <trkpt lat="42.91581" lon="0.13156">
        <ele>2017</ele>
        <time>2012-02-18T14:46:48Z</time>
      </trkpt>
      <trkpt lat="42.91582" lon="0.13153">
        <ele>2017</ele>
        <time>2012-02-18T14:46:53Z</time>
      </trkpt>
      <trkpt lat="42.91582" lon="0.1315">
        <ele>2017</ele>
        <time>2012-02-18T14:46:57Z</time>
      </trkpt>
      <trkpt lat="42.91584" lon="0.13148">
        <ele>2017</ele>
        <time>2012-02-18T14:47:07Z</time>
      </trkpt>
      <trkpt lat="42.91585" lon="0.13151">
        <ele>2018</ele>
        <time>2012-02-18T14:47:12Z</time>
      </trkpt>
      <trkpt lat="42.91588" lon="0.13155">
        <ele>2018</ele>
        <time>2012-02-18T14:47:18Z</time>
      </trkpt>
      <trkpt lat="42.91589" lon="0.13156">
        <ele>2018</ele>
        <time>2012-02-18T14:47:21Z</time>
      </trkpt>
      <trkpt lat="42.9159" lon="0.13158">
        <ele>2018</ele>
        <time>2012-02-18T14:47:24Z</time>
      </trkpt>
      <trkpt lat="42.91591" lon="0.1316">
        <ele>2019</ele>
        <time>2012-02-18T14:47:27Z</time>
      </trkpt>
      <trkpt lat="42.91592" lon="0.13161">
        <ele>2019</ele>
        <time>2012-02-18T14:47:30Z</time>
      </trkpt>
      <trkpt lat="42.91593" lon="0.13163">
        <ele>2020</ele>
        <time>2012-02-18T14:47:33Z</time>
      </trkpt>
      <trkpt lat="42.91595" lon="0.13164">
        <ele>2021</ele>
        <time>2012-02-18T14:47:36Z</time>
      </trkpt>
      <trkpt lat="42.91597" lon="0.13162">
        <ele>2024</ele>
        <time>2012-02-18T14:47:55Z</time>
      </trkpt>
      <trkpt lat="42.91597" lon="0.1316">
        <ele>2024</ele>
        <time>2012-02-18T14:48:12Z</time>
      </trkpt>
      <trkpt lat="42.916" lon="0.13156">
        <ele>2024</ele>
        <time>2012-02-18T14:48:18Z</time>
      </trkpt>
      <trkpt lat="42.91601" lon="0.13155">
        <ele>2024</ele>
        <time>2012-02-18T14:48:21Z</time>
      </trkpt>
      <trkpt lat="42.91602" lon="0.13153">
        <ele>2024</ele>
        <time>2012-02-18T14:48:24Z</time>
      </trkpt>
      <trkpt lat="42.91603" lon="0.13153">
        <ele>2024</ele>
        <time>2012-02-18T14:48:27Z</time>
      </trkpt>
      <trkpt lat="42.91604" lon="0.13156">
        <ele>2024</ele>
        <time>2012-02-18T14:48:30Z</time>
      </trkpt>
      <trkpt lat="42.91605" lon="0.13159">
        <ele>2025</ele>
        <time>2012-02-18T14:48:34Z</time>
      </trkpt>
      <trkpt lat="42.91607" lon="0.13161">
        <ele>2026</ele>
        <time>2012-02-18T14:48:40Z</time>
      </trkpt>
      <trkpt lat="42.91607" lon="0.1316">
        <ele>2026</ele>
        <time>2012-02-18T14:48:44Z</time>
      </trkpt>
      <trkpt lat="42.91608" lon="0.13158">
        <ele>2026</ele>
        <time>2012-02-18T14:48:47Z</time>
      </trkpt>
      <trkpt lat="42.91609" lon="0.13156">
        <ele>2027</ele>
        <time>2012-02-18T14:48:51Z</time>
      </trkpt>
      <trkpt lat="42.9161" lon="0.13152">
        <ele>2029</ele>
        <time>2012-02-18T14:49:21Z</time>
      </trkpt>
      <trkpt lat="42.9161" lon="0.13149">
        <ele>2029</ele>
        <time>2012-02-18T14:49:25Z</time>
      </trkpt>
      <trkpt lat="42.9161" lon="0.13146">
        <ele>2029</ele>
        <time>2012-02-18T14:49:29Z</time>
      </trkpt>
      <trkpt lat="42.9161" lon="0.13142">
        <ele>2029</ele>
        <time>2012-02-18T14:49:33Z</time>
      </trkpt>
      <trkpt lat="42.9161" lon="0.1314">
        <ele>2030</ele>
        <time>2012-02-18T14:49:36Z</time>
      </trkpt>
      <trkpt lat="42.91611" lon="0.13141">
        <ele>2031</ele>
        <time>2012-02-18T14:49:49Z</time>
      </trkpt>
      <trkpt lat="42.91613" lon="0.13143">
        <ele>2032</ele>
        <time>2012-02-18T14:49:52Z</time>
      </trkpt>
      <trkpt lat="42.91614" lon="0.13145">
        <ele>2033</ele>
        <time>2012-02-18T14:49:55Z</time>
      </trkpt>
      <trkpt lat="42.91615" lon="0.13147">
        <ele>2033</ele>
        <time>2012-02-18T14:49:58Z</time>
      </trkpt>
      <trkpt lat="42.91618" lon="0.13148">
        <ele>2034</ele>
        <time>2012-02-18T14:50:02Z</time>
      </trkpt>
      <trkpt lat="42.9162" lon="0.13151">
        <ele>2034</ele>
        <time>2012-02-18T14:50:06Z</time>
      </trkpt>
      <trkpt lat="42.9162" lon="0.13153">
        <ele>2035</ele>
        <time>2012-02-18T14:50:16Z</time>
      </trkpt>
      <trkpt lat="42.91621" lon="0.13154">
        <ele>2036</ele>
        <time>2012-02-18T14:50:27Z</time>
      </trkpt>
      <trkpt lat="42.91623" lon="0.13155">
        <ele>2036</ele>
        <time>2012-02-18T14:50:30Z</time>
      </trkpt>
      <trkpt lat="42.91624" lon="0.13157">
        <ele>2037</ele>
        <time>2012-02-18T14:50:34Z</time>
      </trkpt>
      <trkpt lat="42.91625" lon="0.13158">
        <ele>2038</ele>
        <time>2012-02-18T14:50:37Z</time>
      </trkpt>
      <trkpt lat="42.91626" lon="0.1316">
        <ele>2039</ele>
        <time>2012-02-18T14:50:40Z</time>
      </trkpt>
      <trkpt lat="42.91627" lon="0.13161">
        <ele>2039</ele>
        <time>2012-02-18T14:50:43Z</time>
      </trkpt>
      <trkpt lat="42.91629" lon="0.13163">
        <ele>2039</ele>
        <time>2012-02-18T14:50:46Z</time>
      </trkpt>
      <trkpt lat="42.91629" lon="0.13164">
        <ele>2040</ele>
        <time>2012-02-18T14:50:49Z</time>
      </trkpt>
      <trkpt lat="42.91631" lon="0.13168">
        <ele>2041</ele>
        <time>2012-02-18T14:50:54Z</time>
      </trkpt>
      <trkpt lat="42.91632" lon="0.1317">
        <ele>2041</ele>
        <time>2012-02-18T14:50:57Z</time>
      </trkpt>
      <trkpt lat="42.91632" lon="0.13171">
        <ele>2042</ele>
        <time>2012-02-18T14:51:06Z</time>
      </trkpt>
      <trkpt lat="42.91632" lon="0.13173">
        <ele>2042</ele>
        <time>2012-02-18T14:51:36Z</time>
      </trkpt>
      <trkpt lat="42.91632" lon="0.13176">
        <ele>2043</ele>
        <time>2012-02-18T14:51:41Z</time>
      </trkpt>
      <trkpt lat="42.91632" lon="0.13178">
        <ele>2044</ele>
        <time>2012-02-18T14:51:53Z</time>
      </trkpt>
      <trkpt lat="42.91634" lon="0.13177">
        <ele>2044</ele>
        <time>2012-02-18T14:51:56Z</time>
      </trkpt>
      <trkpt lat="42.91636" lon="0.13174">
        <ele>2044</ele>
        <time>2012-02-18T14:52:00Z</time>
      </trkpt>
      <trkpt lat="42.91638" lon="0.13171">
        <ele>2045</ele>
        <time>2012-02-18T14:52:04Z</time>
      </trkpt>
      <trkpt lat="42.91639" lon="0.1317">
        <ele>2045</ele>
        <time>2012-02-18T14:52:07Z</time>
      </trkpt>
      <trkpt lat="42.9164" lon="0.13167">
        <ele>2045</ele>
        <time>2012-02-18T14:52:10Z</time>
      </trkpt>
      <trkpt lat="42.91641" lon="0.13165">
        <ele>2046</ele>
        <time>2012-02-18T14:52:13Z</time>
      </trkpt>
      <trkpt lat="42.91642" lon="0.13162">
        <ele>2046</ele>
        <time>2012-02-18T14:52:17Z</time>
      </trkpt>
      <trkpt lat="42.91643" lon="0.13159">
        <ele>2048</ele>
        <time>2012-02-18T14:52:40Z</time>
      </trkpt>
      <trkpt lat="42.91644" lon="0.13157">
        <ele>2048</ele>
        <time>2012-02-18T14:52:43Z</time>
      </trkpt>
      <trkpt lat="42.91645" lon="0.13158">
        <ele>2048</ele>
        <time>2012-02-18T14:52:52Z</time>
      </trkpt>
      <trkpt lat="42.91647" lon="0.1316">
        <ele>2048</ele>
        <time>2012-02-18T14:52:55Z</time>
      </trkpt>
      <trkpt lat="42.91648" lon="0.13162">
        <ele>2049</ele>
        <time>2012-02-18T14:52:58Z</time>
      </trkpt>
      <trkpt lat="42.91648" lon="0.13163">
        <ele>2049</ele>
        <time>2012-02-18T14:53:01Z</time>
      </trkpt>
      <trkpt lat="42.91649" lon="0.13165">
        <ele>2050</ele>
        <time>2012-02-18T14:53:04Z</time>
      </trkpt>
      <trkpt lat="42.9165" lon="0.13165">
        <ele>2050</ele>
        <time>2012-02-18T14:53:07Z</time>
      </trkpt>
      <trkpt lat="42.9165" lon="0.13164">
        <ele>2051</ele>
        <time>2012-02-18T14:53:51Z</time>
      </trkpt>
      <trkpt lat="42.91651" lon="0.13162">
        <ele>2051</ele>
        <time>2012-02-18T14:53:54Z</time>
      </trkpt>
      <trkpt lat="42.91652" lon="0.13159">
        <ele>2051</ele>
        <time>2012-02-18T14:53:58Z</time>
      </trkpt>
      <trkpt lat="42.91653" lon="0.13156">
        <ele>2051</ele>
        <time>2012-02-18T14:54:03Z</time>
      </trkpt>
      <trkpt lat="42.91653" lon="0.13154">
        <ele>2051</ele>
        <time>2012-02-18T14:54:06Z</time>
      </trkpt>
      <trkpt lat="42.91655" lon="0.13151">
        <ele>2051</ele>
        <time>2012-02-18T14:54:17Z</time>
      </trkpt>
      <trkpt lat="42.91658" lon="0.13153">
        <ele>2051</ele>
        <time>2012-02-18T14:54:22Z</time>
      </trkpt>
      <trkpt lat="42.91659" lon="0.13154">
        <ele>2051</ele>
        <time>2012-02-18T14:54:25Z</time>
      </trkpt>
      <trkpt lat="42.91661" lon="0.13157">
        <ele>2051</ele>
        <time>2012-02-18T14:54:30Z</time>
      </trkpt>
      <trkpt lat="42.91663" lon="0.1316">
        <ele>2052</ele>
        <time>2012-02-18T14:54:35Z</time>
      </trkpt>
      <trkpt lat="42.91665" lon="0.13161">
        <ele>2052</ele>
        <time>2012-02-18T14:54:38Z</time>
      </trkpt>
      <trkpt lat="42.91666" lon="0.13162">
        <ele>2053</ele>
        <time>2012-02-18T14:54:44Z</time>
      </trkpt>
      <trkpt lat="42.91666" lon="0.13164">
        <ele>2054</ele>
        <time>2012-02-18T14:55:02Z</time>
      </trkpt>
      <trkpt lat="42.91667" lon="0.13165">
        <ele>2054</ele>
        <time>2012-02-18T14:55:05Z</time>
      </trkpt>
      <trkpt lat="42.91668" lon="0.13168">
        <ele>2055</ele>
        <time>2012-02-18T14:55:09Z</time>
      </trkpt>
      <trkpt lat="42.91668" lon="0.1317">
        <ele>2056</ele>
        <time>2012-02-18T14:55:12Z</time>
      </trkpt>
      <trkpt lat="42.91669" lon="0.13172">
        <ele>2056</ele>
        <time>2012-02-18T14:55:15Z</time>
      </trkpt>
      <trkpt lat="42.91671" lon="0.13171">
        <ele>2057</ele>
        <time>2012-02-18T14:55:18Z</time>
      </trkpt>
      <trkpt lat="42.91672" lon="0.1317">
        <ele>2058</ele>
        <time>2012-02-18T14:55:21Z</time>
      </trkpt>
      <trkpt lat="42.91673" lon="0.13168">
        <ele>2058</ele>
        <time>2012-02-18T14:55:24Z</time>
      </trkpt>
      <trkpt lat="42.91674" lon="0.13166">
        <ele>2059</ele>
        <time>2012-02-18T14:55:27Z</time>
      </trkpt>
      <trkpt lat="42.91675" lon="0.13164">
        <ele>2059</ele>
        <time>2012-02-18T14:55:30Z</time>
      </trkpt>
      <trkpt lat="42.91676" lon="0.13163">
        <ele>2059</ele>
        <time>2012-02-18T14:55:33Z</time>
      </trkpt>
      <trkpt lat="42.91677" lon="0.1316">
        <ele>2060</ele>
        <time>2012-02-18T14:55:37Z</time>
      </trkpt>
      <trkpt lat="42.91677" lon="0.13156">
        <ele>2060</ele>
        <time>2012-02-18T14:55:41Z</time>
      </trkpt>
      <trkpt lat="42.91679" lon="0.13157">
        <ele>2061</ele>
        <time>2012-02-18T14:56:00Z</time>
      </trkpt>
      <trkpt lat="42.91679" lon="0.13155">
        <ele>2061</ele>
        <time>2012-02-18T14:56:09Z</time>
      </trkpt>
      <trkpt lat="42.91678" lon="0.13152">
        <ele>2061</ele>
        <time>2012-02-18T14:56:12Z</time>
      </trkpt>
      <trkpt lat="42.91679" lon="0.13153">
        <ele>2061</ele>
        <time>2012-02-18T14:56:21Z</time>
      </trkpt>
      <trkpt lat="42.91682" lon="0.13155">
        <ele>2062</ele>
        <time>2012-02-18T14:56:26Z</time>
      </trkpt>
      <trkpt lat="42.91683" lon="0.13156">
        <ele>2062</ele>
        <time>2012-02-18T14:56:29Z</time>
      </trkpt>
      <trkpt lat="42.91684" lon="0.13157">
        <ele>2063</ele>
        <time>2012-02-18T14:56:32Z</time>
      </trkpt>
      <trkpt lat="42.91686" lon="0.13159">
        <ele>2063</ele>
        <time>2012-02-18T14:56:35Z</time>
      </trkpt>
      <trkpt lat="42.91687" lon="0.13161">
        <ele>2064</ele>
        <time>2012-02-18T14:56:38Z</time>
      </trkpt>
      <trkpt lat="42.91689" lon="0.13163">
        <ele>2064</ele>
        <time>2012-02-18T14:56:41Z</time>
      </trkpt>
      <trkpt lat="42.9169" lon="0.13164">
        <ele>2064</ele>
        <time>2012-02-18T14:56:44Z</time>
      </trkpt>
      <trkpt lat="42.91691" lon="0.13166">
        <ele>2065</ele>
        <time>2012-02-18T14:56:47Z</time>
      </trkpt>
      <trkpt lat="42.91692" lon="0.13168">
        <ele>2065</ele>
        <time>2012-02-18T14:56:50Z</time>
      </trkpt>
      <trkpt lat="42.91692" lon="0.13169">
        <ele>2066</ele>
        <time>2012-02-18T14:56:53Z</time>
      </trkpt>
      <trkpt lat="42.91693" lon="0.13171">
        <ele>2067</ele>
        <time>2012-02-18T14:56:57Z</time>
      </trkpt>
      <trkpt lat="42.91694" lon="0.13172">
        <ele>2067</ele>
        <time>2012-02-18T14:57:00Z</time>
      </trkpt>
      <trkpt lat="42.91695" lon="0.13174">
        <ele>2067</ele>
        <time>2012-02-18T14:57:03Z</time>
      </trkpt>
      <trkpt lat="42.91695" lon="0.13176">
        <ele>2068</ele>
        <time>2012-02-18T14:57:06Z</time>
      </trkpt>
      <trkpt lat="42.91693" lon="0.13179">
        <ele>2069</ele>
        <time>2012-02-18T14:57:11Z</time>
      </trkpt>
      <trkpt lat="42.91695" lon="0.1318">
        <ele>2074</ele>
        <time>2012-02-18T14:57:32Z</time>
      </trkpt>
      <trkpt lat="42.91697" lon="0.13177">
        <ele>2074</ele>
        <time>2012-02-18T14:57:39Z</time>
      </trkpt>
      <trkpt lat="42.91698" lon="0.13175">
        <ele>2075</ele>
        <time>2012-02-18T14:57:42Z</time>
      </trkpt>
      <trkpt lat="42.917" lon="0.13174">
        <ele>2075</ele>
        <time>2012-02-18T14:57:45Z</time>
      </trkpt>
      <trkpt lat="42.91701" lon="0.13172">
        <ele>2075</ele>
        <time>2012-02-18T14:57:48Z</time>
      </trkpt>
      <trkpt lat="42.91702" lon="0.13171">
        <ele>2075</ele>
        <time>2012-02-18T14:57:51Z</time>
      </trkpt>
      <trkpt lat="42.91703" lon="0.13169">
        <ele>2075</ele>
        <time>2012-02-18T14:57:54Z</time>
      </trkpt>
      <trkpt lat="42.91704" lon="0.13168">
        <ele>2075</ele>
        <time>2012-02-18T14:57:57Z</time>
      </trkpt>
      <trkpt lat="42.91705" lon="0.13166">
        <ele>2075</ele>
        <time>2012-02-18T14:58:00Z</time>
      </trkpt>
      <trkpt lat="42.91706" lon="0.13164">
        <ele>2075</ele>
        <time>2012-02-18T14:58:03Z</time>
      </trkpt>
      <trkpt lat="42.91708" lon="0.13162">
        <ele>2076</ele>
        <time>2012-02-18T14:58:21Z</time>
      </trkpt>
      <trkpt lat="42.91708" lon="0.1316">
        <ele>2077</ele>
        <time>2012-02-18T14:58:45Z</time>
      </trkpt>
      <trkpt lat="42.91709" lon="0.13161">
        <ele>2077</ele>
        <time>2012-02-18T14:58:56Z</time>
      </trkpt>
      <trkpt lat="42.9171" lon="0.13163">
        <ele>2077</ele>
        <time>2012-02-18T14:58:59Z</time>
      </trkpt>
      <trkpt lat="42.91712" lon="0.13167">
        <ele>2077</ele>
        <time>2012-02-18T14:59:04Z</time>
      </trkpt>
      <trkpt lat="42.91713" lon="0.1317">
        <ele>2077</ele>
        <time>2012-02-18T14:59:09Z</time>
      </trkpt>
      <trkpt lat="42.91714" lon="0.13172">
        <ele>2078</ele>
        <time>2012-02-18T14:59:12Z</time>
      </trkpt>
      <trkpt lat="42.91714" lon="0.13175">
        <ele>2079</ele>
        <time>2012-02-18T14:59:16Z</time>
      </trkpt>
      <trkpt lat="42.91714" lon="0.13178">
        <ele>2080</ele>
        <time>2012-02-18T14:59:20Z</time>
      </trkpt>
      <trkpt lat="42.91713" lon="0.13182">
        <ele>2082</ele>
        <time>2012-02-18T14:59:25Z</time>
      </trkpt>
      <trkpt lat="42.91713" lon="0.13183">
        <ele>2083</ele>
        <time>2012-02-18T14:59:28Z</time>
      </trkpt>
      <trkpt lat="42.91714" lon="0.13182">
        <ele>2085</ele>
        <time>2012-02-18T15:00:11Z</time>
      </trkpt>
      <trkpt lat="42.91716" lon="0.13181">
        <ele>2085</ele>
        <time>2012-02-18T15:00:17Z</time>
      </trkpt>
      <trkpt lat="42.91718" lon="0.1318">
        <ele>2085</ele>
        <time>2012-02-18T15:00:21Z</time>
      </trkpt>
      <trkpt lat="42.9172" lon="0.13178">
        <ele>2085</ele>
        <time>2012-02-18T15:00:24Z</time>
      </trkpt>
      <trkpt lat="42.91721" lon="0.13176">
        <ele>2085</ele>
        <time>2012-02-18T15:00:27Z</time>
      </trkpt>
      <trkpt lat="42.91724" lon="0.13174">
        <ele>2085</ele>
        <time>2012-02-18T15:00:32Z</time>
      </trkpt>
      <trkpt lat="42.91725" lon="0.13173">
        <ele>2085</ele>
        <time>2012-02-18T15:00:35Z</time>
      </trkpt>
      <trkpt lat="42.91726" lon="0.13171">
        <ele>2085</ele>
        <time>2012-02-18T15:00:38Z</time>
      </trkpt>
      <trkpt lat="42.91727" lon="0.13168">
        <ele>2085</ele>
        <time>2012-02-18T15:00:42Z</time>
      </trkpt>
      <trkpt lat="42.91728" lon="0.13166">
        <ele>2085</ele>
        <time>2012-02-18T15:00:45Z</time>
      </trkpt>
      <trkpt lat="42.91729" lon="0.13164">
        <ele>2085</ele>
        <time>2012-02-18T15:00:48Z</time>
      </trkpt>
      <trkpt lat="42.91729" lon="0.13162">
        <ele>2085</ele>
        <time>2012-02-18T15:00:51Z</time>
      </trkpt>
      <trkpt lat="42.9173" lon="0.13159">
        <ele>2086</ele>
        <time>2012-02-18T15:00:56Z</time>
      </trkpt>
      <trkpt lat="42.91731" lon="0.1316">
        <ele>2088</ele>
        <time>2012-02-18T15:01:13Z</time>
      </trkpt>
      <trkpt lat="42.91732" lon="0.1316">
        <ele>2089</ele>
        <time>2012-02-18T15:01:29Z</time>
      </trkpt>
      <trkpt lat="42.91734" lon="0.13162">
        <ele>2089</ele>
        <time>2012-02-18T15:01:32Z</time>
      </trkpt>
      <trkpt lat="42.91735" lon="0.13163">
        <ele>2089</ele>
        <time>2012-02-18T15:01:35Z</time>
      </trkpt>
      <trkpt lat="42.91736" lon="0.13165">
        <ele>2089</ele>
        <time>2012-02-18T15:01:38Z</time>
      </trkpt>
      <trkpt lat="42.91737" lon="0.13167">
        <ele>2089</ele>
        <time>2012-02-18T15:01:41Z</time>
      </trkpt>
      <trkpt lat="42.91739" lon="0.13168">
        <ele>2090</ele>
        <time>2012-02-18T15:01:44Z</time>
      </trkpt>
      <trkpt lat="42.9174" lon="0.1317">
        <ele>2090</ele>
        <time>2012-02-18T15:01:47Z</time>
      </trkpt>
      <trkpt lat="42.9174" lon="0.13172">
        <ele>2090</ele>
        <time>2012-02-18T15:01:50Z</time>
      </trkpt>
      <trkpt lat="42.91741" lon="0.13173">
        <ele>2091</ele>
        <time>2012-02-18T15:01:53Z</time>
      </trkpt>
      <trkpt lat="42.91742" lon="0.13175">
        <ele>2091</ele>
        <time>2012-02-18T15:01:56Z</time>
      </trkpt>
      <trkpt lat="42.91743" lon="0.13177">
        <ele>2091</ele>
        <time>2012-02-18T15:01:59Z</time>
      </trkpt>
      <trkpt lat="42.91743" lon="0.13179">
        <ele>2092</ele>
        <time>2012-02-18T15:02:02Z</time>
      </trkpt>
      <trkpt lat="42.91742" lon="0.13178">
        <ele>2092</ele>
        <time>2012-02-18T15:02:33Z</time>
      </trkpt>
      <trkpt lat="42.91742" lon="0.1318">
        <ele>2092</ele>
        <time>2012-02-18T15:02:41Z</time>
      </trkpt>
      <trkpt lat="42.91743" lon="0.13184">
        <ele>2092</ele>
        <time>2012-02-18T15:02:46Z</time>
      </trkpt>
      <trkpt lat="42.91743" lon="0.13187">
        <ele>2092</ele>
        <time>2012-02-18T15:02:51Z</time>
      </trkpt>
      <trkpt lat="42.91743" lon="0.13191">
        <ele>2093</ele>
        <time>2012-02-18T15:02:56Z</time>
      </trkpt>
      <trkpt lat="42.91743" lon="0.13193">
        <ele>2094</ele>
        <time>2012-02-18T15:02:59Z</time>
      </trkpt>
      <trkpt lat="42.91742" lon="0.13195">
        <ele>2095</ele>
        <time>2012-02-18T15:03:02Z</time>
      </trkpt>
      <trkpt lat="42.91744" lon="0.13195">
        <ele>2097</ele>
        <time>2012-02-18T15:03:11Z</time>
      </trkpt>
      <trkpt lat="42.91745" lon="0.13195">
        <ele>2098</ele>
        <time>2012-02-18T15:03:15Z</time>
      </trkpt>
      <trkpt lat="42.91747" lon="0.13195">
        <ele>2098</ele>
        <time>2012-02-18T15:03:18Z</time>
      </trkpt>
      <trkpt lat="42.91749" lon="0.13194">
        <ele>2098</ele>
        <time>2012-02-18T15:03:22Z</time>
      </trkpt>
      <trkpt lat="42.91752" lon="0.13192">
        <ele>2098</ele>
        <time>2012-02-18T15:03:27Z</time>
      </trkpt>
      <trkpt lat="42.91753" lon="0.1319">
        <ele>2098</ele>
        <time>2012-02-18T15:03:30Z</time>
      </trkpt>
      <trkpt lat="42.91754" lon="0.13188">
        <ele>2098</ele>
        <time>2012-02-18T15:03:33Z</time>
      </trkpt>
      <trkpt lat="42.91756" lon="0.13185">
        <ele>2101</ele>
        <time>2012-02-18T15:03:59Z</time>
      </trkpt>
      <trkpt lat="42.91757" lon="0.13184">
        <ele>2102</ele>
        <time>2012-02-18T15:04:02Z</time>
      </trkpt>
      <trkpt lat="42.91758" lon="0.13182">
        <ele>2102</ele>
        <time>2012-02-18T15:04:05Z</time>
      </trkpt>
      <trkpt lat="42.91759" lon="0.13181">
        <ele>2102</ele>
        <time>2012-02-18T15:04:08Z</time>
      </trkpt>
      <trkpt lat="42.9176" lon="0.13181">
        <ele>2103</ele>
        <time>2012-02-18T15:04:23Z</time>
      </trkpt>
      <trkpt lat="42.9176" lon="0.13182">
        <ele>2103</ele>
        <time>2012-02-18T15:04:26Z</time>
      </trkpt>
      <trkpt lat="42.91761" lon="0.13186">
        <ele>2103</ele>
        <time>2012-02-18T15:04:31Z</time>
      </trkpt>
      <trkpt lat="42.91761" lon="0.13189">
        <ele>2104</ele>
        <time>2012-02-18T15:04:35Z</time>
      </trkpt>
      <trkpt lat="42.91762" lon="0.13192">
        <ele>2104</ele>
        <time>2012-02-18T15:04:40Z</time>
      </trkpt>
      <trkpt lat="42.91762" lon="0.13195">
        <ele>2105</ele>
        <time>2012-02-18T15:05:18Z</time>
      </trkpt>
      <trkpt lat="42.91763" lon="0.13197">
        <ele>2105</ele>
        <time>2012-02-18T15:05:21Z</time>
      </trkpt>
      <trkpt lat="42.91763" lon="0.13201">
        <ele>2105</ele>
        <time>2012-02-18T15:05:26Z</time>
      </trkpt>
      <trkpt lat="42.91763" lon="0.13203">
        <ele>2106</ele>
        <time>2012-02-18T15:05:29Z</time>
      </trkpt>
      <trkpt lat="42.91763" lon="0.13205">
        <ele>2106</ele>
        <time>2012-02-18T15:05:32Z</time>
      </trkpt>
      <trkpt lat="42.91764" lon="0.13207">
        <ele>2107</ele>
        <time>2012-02-18T15:05:35Z</time>
      </trkpt>
      <trkpt lat="42.91763" lon="0.1321">
        <ele>2110</ele>
        <time>2012-02-18T15:05:43Z</time>
      </trkpt>
      <trkpt lat="42.91762" lon="0.13214">
        <ele>2112</ele>
        <time>2012-02-18T15:05:48Z</time>
      </trkpt>
      <trkpt lat="42.91763" lon="0.13216">
        <ele>2113</ele>
        <time>2012-02-18T15:05:59Z</time>
      </trkpt>
      <trkpt lat="42.91764" lon="0.13216">
        <ele>2113</ele>
        <time>2012-02-18T15:06:02Z</time>
      </trkpt>
      <trkpt lat="42.91767" lon="0.13214">
        <ele>2114</ele>
        <time>2012-02-18T15:06:07Z</time>
      </trkpt>
      <trkpt lat="42.9177" lon="0.13213">
        <ele>2114</ele>
        <time>2012-02-18T15:06:11Z</time>
      </trkpt>
      <trkpt lat="42.9177" lon="0.13211">
        <ele>2116</ele>
        <time>2012-02-18T15:06:40Z</time>
      </trkpt>
      <trkpt lat="42.91772" lon="0.1321">
        <ele>2116</ele>
        <time>2012-02-18T15:06:43Z</time>
      </trkpt>
      <trkpt lat="42.91773" lon="0.13208">
        <ele>2116</ele>
        <time>2012-02-18T15:06:46Z</time>
      </trkpt>
      <trkpt lat="42.91774" lon="0.13206">
        <ele>2116</ele>
        <time>2012-02-18T15:06:49Z</time>
      </trkpt>
      <trkpt lat="42.91776" lon="0.13204">
        <ele>2116</ele>
        <time>2012-02-18T15:06:52Z</time>
      </trkpt>
      <trkpt lat="42.91777" lon="0.13202">
        <ele>2116</ele>
        <time>2012-02-18T15:06:55Z</time>
      </trkpt>
      <trkpt lat="42.91779" lon="0.13198">
        <ele>2116</ele>
        <time>2012-02-18T15:07:00Z</time>
      </trkpt>
      <trkpt lat="42.91779" lon="0.132">
        <ele>2116</ele>
        <time>2012-02-18T15:07:13Z</time>
      </trkpt>
      <trkpt lat="42.91779" lon="0.13202">
        <ele>2116</ele>
        <time>2012-02-18T15:07:16Z</time>
      </trkpt>
      <trkpt lat="42.9178" lon="0.13204">
        <ele>2117</ele>
        <time>2012-02-18T15:07:19Z</time>
      </trkpt>
      <trkpt lat="42.9178" lon="0.13206">
        <ele>2117</ele>
        <time>2012-02-18T15:07:22Z</time>
      </trkpt>
      <trkpt lat="42.91781" lon="0.13209">
        <ele>2118</ele>
        <time>2012-02-18T15:07:31Z</time>
      </trkpt>
      <trkpt lat="42.9178" lon="0.1321">
        <ele>2118</ele>
        <time>2012-02-18T15:07:51Z</time>
      </trkpt>
      <trkpt lat="42.9178" lon="0.13214">
        <ele>2119</ele>
        <time>2012-02-18T15:07:55Z</time>
      </trkpt>
      <trkpt lat="42.9178" lon="0.13217">
        <ele>2119</ele>
        <time>2012-02-18T15:08:00Z</time>
      </trkpt>
      <trkpt lat="42.9178" lon="0.1322">
        <ele>2120</ele>
        <time>2012-02-18T15:08:03Z</time>
      </trkpt>
      <trkpt lat="42.9178" lon="0.13223">
        <ele>2120</ele>
        <time>2012-02-18T15:08:07Z</time>
      </trkpt>
      <trkpt lat="42.9178" lon="0.13225">
        <ele>2121</ele>
        <time>2012-02-18T15:08:10Z</time>
      </trkpt>
      <trkpt lat="42.9178" lon="0.13228">
        <ele>2121</ele>
        <time>2012-02-18T15:08:13Z</time>
      </trkpt>
      <trkpt lat="42.9178" lon="0.1323">
        <ele>2122</ele>
        <time>2012-02-18T15:08:16Z</time>
      </trkpt>
      <trkpt lat="42.9178" lon="0.13234">
        <ele>2123</ele>
        <time>2012-02-18T15:08:20Z</time>
      </trkpt>
      <trkpt lat="42.91779" lon="0.13237">
        <ele>2123</ele>
        <time>2012-02-18T15:08:24Z</time>
      </trkpt>
      <trkpt lat="42.91778" lon="0.13238">
        <ele>2125</ele>
        <time>2012-02-18T15:08:43Z</time>
      </trkpt>
      <trkpt lat="42.91777" lon="0.1324">
        <ele>2125</ele>
        <time>2012-02-18T15:08:46Z</time>
      </trkpt>
      <trkpt lat="42.91776" lon="0.13241">
        <ele>2126</ele>
        <time>2012-02-18T15:08:51Z</time>
      </trkpt>
      <trkpt lat="42.91777" lon="0.13242">
        <ele>2127</ele>
        <time>2012-02-18T15:09:00Z</time>
      </trkpt>
      <trkpt lat="42.91779" lon="0.13241">
        <ele>2127</ele>
        <time>2012-02-18T15:09:03Z</time>
      </trkpt>
      <trkpt lat="42.91782" lon="0.1324">
        <ele>2128</ele>
        <time>2012-02-18T15:09:07Z</time>
      </trkpt>
      <trkpt lat="42.91784" lon="0.13239">
        <ele>2129</ele>
        <time>2012-02-18T15:09:10Z</time>
      </trkpt>
      <trkpt lat="42.91786" lon="0.13239">
        <ele>2129</ele>
        <time>2012-02-18T15:09:14Z</time>
      </trkpt>
      <trkpt lat="42.9179" lon="0.13238">
        <ele>2129</ele>
        <time>2012-02-18T15:09:18Z</time>
      </trkpt>
      <trkpt lat="42.91792" lon="0.13236">
        <ele>2129</ele>
        <time>2012-02-18T15:09:22Z</time>
      </trkpt>
      <trkpt lat="42.91793" lon="0.13236">
        <ele>2130</ele>
        <time>2012-02-18T15:09:43Z</time>
      </trkpt>
      <trkpt lat="42.91794" lon="0.13234">
        <ele>2130</ele>
        <time>2012-02-18T15:09:46Z</time>
      </trkpt>
      <trkpt lat="42.91794" lon="0.13232">
        <ele>2130</ele>
        <time>2012-02-18T15:09:49Z</time>
      </trkpt>
      <trkpt lat="42.91795" lon="0.1323">
        <ele>2130</ele>
        <time>2012-02-18T15:09:52Z</time>
      </trkpt>
      <trkpt lat="42.91796" lon="0.13227">
        <ele>2131</ele>
        <time>2012-02-18T15:09:56Z</time>
      </trkpt>
      <trkpt lat="42.91798" lon="0.13223">
        <ele>2131</ele>
        <time>2012-02-18T15:10:01Z</time>
      </trkpt>
      <trkpt lat="42.918" lon="0.1322">
        <ele>2132</ele>
        <time>2012-02-18T15:10:05Z</time>
      </trkpt>
      <trkpt lat="42.91802" lon="0.13218">
        <ele>2133</ele>
        <time>2012-02-18T15:10:10Z</time>
      </trkpt>
      <trkpt lat="42.91805" lon="0.13216">
        <ele>2133</ele>
        <time>2012-02-18T15:10:14Z</time>
      </trkpt>
      <trkpt lat="42.91807" lon="0.13214">
        <ele>2133</ele>
        <time>2012-02-18T15:10:31Z</time>
      </trkpt>
      <trkpt lat="42.9181" lon="0.13213">
        <ele>2133</ele>
        <time>2012-02-18T15:10:35Z</time>
      </trkpt>
      <trkpt lat="42.91813" lon="0.13211">
        <ele>2134</ele>
        <time>2012-02-18T15:10:39Z</time>
      </trkpt>
      <trkpt lat="42.91814" lon="0.1321">
        <ele>2134</ele>
        <time>2012-02-18T15:10:42Z</time>
      </trkpt>
      <trkpt lat="42.91816" lon="0.13209">
        <ele>2134</ele>
        <time>2012-02-18T15:10:45Z</time>
      </trkpt>
      <trkpt lat="42.91817" lon="0.13208">
        <ele>2135</ele>
        <time>2012-02-18T15:10:48Z</time>
      </trkpt>
      <trkpt lat="42.9182" lon="0.13207">
        <ele>2136</ele>
        <time>2012-02-18T15:10:53Z</time>
      </trkpt>
      <trkpt lat="42.91822" lon="0.13206">
        <ele>2136</ele>
        <time>2012-02-18T15:10:57Z</time>
      </trkpt>
      <trkpt lat="42.91825" lon="0.13206">
        <ele>2138</ele>
        <time>2012-02-18T15:11:29Z</time>
      </trkpt>
      <trkpt lat="42.91828" lon="0.13205">
        <ele>2138</ele>
        <time>2012-02-18T15:11:33Z</time>
      </trkpt>
      <trkpt lat="42.91831" lon="0.13204">
        <ele>2138</ele>
        <time>2012-02-18T15:11:37Z</time>
      </trkpt>
      <trkpt lat="42.91834" lon="0.13203">
        <ele>2138</ele>
        <time>2012-02-18T15:11:41Z</time>
      </trkpt>
      <trkpt lat="42.91837" lon="0.13203">
        <ele>2138</ele>
        <time>2012-02-18T15:11:45Z</time>
      </trkpt>
      <trkpt lat="42.91837" lon="0.13201">
        <ele>2138</ele>
        <time>2012-02-18T15:12:05Z</time>
      </trkpt>
      <trkpt lat="42.91836" lon="0.13202">
        <ele>2138</ele>
        <time>2012-02-18T15:12:10Z</time>
      </trkpt>
      <trkpt lat="42.91837" lon="0.13204">
        <ele>2138</ele>
        <time>2012-02-18T15:12:17Z</time>
      </trkpt>
      <trkpt lat="42.91839" lon="0.13202">
        <ele>2135</ele>
        <time>2012-02-18T15:12:31Z</time>
      </trkpt>
      <trkpt lat="42.91837" lon="0.13203">
        <ele>2134</ele>
        <time>2012-02-18T15:12:38Z</time>
      </trkpt>
      <trkpt lat="42.91836" lon="0.13203">
        <ele>2135</ele>
        <time>2012-02-18T15:13:20Z</time>
      </trkpt>
      <trkpt lat="42.91835" lon="0.13203">
        <ele>2135</ele>
        <time>2012-02-18T15:14:00Z</time>
      </trkpt>
      <trkpt lat="42.91837" lon="0.13204">
        <ele>2136</ele>
        <time>2012-02-18T15:15:10Z</time>
      </trkpt>
      <trkpt lat="42.91837" lon="0.13205">
        <ele>2136</ele>
        <time>2012-02-18T15:15:14Z</time>
      </trkpt>
      <trkpt lat="42.91837" lon="0.13207">
        <ele>2136</ele>
        <time>2012-02-18T15:15:19Z</time>
      </trkpt>
      <trkpt lat="42.91837" lon="0.13205">
        <ele>2140</ele>
        <time>2012-02-18T15:15:45Z</time>
      </trkpt>
      <trkpt lat="42.91838" lon="0.13204">
        <ele>2140</ele>
        <time>2012-02-18T15:16:10Z</time>
      </trkpt>
      <trkpt lat="42.91837" lon="0.13204">
        <ele>2140</ele>
        <time>2012-02-18T15:17:34Z</time>
      </trkpt>
      <trkpt lat="42.91838" lon="0.13204">
        <ele>2140</ele>
        <time>2012-02-18T15:17:53Z</time>
      </trkpt>
      <trkpt lat="42.9184" lon="0.13204">
        <ele>2140</ele>
        <time>2012-02-18T15:17:59Z</time>
      </trkpt>
      <trkpt lat="42.91843" lon="0.13203">
        <ele>2140</ele>
        <time>2012-02-18T15:18:03Z</time>
      </trkpt>
      <trkpt lat="42.91847" lon="0.13202">
        <ele>2140</ele>
        <time>2012-02-18T15:18:07Z</time>
      </trkpt>
      <trkpt lat="42.9185" lon="0.13201">
        <ele>2140</ele>
        <time>2012-02-18T15:18:12Z</time>
      </trkpt>
      <trkpt lat="42.91851" lon="0.132">
        <ele>2140</ele>
        <time>2012-02-18T15:18:15Z</time>
      </trkpt>
      <trkpt lat="42.91854" lon="0.132">
        <ele>2140</ele>
        <time>2012-02-18T15:18:19Z</time>
      </trkpt>
      <trkpt lat="42.91855" lon="0.132">
        <ele>2140</ele>
        <time>2012-02-18T15:18:22Z</time>
      </trkpt>
      <trkpt lat="42.91858" lon="0.132">
        <ele>2140</ele>
        <time>2012-02-18T15:18:26Z</time>
      </trkpt>
      <trkpt lat="42.9186" lon="0.132">
        <ele>2140</ele>
        <time>2012-02-18T15:18:30Z</time>
      </trkpt>
      <trkpt lat="42.91863" lon="0.132">
        <ele>2140</ele>
        <time>2012-02-18T15:18:34Z</time>
      </trkpt>
      <trkpt lat="42.91864" lon="0.132">
        <ele>2140</ele>
        <time>2012-02-18T15:18:37Z</time>
      </trkpt>
      <trkpt lat="42.91867" lon="0.13201">
        <ele>2140</ele>
        <time>2012-02-18T15:18:41Z</time>
      </trkpt>
      <trkpt lat="42.91869" lon="0.13201">
        <ele>2140</ele>
        <time>2012-02-18T15:18:45Z</time>
      </trkpt>
      <trkpt lat="42.91871" lon="0.13202">
        <ele>2140</ele>
        <time>2012-02-18T15:18:48Z</time>
      </trkpt>
      <trkpt lat="42.91871" lon="0.13204">
        <ele>2140</ele>
        <time>2012-02-18T15:19:01Z</time>
      </trkpt>
      <trkpt lat="42.91873" lon="0.13204">
        <ele>2140</ele>
        <time>2012-02-18T15:19:09Z</time>
      </trkpt>
      <trkpt lat="42.91875" lon="0.13204">
        <ele>2140</ele>
        <time>2012-02-18T15:19:13Z</time>
      </trkpt>
      <trkpt lat="42.91878" lon="0.13204">
        <ele>2141</ele>
        <time>2012-02-18T15:19:17Z</time>
      </trkpt>
      <trkpt lat="42.91879" lon="0.13203">
        <ele>2142</ele>
        <time>2012-02-18T15:19:20Z</time>
      </trkpt>
      <trkpt lat="42.91882" lon="0.13204">
        <ele>2143</ele>
        <time>2012-02-18T15:19:25Z</time>
      </trkpt>
      <trkpt lat="42.91884" lon="0.13204">
        <ele>2143</ele>
        <time>2012-02-18T15:19:29Z</time>
      </trkpt>
      <trkpt lat="42.91887" lon="0.13203">
        <ele>2144</ele>
        <time>2012-02-18T15:19:33Z</time>
      </trkpt>
      <trkpt lat="42.91888" lon="0.13203">
        <ele>2144</ele>
        <time>2012-02-18T15:19:36Z</time>
      </trkpt>
      <trkpt lat="42.91891" lon="0.13203">
        <ele>2144</ele>
        <time>2012-02-18T15:19:40Z</time>
      </trkpt>
      <trkpt lat="42.91894" lon="0.13203">
        <ele>2146</ele>
        <time>2012-02-18T15:19:45Z</time>
      </trkpt>
      <trkpt lat="42.91895" lon="0.13204">
        <ele>2147</ele>
        <time>2012-02-18T15:19:48Z</time>
      </trkpt>
      <trkpt lat="42.91894" lon="0.13205">
        <ele>2149</ele>
        <time>2012-02-18T15:20:01Z</time>
      </trkpt>
      <trkpt lat="42.91893" lon="0.13207">
        <ele>2150</ele>
        <time>2012-02-18T15:20:08Z</time>
      </trkpt>
      <trkpt lat="42.91894" lon="0.13208">
        <ele>2152</ele>
        <time>2012-02-18T15:20:18Z</time>
      </trkpt>
      <trkpt lat="42.91897" lon="0.13209">
        <ele>2152</ele>
        <time>2012-02-18T15:20:22Z</time>
      </trkpt>
      <trkpt lat="42.91899" lon="0.13208">
        <ele>2153</ele>
        <time>2012-02-18T15:20:28Z</time>
      </trkpt>
      <trkpt lat="42.91899" lon="0.13206">
        <ele>2153</ele>
        <time>2012-02-18T15:20:36Z</time>
      </trkpt>
      <trkpt lat="42.91902" lon="0.13206">
        <ele>2153</ele>
        <time>2012-02-18T15:20:40Z</time>
      </trkpt>
      <trkpt lat="42.91904" lon="0.13205">
        <ele>2153</ele>
        <time>2012-02-18T15:20:44Z</time>
      </trkpt>
      <trkpt lat="42.91907" lon="0.13205">
        <ele>2153</ele>
        <time>2012-02-18T15:20:48Z</time>
      </trkpt>
      <trkpt lat="42.9191" lon="0.13205">
        <ele>2153</ele>
        <time>2012-02-18T15:20:52Z</time>
      </trkpt>
      <trkpt lat="42.91912" lon="0.13205">
        <ele>2153</ele>
        <time>2012-02-18T15:20:56Z</time>
      </trkpt>
      <trkpt lat="42.91914" lon="0.13205">
        <ele>2153</ele>
        <time>2012-02-18T15:21:00Z</time>
      </trkpt>
      <trkpt lat="42.91917" lon="0.13204">
        <ele>2153</ele>
        <time>2012-02-18T15:21:05Z</time>
      </trkpt>
      <trkpt lat="42.9192" lon="0.13203">
        <ele>2154</ele>
        <time>2012-02-18T15:21:29Z</time>
      </trkpt>
      <trkpt lat="42.91922" lon="0.13203">
        <ele>2154</ele>
        <time>2012-02-18T15:21:33Z</time>
      </trkpt>
      <trkpt lat="42.91925" lon="0.13202">
        <ele>2154</ele>
        <time>2012-02-18T15:21:37Z</time>
      </trkpt>
      <trkpt lat="42.91928" lon="0.13202">
        <ele>2154</ele>
        <time>2012-02-18T15:21:41Z</time>
      </trkpt>
      <trkpt lat="42.91931" lon="0.13203">
        <ele>2155</ele>
        <time>2012-02-18T15:21:45Z</time>
      </trkpt>
      <trkpt lat="42.91934" lon="0.13203">
        <ele>2156</ele>
        <time>2012-02-18T15:21:49Z</time>
      </trkpt>
      <trkpt lat="42.91937" lon="0.13203">
        <ele>2156</ele>
        <time>2012-02-18T15:21:53Z</time>
      </trkpt>
      <trkpt lat="42.9194" lon="0.13203">
        <ele>2157</ele>
        <time>2012-02-18T15:21:58Z</time>
      </trkpt>
      <trkpt lat="42.91942" lon="0.13204">
        <ele>2157</ele>
        <time>2012-02-18T15:22:02Z</time>
      </trkpt>
      <trkpt lat="42.91945" lon="0.13204">
        <ele>2158</ele>
        <time>2012-02-18T15:22:07Z</time>
      </trkpt>
      <trkpt lat="42.91946" lon="0.13205">
        <ele>2160</ele>
        <time>2012-02-18T15:22:25Z</time>
      </trkpt>
      <trkpt lat="42.91948" lon="0.13205">
        <ele>2160</ele>
        <time>2012-02-18T15:22:35Z</time>
      </trkpt>
      <trkpt lat="42.9195" lon="0.13205">
        <ele>2160</ele>
        <time>2012-02-18T15:22:39Z</time>
      </trkpt>
      <trkpt lat="42.91953" lon="0.13205">
        <ele>2160</ele>
        <time>2012-02-18T15:22:43Z</time>
      </trkpt>
      <trkpt lat="42.91956" lon="0.13205">
        <ele>2160</ele>
        <time>2012-02-18T15:22:47Z</time>
      </trkpt>
      <trkpt lat="42.91958" lon="0.13204">
        <ele>2160</ele>
        <time>2012-02-18T15:22:51Z</time>
      </trkpt>
      <trkpt lat="42.91962" lon="0.13205">
        <ele>2160</ele>
        <time>2012-02-18T15:22:55Z</time>
      </trkpt>
      <trkpt lat="42.91964" lon="0.13206">
        <ele>2161</ele>
        <time>2012-02-18T15:22:59Z</time>
      </trkpt>
      <trkpt lat="42.91967" lon="0.13206">
        <ele>2162</ele>
        <time>2012-02-18T15:23:03Z</time>
      </trkpt>
      <trkpt lat="42.9197" lon="0.13207">
        <ele>2162</ele>
        <time>2012-02-18T15:23:07Z</time>
      </trkpt>
      <trkpt lat="42.91972" lon="0.13207">
        <ele>2164</ele>
        <time>2012-02-18T15:23:12Z</time>
      </trkpt>
      <trkpt lat="42.91973" lon="0.13206">
        <ele>2165</ele>
        <time>2012-02-18T15:23:29Z</time>
      </trkpt>
      <trkpt lat="42.91976" lon="0.13205">
        <ele>2165</ele>
        <time>2012-02-18T15:23:33Z</time>
      </trkpt>
      <trkpt lat="42.91979" lon="0.13205">
        <ele>2165</ele>
        <time>2012-02-18T15:23:37Z</time>
      </trkpt>
      <trkpt lat="42.91981" lon="0.13206">
        <ele>2166</ele>
        <time>2012-02-18T15:23:41Z</time>
      </trkpt>
      <trkpt lat="42.91984" lon="0.13208">
        <ele>2166</ele>
        <time>2012-02-18T15:23:45Z</time>
      </trkpt>
      <trkpt lat="42.91987" lon="0.13209">
        <ele>2167</ele>
        <time>2012-02-18T15:23:49Z</time>
      </trkpt>
      <trkpt lat="42.9199" lon="0.1321">
        <ele>2167</ele>
        <time>2012-02-18T15:23:53Z</time>
      </trkpt>
      <trkpt lat="42.91992" lon="0.13211">
        <ele>2168</ele>
        <time>2012-02-18T15:23:57Z</time>
      </trkpt>
      <trkpt lat="42.91995" lon="0.13212">
        <ele>2169</ele>
        <time>2012-02-18T15:24:01Z</time>
      </trkpt>
      <trkpt lat="42.91997" lon="0.13212">
        <ele>2170</ele>
        <time>2012-02-18T15:24:05Z</time>
      </trkpt>
      <trkpt lat="42.92" lon="0.13212">
        <ele>2170</ele>
        <time>2012-02-18T15:24:09Z</time>
      </trkpt>
      <trkpt lat="42.92003" lon="0.13212">
        <ele>2170</ele>
        <time>2012-02-18T15:24:13Z</time>
      </trkpt>
      <trkpt lat="42.92006" lon="0.13212">
        <ele>2170</ele>
        <time>2012-02-18T15:24:17Z</time>
      </trkpt>
      <trkpt lat="42.92006" lon="0.13211">
        <ele>2170</ele>
        <time>2012-02-18T15:24:25Z</time>
      </trkpt>
      <trkpt lat="42.92008" lon="0.13211">
        <ele>2170</ele>
        <time>2012-02-18T15:24:35Z</time>
      </trkpt>
      <trkpt lat="42.9201" lon="0.13213">
        <ele>2170</ele>
        <time>2012-02-18T15:24:39Z</time>
      </trkpt>
      <trkpt lat="42.92013" lon="0.13214">
        <ele>2170</ele>
        <time>2012-02-18T15:24:43Z</time>
      </trkpt>
      <trkpt lat="42.92016" lon="0.13214">
        <ele>2171</ele>
        <time>2012-02-18T15:24:47Z</time>
      </trkpt>
      <trkpt lat="42.92019" lon="0.13215">
        <ele>2171</ele>
        <time>2012-02-18T15:24:51Z</time>
      </trkpt>
      <trkpt lat="42.92022" lon="0.13215">
        <ele>2172</ele>
        <time>2012-02-18T15:24:55Z</time>
      </trkpt>
      <trkpt lat="42.92025" lon="0.13216">
        <ele>2172</ele>
        <time>2012-02-18T15:24:59Z</time>
      </trkpt>
      <trkpt lat="42.92028" lon="0.13216">
        <ele>2173</ele>
        <time>2012-02-18T15:25:03Z</time>
      </trkpt>
      <trkpt lat="42.92029" lon="0.13217">
        <ele>2173</ele>
        <time>2012-02-18T15:25:06Z</time>
      </trkpt>
      <trkpt lat="42.92032" lon="0.13217">
        <ele>2174</ele>
        <time>2012-02-18T15:25:10Z</time>
      </trkpt>
      <trkpt lat="42.92035" lon="0.13219">
        <ele>2174</ele>
        <time>2012-02-18T15:25:14Z</time>
      </trkpt>
      <trkpt lat="42.92038" lon="0.1322">
        <ele>2174</ele>
        <time>2012-02-18T15:25:18Z</time>
      </trkpt>
      <trkpt lat="42.92041" lon="0.13222">
        <ele>2175</ele>
        <time>2012-02-18T15:25:22Z</time>
      </trkpt>
      <trkpt lat="42.92042" lon="0.1322">
        <ele>2175</ele>
        <time>2012-02-18T15:25:45Z</time>
      </trkpt>
      <trkpt lat="42.92044" lon="0.13222">
        <ele>2175</ele>
        <time>2012-02-18T15:25:50Z</time>
      </trkpt>
      <trkpt lat="42.92048" lon="0.13224">
        <ele>2175</ele>
        <time>2012-02-18T15:25:54Z</time>
      </trkpt>
      <trkpt lat="42.92051" lon="0.13226">
        <ele>2176</ele>
        <time>2012-02-18T15:25:58Z</time>
      </trkpt>
      <trkpt lat="42.92054" lon="0.13227">
        <ele>2176</ele>
        <time>2012-02-18T15:26:01Z</time>
      </trkpt>
      <trkpt lat="42.92057" lon="0.1323">
        <ele>2177</ele>
        <time>2012-02-18T15:26:05Z</time>
      </trkpt>
      <trkpt lat="42.92061" lon="0.13232">
        <ele>2177</ele>
        <time>2012-02-18T15:26:09Z</time>
      </trkpt>
      <trkpt lat="42.92064" lon="0.13235">
        <ele>2177</ele>
        <time>2012-02-18T15:26:13Z</time>
      </trkpt>
      <trkpt lat="42.92067" lon="0.13237">
        <ele>2178</ele>
        <time>2012-02-18T15:26:17Z</time>
      </trkpt>
      <trkpt lat="42.9207" lon="0.13238">
        <ele>2178</ele>
        <time>2012-02-18T15:26:21Z</time>
      </trkpt>
      <trkpt lat="42.92074" lon="0.13238">
        <ele>2178</ele>
        <time>2012-02-18T15:26:25Z</time>
      </trkpt>
      <trkpt lat="42.92077" lon="0.13239">
        <ele>2178</ele>
        <time>2012-02-18T15:26:29Z</time>
      </trkpt>
      <trkpt lat="42.9208" lon="0.13241">
        <ele>2178</ele>
        <time>2012-02-18T15:26:33Z</time>
      </trkpt>
      <trkpt lat="42.92083" lon="0.13242">
        <ele>2179</ele>
        <time>2012-02-18T15:26:37Z</time>
      </trkpt>
      <trkpt lat="42.92087" lon="0.13242">
        <ele>2179</ele>
        <time>2012-02-18T15:26:41Z</time>
      </trkpt>
      <trkpt lat="42.9209" lon="0.13243">
        <ele>2179</ele>
        <time>2012-02-18T15:26:45Z</time>
      </trkpt>
      <trkpt lat="42.92093" lon="0.13243">
        <ele>2179</ele>
        <time>2012-02-18T15:26:49Z</time>
      </trkpt>
      <trkpt lat="42.92097" lon="0.13243">
        <ele>2179</ele>
        <time>2012-02-18T15:26:53Z</time>
      </trkpt>
      <trkpt lat="42.921" lon="0.13244">
        <ele>2179</ele>
        <time>2012-02-18T15:26:57Z</time>
      </trkpt>
      <trkpt lat="42.92103" lon="0.13245">
        <ele>2180</ele>
        <time>2012-02-18T15:27:01Z</time>
      </trkpt>
      <trkpt lat="42.92106" lon="0.13246">
        <ele>2180</ele>
        <time>2012-02-18T15:27:05Z</time>
      </trkpt>
      <trkpt lat="42.92109" lon="0.13247">
        <ele>2181</ele>
        <time>2012-02-18T15:27:10Z</time>
      </trkpt>
      <trkpt lat="42.92112" lon="0.13248">
        <ele>2181</ele>
        <time>2012-02-18T15:27:14Z</time>
      </trkpt>
      <trkpt lat="42.92115" lon="0.13248">
        <ele>2181</ele>
        <time>2012-02-18T15:27:18Z</time>
      </trkpt>
      <trkpt lat="42.92117" lon="0.13249">
        <ele>2181</ele>
        <time>2012-02-18T15:27:22Z</time>
      </trkpt>
      <trkpt lat="42.9212" lon="0.1325">
        <ele>2182</ele>
        <time>2012-02-18T15:27:26Z</time>
      </trkpt>
      <trkpt lat="42.92123" lon="0.1325">
        <ele>2182</ele>
        <time>2012-02-18T15:27:30Z</time>
      </trkpt>
      <trkpt lat="42.92126" lon="0.1325">
        <ele>2183</ele>
        <time>2012-02-18T15:27:34Z</time>
      </trkpt>
      <trkpt lat="42.92129" lon="0.1325">
        <ele>2183</ele>
        <time>2012-02-18T15:27:38Z</time>
      </trkpt>
      <trkpt lat="42.92132" lon="0.13252">
        <ele>2183</ele>
        <time>2012-02-18T15:27:42Z</time>
      </trkpt>
      <trkpt lat="42.92135" lon="0.13253">
        <ele>2183</ele>
        <time>2012-02-18T15:27:46Z</time>
      </trkpt>
      <trkpt lat="42.92135" lon="0.13255">
        <ele>2183</ele>
        <time>2012-02-18T15:27:53Z</time>
      </trkpt>
      <trkpt lat="42.92137" lon="0.13255">
        <ele>2184</ele>
        <time>2012-02-18T15:27:57Z</time>
      </trkpt>
      <trkpt lat="42.92139" lon="0.13257">
        <ele>2184</ele>
        <time>2012-02-18T15:28:01Z</time>
      </trkpt>
      <trkpt lat="42.92142" lon="0.13259">
        <ele>2184</ele>
        <time>2012-02-18T15:28:05Z</time>
      </trkpt>
      <trkpt lat="42.92145" lon="0.13261">
        <ele>2184</ele>
        <time>2012-02-18T15:28:09Z</time>
      </trkpt>
      <trkpt lat="42.92147" lon="0.13262">
        <ele>2184</ele>
        <time>2012-02-18T15:28:13Z</time>
      </trkpt>
      <trkpt lat="42.9215" lon="0.13262">
        <ele>2184</ele>
        <time>2012-02-18T15:28:17Z</time>
      </trkpt>
      <trkpt lat="42.92153" lon="0.13263">
        <ele>2184</ele>
        <time>2012-02-18T15:28:21Z</time>
      </trkpt>
      <trkpt lat="42.92157" lon="0.13264">
        <ele>2184</ele>
        <time>2012-02-18T15:28:25Z</time>
      </trkpt>
      <trkpt lat="42.9216" lon="0.13265">
        <ele>2184</ele>
        <time>2012-02-18T15:28:29Z</time>
      </trkpt>
      <trkpt lat="42.92162" lon="0.13266">
        <ele>2184</ele>
        <time>2012-02-18T15:28:33Z</time>
      </trkpt>
      <trkpt lat="42.92165" lon="0.13267">
        <ele>2184</ele>
        <time>2012-02-18T15:28:37Z</time>
      </trkpt>
      <trkpt lat="42.92168" lon="0.13268">
        <ele>2184</ele>
        <time>2012-02-18T15:28:41Z</time>
      </trkpt>
      <trkpt lat="42.92171" lon="0.1327">
        <ele>2185</ele>
        <time>2012-02-18T15:28:45Z</time>
      </trkpt>
      <trkpt lat="42.92171" lon="0.13269">
        <ele>2186</ele>
        <time>2012-02-18T15:28:58Z</time>
      </trkpt>
      <trkpt lat="42.92172" lon="0.13267">
        <ele>2186</ele>
        <time>2012-02-18T15:29:03Z</time>
      </trkpt>
      <trkpt lat="42.92172" lon="0.13266">
        <ele>2186</ele>
        <time>2012-02-18T15:29:13Z</time>
      </trkpt>
      <trkpt lat="42.92174" lon="0.13266">
        <ele>2186</ele>
        <time>2012-02-18T15:29:17Z</time>
      </trkpt>
      <trkpt lat="42.92176" lon="0.13267">
        <ele>2186</ele>
        <time>2012-02-18T15:29:23Z</time>
      </trkpt>
      <trkpt lat="42.92179" lon="0.1327">
        <ele>2186</ele>
        <time>2012-02-18T15:29:27Z</time>
      </trkpt>
      <trkpt lat="42.92182" lon="0.13273">
        <ele>2186</ele>
        <time>2012-02-18T15:29:31Z</time>
      </trkpt>
      <trkpt lat="42.92185" lon="0.13274">
        <ele>2186</ele>
        <time>2012-02-18T15:29:35Z</time>
      </trkpt>
      <trkpt lat="42.92188" lon="0.13276">
        <ele>2186</ele>
        <time>2012-02-18T15:29:39Z</time>
      </trkpt>
      <trkpt lat="42.92189" lon="0.13277">
        <ele>2186</ele>
        <time>2012-02-18T15:29:42Z</time>
      </trkpt>
      <trkpt lat="42.92192" lon="0.13278">
        <ele>2186</ele>
        <time>2012-02-18T15:29:46Z</time>
      </trkpt>
      <trkpt lat="42.92195" lon="0.13278">
        <ele>2186</ele>
        <time>2012-02-18T15:29:49Z</time>
      </trkpt>
      <trkpt lat="42.92198" lon="0.13279">
        <ele>2186</ele>
        <time>2012-02-18T15:29:53Z</time>
      </trkpt>
      <trkpt lat="42.922" lon="0.13281">
        <ele>2186</ele>
        <time>2012-02-18T15:29:57Z</time>
      </trkpt>
      <trkpt lat="42.92204" lon="0.13282">
        <ele>2186</ele>
        <time>2012-02-18T15:30:01Z</time>
      </trkpt>
      <trkpt lat="42.92206" lon="0.13282">
        <ele>2186</ele>
        <time>2012-02-18T15:30:05Z</time>
      </trkpt>
      <trkpt lat="42.92209" lon="0.13281">
        <ele>2186</ele>
        <time>2012-02-18T15:30:10Z</time>
      </trkpt>
      <trkpt lat="42.92208" lon="0.13281">
        <ele>2186</ele>
        <time>2012-02-18T15:30:20Z</time>
      </trkpt>
      <trkpt lat="42.92209" lon="0.13282">
        <ele>2186</ele>
        <time>2012-02-18T15:30:36Z</time>
      </trkpt>
      <trkpt lat="42.92213" lon="0.13282">
        <ele>2186</ele>
        <time>2012-02-18T15:30:40Z</time>
      </trkpt>
      <trkpt lat="42.92216" lon="0.13281">
        <ele>2186</ele>
        <time>2012-02-18T15:30:44Z</time>
      </trkpt>
      <trkpt lat="42.9222" lon="0.13281">
        <ele>2186</ele>
        <time>2012-02-18T15:30:48Z</time>
      </trkpt>
      <trkpt lat="42.92223" lon="0.13281">
        <ele>2186</ele>
        <time>2012-02-18T15:30:52Z</time>
      </trkpt>
      <trkpt lat="42.92226" lon="0.1328">
        <ele>2186</ele>
        <time>2012-02-18T15:30:56Z</time>
      </trkpt>
      <trkpt lat="42.92231" lon="0.13279">
        <ele>2186</ele>
        <time>2012-02-18T15:31:00Z</time>
      </trkpt>
      <trkpt lat="42.92234" lon="0.13278">
        <ele>2186</ele>
        <time>2012-02-18T15:31:03Z</time>
      </trkpt>
      <trkpt lat="42.92236" lon="0.13279">
        <ele>2186</ele>
        <time>2012-02-18T15:31:07Z</time>
      </trkpt>
      <trkpt lat="42.92239" lon="0.1328">
        <ele>2187</ele>
        <time>2012-02-18T15:31:11Z</time>
      </trkpt>
      <trkpt lat="42.92242" lon="0.1328">
        <ele>2187</ele>
        <time>2012-02-18T15:31:14Z</time>
      </trkpt>
      <trkpt lat="42.92245" lon="0.1328">
        <ele>2188</ele>
        <time>2012-02-18T15:31:18Z</time>
      </trkpt>
      <trkpt lat="42.92249" lon="0.13281">
        <ele>2188</ele>
        <time>2012-02-18T15:31:22Z</time>
      </trkpt>
      <trkpt lat="42.92251" lon="0.13282">
        <ele>2188</ele>
        <time>2012-02-18T15:31:26Z</time>
      </trkpt>
      <trkpt lat="42.92252" lon="0.1328">
        <ele>2189</ele>
        <time>2012-02-18T15:31:36Z</time>
      </trkpt>
      <trkpt lat="42.92253" lon="0.13279">
        <ele>2189</ele>
        <time>2012-02-18T15:31:40Z</time>
      </trkpt>
      <trkpt lat="42.92254" lon="0.13279">
        <ele>2189</ele>
        <time>2012-02-18T15:31:43Z</time>
      </trkpt>
      <trkpt lat="42.92257" lon="0.1328">
        <ele>2189</ele>
        <time>2012-02-18T15:31:47Z</time>
      </trkpt>
      <trkpt lat="42.92259" lon="0.13282">
        <ele>2189</ele>
        <time>2012-02-18T15:31:51Z</time>
      </trkpt>
      <trkpt lat="42.92261" lon="0.13283">
        <ele>2189</ele>
        <time>2012-02-18T15:31:54Z</time>
      </trkpt>
      <trkpt lat="42.92264" lon="0.13285">
        <ele>2189</ele>
        <time>2012-02-18T15:31:59Z</time>
      </trkpt>
      <trkpt lat="42.92266" lon="0.13288">
        <ele>2190</ele>
        <time>2012-02-18T15:32:03Z</time>
      </trkpt>
      <trkpt lat="42.92268" lon="0.13288">
        <ele>2191</ele>
        <time>2012-02-18T15:32:06Z</time>
      </trkpt>
      <trkpt lat="42.92269" lon="0.13289">
        <ele>2191</ele>
        <time>2012-02-18T15:32:09Z</time>
      </trkpt>
      <trkpt lat="42.92272" lon="0.13292">
        <ele>2192</ele>
        <time>2012-02-18T15:32:14Z</time>
      </trkpt>
      <trkpt lat="42.92275" lon="0.13293">
        <ele>2192</ele>
        <time>2012-02-18T15:32:18Z</time>
      </trkpt>
      <trkpt lat="42.92278" lon="0.13293">
        <ele>2193</ele>
        <time>2012-02-18T15:32:22Z</time>
      </trkpt>
      <trkpt lat="42.92281" lon="0.13294">
        <ele>2194</ele>
        <time>2012-02-18T15:32:26Z</time>
      </trkpt>
      <trkpt lat="42.92283" lon="0.13295">
        <ele>2195</ele>
        <time>2012-02-18T15:32:29Z</time>
      </trkpt>
      <trkpt lat="42.92285" lon="0.13297">
        <ele>2196</ele>
        <time>2012-02-18T15:32:34Z</time>
      </trkpt>
      <trkpt lat="42.92286" lon="0.13295">
        <ele>2196</ele>
        <time>2012-02-18T15:32:43Z</time>
      </trkpt>
      <trkpt lat="42.92286" lon="0.13294">
        <ele>2197</ele>
        <time>2012-02-18T15:32:55Z</time>
      </trkpt>
      <trkpt lat="42.92287" lon="0.13294">
        <ele>2197</ele>
        <time>2012-02-18T15:33:09Z</time>
      </trkpt>
      <trkpt lat="42.9229" lon="0.13296">
        <ele>2197</ele>
        <time>2012-02-18T15:33:13Z</time>
      </trkpt>
      <trkpt lat="42.92293" lon="0.13297">
        <ele>2197</ele>
        <time>2012-02-18T15:33:17Z</time>
      </trkpt>
      <trkpt lat="42.92296" lon="0.13299">
        <ele>2198</ele>
        <time>2012-02-18T15:33:21Z</time>
      </trkpt>
      <trkpt lat="42.92299" lon="0.133">
        <ele>2199</ele>
        <time>2012-02-18T15:33:25Z</time>
      </trkpt>
      <trkpt lat="42.92301" lon="0.13302">
        <ele>2200</ele>
        <time>2012-02-18T15:33:29Z</time>
      </trkpt>
      <trkpt lat="42.92304" lon="0.13303">
        <ele>2200</ele>
        <time>2012-02-18T15:33:33Z</time>
      </trkpt>
      <trkpt lat="42.92307" lon="0.13304">
        <ele>2200</ele>
        <time>2012-02-18T15:33:37Z</time>
      </trkpt>
      <trkpt lat="42.9231" lon="0.13305">
        <ele>2200</ele>
        <time>2012-02-18T15:33:41Z</time>
      </trkpt>
      <trkpt lat="42.92312" lon="0.13306">
        <ele>2200</ele>
        <time>2012-02-18T15:33:45Z</time>
      </trkpt>
      <trkpt lat="42.92315" lon="0.13308">
        <ele>2201</ele>
        <time>2012-02-18T15:33:49Z</time>
      </trkpt>
      <trkpt lat="42.92318" lon="0.13309">
        <ele>2201</ele>
        <time>2012-02-18T15:33:53Z</time>
      </trkpt>
      <trkpt lat="42.92321" lon="0.1331">
        <ele>2201</ele>
        <time>2012-02-18T15:33:57Z</time>
      </trkpt>
      <trkpt lat="42.92324" lon="0.13312">
        <ele>2201</ele>
        <time>2012-02-18T15:34:01Z</time>
      </trkpt>
      <trkpt lat="42.92326" lon="0.13314">
        <ele>2201</ele>
        <time>2012-02-18T15:34:05Z</time>
      </trkpt>
      <trkpt lat="42.92329" lon="0.13315">
        <ele>2201</ele>
        <time>2012-02-18T15:34:09Z</time>
      </trkpt>
      <trkpt lat="42.92332" lon="0.13315">
        <ele>2203</ele>
        <time>2012-02-18T15:34:30Z</time>
      </trkpt>
      <trkpt lat="42.92335" lon="0.13317">
        <ele>2203</ele>
        <time>2012-02-18T15:34:34Z</time>
      </trkpt>
      <trkpt lat="42.92338" lon="0.13318">
        <ele>2204</ele>
        <time>2012-02-18T15:34:38Z</time>
      </trkpt>
      <trkpt lat="42.92341" lon="0.1332">
        <ele>2204</ele>
        <time>2012-02-18T15:34:42Z</time>
      </trkpt>
      <trkpt lat="42.92343" lon="0.13321">
        <ele>2204</ele>
        <time>2012-02-18T15:34:46Z</time>
      </trkpt>
      <trkpt lat="42.92346" lon="0.13323">
        <ele>2205</ele>
        <time>2012-02-18T15:34:50Z</time>
      </trkpt>
      <trkpt lat="42.92349" lon="0.13324">
        <ele>2206</ele>
        <time>2012-02-18T15:34:54Z</time>
      </trkpt>
      <trkpt lat="42.92352" lon="0.13325">
        <ele>2206</ele>
        <time>2012-02-18T15:34:58Z</time>
      </trkpt>
      <trkpt lat="42.92355" lon="0.13327">
        <ele>2207</ele>
        <time>2012-02-18T15:35:02Z</time>
      </trkpt>
      <trkpt lat="42.92358" lon="0.13328">
        <ele>2208</ele>
        <time>2012-02-18T15:35:06Z</time>
      </trkpt>
      <trkpt lat="42.92361" lon="0.1333">
        <ele>2208</ele>
        <time>2012-02-18T15:35:10Z</time>
      </trkpt>
      <trkpt lat="42.92364" lon="0.13333">
        <ele>2208</ele>
        <time>2012-02-18T15:35:14Z</time>
      </trkpt>
      <trkpt lat="42.92366" lon="0.13335">
        <ele>2208</ele>
        <time>2012-02-18T15:35:18Z</time>
      </trkpt>
      <trkpt lat="42.9237" lon="0.13337">
        <ele>2208</ele>
        <time>2012-02-18T15:35:22Z</time>
      </trkpt>
      <trkpt lat="42.92373" lon="0.13338">
        <ele>2208</ele>
        <time>2012-02-18T15:35:26Z</time>
      </trkpt>
      <trkpt lat="42.92376" lon="0.1334">
        <ele>2208</ele>
        <time>2012-02-18T15:35:30Z</time>
      </trkpt>
      <trkpt lat="42.92377" lon="0.13341">
        <ele>2209</ele>
        <time>2012-02-18T15:35:33Z</time>
      </trkpt>
      <trkpt lat="42.92378" lon="0.13343">
        <ele>2209</ele>
        <time>2012-02-18T15:35:59Z</time>
      </trkpt>
      <trkpt lat="42.92382" lon="0.13346">
        <ele>2209</ele>
        <time>2012-02-18T15:36:04Z</time>
      </trkpt>
      <trkpt lat="42.92384" lon="0.13348">
        <ele>2209</ele>
        <time>2012-02-18T15:36:08Z</time>
      </trkpt>
      <trkpt lat="42.92386" lon="0.13351">
        <ele>2209</ele>
        <time>2012-02-18T15:36:12Z</time>
      </trkpt>
      <trkpt lat="42.92389" lon="0.13354">
        <ele>2210</ele>
        <time>2012-02-18T15:36:16Z</time>
      </trkpt>
      <trkpt lat="42.92391" lon="0.13357">
        <ele>2210</ele>
        <time>2012-02-18T15:36:20Z</time>
      </trkpt>
      <trkpt lat="42.92394" lon="0.13359">
        <ele>2210</ele>
        <time>2012-02-18T15:36:24Z</time>
      </trkpt>
      <trkpt lat="42.92397" lon="0.13362">
        <ele>2210</ele>
        <time>2012-02-18T15:36:28Z</time>
      </trkpt>
      <trkpt lat="42.924" lon="0.13364">
        <ele>2210</ele>
        <time>2012-02-18T15:36:32Z</time>
      </trkpt>
      <trkpt lat="42.92403" lon="0.13366">
        <ele>2210</ele>
        <time>2012-02-18T15:36:36Z</time>
      </trkpt>
      <trkpt lat="42.92405" lon="0.1337">
        <ele>2210</ele>
        <time>2012-02-18T15:36:40Z</time>
      </trkpt>
      <trkpt lat="42.92409" lon="0.13371">
        <ele>2210</ele>
        <time>2012-02-18T15:36:44Z</time>
      </trkpt>
      <trkpt lat="42.92411" lon="0.13374">
        <ele>2211</ele>
        <time>2012-02-18T15:36:48Z</time>
      </trkpt>
      <trkpt lat="42.92413" lon="0.13375">
        <ele>2211</ele>
        <time>2012-02-18T15:36:51Z</time>
      </trkpt>
      <trkpt lat="42.92416" lon="0.13377">
        <ele>2212</ele>
        <time>2012-02-18T15:36:55Z</time>
      </trkpt>
      <trkpt lat="42.92418" lon="0.13379">
        <ele>2212</ele>
        <time>2012-02-18T15:36:59Z</time>
      </trkpt>
      <trkpt lat="42.92421" lon="0.13381">
        <ele>2212</ele>
        <time>2012-02-18T15:37:03Z</time>
      </trkpt>
      <trkpt lat="42.92423" lon="0.13382">
        <ele>2213</ele>
        <time>2012-02-18T15:37:07Z</time>
      </trkpt>
      <trkpt lat="42.92426" lon="0.13385">
        <ele>2214</ele>
        <time>2012-02-18T15:37:11Z</time>
      </trkpt>
      <trkpt lat="42.92429" lon="0.13386">
        <ele>2214</ele>
        <time>2012-02-18T15:37:15Z</time>
      </trkpt>
      <trkpt lat="42.92431" lon="0.13388">
        <ele>2215</ele>
        <time>2012-02-18T15:37:19Z</time>
      </trkpt>
      <trkpt lat="42.92433" lon="0.13389">
        <ele>2215</ele>
        <time>2012-02-18T15:37:22Z</time>
      </trkpt>
      <trkpt lat="42.92436" lon="0.13392">
        <ele>2215</ele>
        <time>2012-02-18T15:37:27Z</time>
      </trkpt>
      <trkpt lat="42.92439" lon="0.13394">
        <ele>2216</ele>
        <time>2012-02-18T15:37:31Z</time>
      </trkpt>
      <trkpt lat="42.9244" lon="0.13395">
        <ele>2216</ele>
        <time>2012-02-18T15:37:54Z</time>
      </trkpt>
      <trkpt lat="42.92443" lon="0.13397">
        <ele>2217</ele>
        <time>2012-02-18T15:37:58Z</time>
      </trkpt>
      <trkpt lat="42.92446" lon="0.13398">
        <ele>2218</ele>
        <time>2012-02-18T15:38:03Z</time>
      </trkpt>
      <trkpt lat="42.92448" lon="0.134">
        <ele>2219</ele>
        <time>2012-02-18T15:38:07Z</time>
      </trkpt>
      <trkpt lat="42.92451" lon="0.13401">
        <ele>2220</ele>
        <time>2012-02-18T15:38:11Z</time>
      </trkpt>
      <trkpt lat="42.92454" lon="0.13403">
        <ele>2221</ele>
        <time>2012-02-18T15:38:15Z</time>
      </trkpt>
      <trkpt lat="42.92457" lon="0.13404">
        <ele>2221</ele>
        <time>2012-02-18T15:38:19Z</time>
      </trkpt>
      <trkpt lat="42.92459" lon="0.13406">
        <ele>2222</ele>
        <time>2012-02-18T15:38:22Z</time>
      </trkpt>
      <trkpt lat="42.92461" lon="0.13408">
        <ele>2222</ele>
        <time>2012-02-18T15:38:27Z</time>
      </trkpt>
      <trkpt lat="42.92464" lon="0.13409">
        <ele>2222</ele>
        <time>2012-02-18T15:38:31Z</time>
      </trkpt>
      <trkpt lat="42.92467" lon="0.13411">
        <ele>2222</ele>
        <time>2012-02-18T15:38:35Z</time>
      </trkpt>
      <trkpt lat="42.92469" lon="0.13413">
        <ele>2222</ele>
        <time>2012-02-18T15:38:39Z</time>
      </trkpt>
      <trkpt lat="42.92472" lon="0.13416">
        <ele>2222</ele>
        <time>2012-02-18T15:38:43Z</time>
      </trkpt>
      <trkpt lat="42.92473" lon="0.13415">
        <ele>2223</ele>
        <time>2012-02-18T15:39:12Z</time>
      </trkpt>
      <trkpt lat="42.92475" lon="0.13416">
        <ele>2223</ele>
        <time>2012-02-18T15:39:15Z</time>
      </trkpt>
      <trkpt lat="42.92478" lon="0.13417">
        <ele>2223</ele>
        <time>2012-02-18T15:39:19Z</time>
      </trkpt>
      <trkpt lat="42.92481" lon="0.1342">
        <ele>2223</ele>
        <time>2012-02-18T15:39:23Z</time>
      </trkpt>
      <trkpt lat="42.92484" lon="0.1342">
        <ele>2223</ele>
        <time>2012-02-18T15:39:27Z</time>
      </trkpt>
      <trkpt lat="42.92487" lon="0.13421">
        <ele>2223</ele>
        <time>2012-02-18T15:39:31Z</time>
      </trkpt>
      <trkpt lat="42.92491" lon="0.13421">
        <ele>2223</ele>
        <time>2012-02-18T15:39:35Z</time>
      </trkpt>
      <trkpt lat="42.92494" lon="0.13421">
        <ele>2223</ele>
        <time>2012-02-18T15:39:39Z</time>
      </trkpt>
      <trkpt lat="42.92497" lon="0.13421">
        <ele>2224</ele>
        <time>2012-02-18T15:39:43Z</time>
      </trkpt>
      <trkpt lat="42.925" lon="0.1342">
        <ele>2225</ele>
        <time>2012-02-18T15:39:47Z</time>
      </trkpt>
      <trkpt lat="42.92502" lon="0.1342">
        <ele>2226</ele>
        <time>2012-02-18T15:39:51Z</time>
      </trkpt>
      <trkpt lat="42.92505" lon="0.13419">
        <ele>2226</ele>
        <time>2012-02-18T15:39:55Z</time>
      </trkpt>
      <trkpt lat="42.92508" lon="0.13418">
        <ele>2226</ele>
        <time>2012-02-18T15:39:59Z</time>
      </trkpt>
      <trkpt lat="42.92509" lon="0.13418">
        <ele>2226</ele>
        <time>2012-02-18T15:40:02Z</time>
      </trkpt>
      <trkpt lat="42.92513" lon="0.13417">
        <ele>2226</ele>
        <time>2012-02-18T15:40:06Z</time>
      </trkpt>
      <trkpt lat="42.92514" lon="0.13416">
        <ele>2226</ele>
        <time>2012-02-18T15:40:09Z</time>
      </trkpt>
      <trkpt lat="42.92513" lon="0.13416">
        <ele>2226</ele>
        <time>2012-02-18T15:40:28Z</time>
      </trkpt>
      <trkpt lat="42.92514" lon="0.13415">
        <ele>2226</ele>
        <time>2012-02-18T15:40:38Z</time>
      </trkpt>
      <trkpt lat="42.92518" lon="0.13413">
        <ele>2226</ele>
        <time>2012-02-18T15:40:42Z</time>
      </trkpt>
      <trkpt lat="42.9252" lon="0.13412">
        <ele>2226</ele>
        <time>2012-02-18T15:40:46Z</time>
      </trkpt>
      <trkpt lat="42.92523" lon="0.1341">
        <ele>2226</ele>
        <time>2012-02-18T15:40:51Z</time>
      </trkpt>
      <trkpt lat="42.92524" lon="0.13409">
        <ele>2226</ele>
        <time>2012-02-18T15:40:54Z</time>
      </trkpt>
      <trkpt lat="42.92527" lon="0.13407">
        <ele>2226</ele>
        <time>2012-02-18T15:40:59Z</time>
      </trkpt>
      <trkpt lat="42.9253" lon="0.13405">
        <ele>2227</ele>
        <time>2012-02-18T15:41:03Z</time>
      </trkpt>
      <trkpt lat="42.92533" lon="0.13403">
        <ele>2228</ele>
        <time>2012-02-18T15:41:07Z</time>
      </trkpt>
      <trkpt lat="42.92536" lon="0.13401">
        <ele>2229</ele>
        <time>2012-02-18T15:41:11Z</time>
      </trkpt>
      <trkpt lat="42.92537" lon="0.134">
        <ele>2229</ele>
        <time>2012-02-18T15:41:14Z</time>
      </trkpt>
      <trkpt lat="42.92539" lon="0.13398">
        <ele>2230</ele>
        <time>2012-02-18T15:41:17Z</time>
      </trkpt>
      <trkpt lat="42.92541" lon="0.13397">
        <ele>2230</ele>
        <time>2012-02-18T15:41:21Z</time>
      </trkpt>
      <trkpt lat="42.92543" lon="0.13396">
        <ele>2231</ele>
        <time>2012-02-18T15:41:53Z</time>
      </trkpt>
      <trkpt lat="42.92545" lon="0.13394">
        <ele>2231</ele>
        <time>2012-02-18T15:41:57Z</time>
      </trkpt>
      <trkpt lat="42.92548" lon="0.13393">
        <ele>2231</ele>
        <time>2012-02-18T15:42:01Z</time>
      </trkpt>
      <trkpt lat="42.9255" lon="0.13391">
        <ele>2231</ele>
        <time>2012-02-18T15:42:05Z</time>
      </trkpt>
      <trkpt lat="42.92553" lon="0.1339">
        <ele>2231</ele>
        <time>2012-02-18T15:42:09Z</time>
      </trkpt>
      <trkpt lat="42.92556" lon="0.13388">
        <ele>2232</ele>
        <time>2012-02-18T15:42:13Z</time>
      </trkpt>
      <trkpt lat="42.92558" lon="0.13387">
        <ele>2232</ele>
        <time>2012-02-18T15:42:17Z</time>
      </trkpt>
      <trkpt lat="42.9256" lon="0.13386">
        <ele>2233</ele>
        <time>2012-02-18T15:42:20Z</time>
      </trkpt>
      <trkpt lat="42.92562" lon="0.13385">
        <ele>2233</ele>
        <time>2012-02-18T15:42:24Z</time>
      </trkpt>
      <trkpt lat="42.92565" lon="0.13383">
        <ele>2233</ele>
        <time>2012-02-18T15:42:28Z</time>
      </trkpt>
      <trkpt lat="42.92568" lon="0.13381">
        <ele>2233</ele>
        <time>2012-02-18T15:42:33Z</time>
      </trkpt>
      <trkpt lat="42.92571" lon="0.13378">
        <ele>2233</ele>
        <time>2012-02-18T15:42:37Z</time>
      </trkpt>
      <trkpt lat="42.92573" lon="0.13376">
        <ele>2236</ele>
        <time>2012-02-18T15:42:54Z</time>
      </trkpt>
      <trkpt lat="42.92575" lon="0.13375">
        <ele>2237</ele>
        <time>2012-02-18T15:43:00Z</time>
      </trkpt>
      <trkpt lat="42.92577" lon="0.13374">
        <ele>2237</ele>
        <time>2012-02-18T15:43:04Z</time>
      </trkpt>
      <trkpt lat="42.9258" lon="0.13374">
        <ele>2237</ele>
        <time>2012-02-18T15:43:08Z</time>
      </trkpt>
      <trkpt lat="42.92583" lon="0.13373">
        <ele>2237</ele>
        <time>2012-02-18T15:43:12Z</time>
      </trkpt>
      <trkpt lat="42.92585" lon="0.13372">
        <ele>2238</ele>
        <time>2012-02-18T15:43:16Z</time>
      </trkpt>
      <trkpt lat="42.92589" lon="0.13371">
        <ele>2240</ele>
        <time>2012-02-18T15:43:20Z</time>
      </trkpt>
      <trkpt lat="42.92592" lon="0.13372">
        <ele>2240</ele>
        <time>2012-02-18T15:43:24Z</time>
      </trkpt>
      <trkpt lat="42.92595" lon="0.13373">
        <ele>2240</ele>
        <time>2012-02-18T15:43:28Z</time>
      </trkpt>
      <trkpt lat="42.92598" lon="0.13374">
        <ele>2241</ele>
        <time>2012-02-18T15:43:32Z</time>
      </trkpt>
      <trkpt lat="42.92601" lon="0.13376">
        <ele>2242</ele>
        <time>2012-02-18T15:43:53Z</time>
      </trkpt>
      <trkpt lat="42.92603" lon="0.13378">
        <ele>2242</ele>
        <time>2012-02-18T15:43:57Z</time>
      </trkpt>
      <trkpt lat="42.92606" lon="0.1338">
        <ele>2242</ele>
        <time>2012-02-18T15:44:01Z</time>
      </trkpt>
      <trkpt lat="42.92609" lon="0.13382">
        <ele>2242</ele>
        <time>2012-02-18T15:44:05Z</time>
      </trkpt>
      <trkpt lat="42.9261" lon="0.13385">
        <ele>2242</ele>
        <time>2012-02-18T15:44:08Z</time>
      </trkpt>
      <trkpt lat="42.92612" lon="0.13387">
        <ele>2242</ele>
        <time>2012-02-18T15:44:12Z</time>
      </trkpt>
      <trkpt lat="42.92614" lon="0.13391">
        <ele>2242</ele>
        <time>2012-02-18T15:44:16Z</time>
      </trkpt>
      <trkpt lat="42.92617" lon="0.13394">
        <ele>2242</ele>
        <time>2012-02-18T15:44:20Z</time>
      </trkpt>
      <trkpt lat="42.92619" lon="0.13396">
        <ele>2242</ele>
        <time>2012-02-18T15:44:24Z</time>
      </trkpt>
      <trkpt lat="42.92622" lon="0.13399">
        <ele>2242</ele>
        <time>2012-02-18T15:44:28Z</time>
      </trkpt>
      <trkpt lat="42.92624" lon="0.13401">
        <ele>2242</ele>
        <time>2012-02-18T15:44:31Z</time>
      </trkpt>
      <trkpt lat="42.92625" lon="0.13403">
        <ele>2242</ele>
        <time>2012-02-18T15:44:35Z</time>
      </trkpt>
      <trkpt lat="42.92627" lon="0.13407">
        <ele>2242</ele>
        <time>2012-02-18T15:44:39Z</time>
      </trkpt>
      <trkpt lat="42.92628" lon="0.1341">
        <ele>2242</ele>
        <time>2012-02-18T15:44:43Z</time>
      </trkpt>
      <trkpt lat="42.92629" lon="0.13413">
        <ele>2243</ele>
        <time>2012-02-18T15:44:46Z</time>
      </trkpt>
      <trkpt lat="42.92631" lon="0.13416">
        <ele>2244</ele>
        <time>2012-02-18T15:44:50Z</time>
      </trkpt>
      <trkpt lat="42.92633" lon="0.13419">
        <ele>2244</ele>
        <time>2012-02-18T15:44:54Z</time>
      </trkpt>
      <trkpt lat="42.92636" lon="0.13421">
        <ele>2244</ele>
        <time>2012-02-18T15:44:58Z</time>
      </trkpt>
      <trkpt lat="42.92639" lon="0.13423">
        <ele>2244</ele>
        <time>2012-02-18T15:45:02Z</time>
      </trkpt>
      <trkpt lat="42.92642" lon="0.13425">
        <ele>2244</ele>
        <time>2012-02-18T15:45:06Z</time>
      </trkpt>
      <trkpt lat="42.92643" lon="0.13426">
        <ele>2244</ele>
        <time>2012-02-18T15:45:09Z</time>
      </trkpt>
      <trkpt lat="42.92644" lon="0.13424">
        <ele>2244</ele>
        <time>2012-02-18T15:45:18Z</time>
      </trkpt>
      <trkpt lat="42.92646" lon="0.13426">
        <ele>2244</ele>
        <time>2012-02-18T15:45:27Z</time>
      </trkpt>
      <trkpt lat="42.92648" lon="0.13428">
        <ele>2244</ele>
        <time>2012-02-18T15:45:31Z</time>
      </trkpt>
      <trkpt lat="42.9265" lon="0.13431">
        <ele>2245</ele>
        <time>2012-02-18T15:45:35Z</time>
      </trkpt>
      <trkpt lat="42.92652" lon="0.13432">
        <ele>2245</ele>
        <time>2012-02-18T15:45:38Z</time>
      </trkpt>
      <trkpt lat="42.92654" lon="0.13435">
        <ele>2246</ele>
        <time>2012-02-18T15:45:42Z</time>
      </trkpt>
      <trkpt lat="42.92656" lon="0.13438">
        <ele>2246</ele>
        <time>2012-02-18T15:45:46Z</time>
      </trkpt>
      <trkpt lat="42.92657" lon="0.1344">
        <ele>2247</ele>
        <time>2012-02-18T15:45:49Z</time>
      </trkpt>
      <trkpt lat="42.9266" lon="0.13442">
        <ele>2247</ele>
        <time>2012-02-18T15:45:53Z</time>
      </trkpt>
      <trkpt lat="42.92661" lon="0.13443">
        <ele>2247</ele>
        <time>2012-02-18T15:45:56Z</time>
      </trkpt>
      <trkpt lat="42.92663" lon="0.13446">
        <ele>2247</ele>
        <time>2012-02-18T15:46:00Z</time>
      </trkpt>
      <trkpt lat="42.92665" lon="0.13449">
        <ele>2248</ele>
        <time>2012-02-18T15:46:04Z</time>
      </trkpt>
      <trkpt lat="42.92667" lon="0.13451">
        <ele>2248</ele>
        <time>2012-02-18T15:46:08Z</time>
      </trkpt>
      <trkpt lat="42.9267" lon="0.13453">
        <ele>2248</ele>
        <time>2012-02-18T15:46:12Z</time>
      </trkpt>
      <trkpt lat="42.92672" lon="0.13455">
        <ele>2249</ele>
        <time>2012-02-18T15:46:16Z</time>
      </trkpt>
      <trkpt lat="42.92675" lon="0.13456">
        <ele>2249</ele>
        <time>2012-02-18T15:46:20Z</time>
      </trkpt>
      <trkpt lat="42.92675" lon="0.13454">
        <ele>2249</ele>
        <time>2012-02-18T15:46:24Z</time>
      </trkpt>
      <trkpt lat="42.92677" lon="0.13454">
        <ele>2249</ele>
        <time>2012-02-18T15:46:33Z</time>
      </trkpt>
      <trkpt lat="42.92679" lon="0.13457">
        <ele>2250</ele>
        <time>2012-02-18T15:46:37Z</time>
      </trkpt>
      <trkpt lat="42.9268" lon="0.13461">
        <ele>2250</ele>
        <time>2012-02-18T15:46:40Z</time>
      </trkpt>
      <trkpt lat="42.92681" lon="0.13465">
        <ele>2250</ele>
        <time>2012-02-18T15:46:44Z</time>
      </trkpt>
      <trkpt lat="42.92682" lon="0.13466">
        <ele>2250</ele>
        <time>2012-02-18T15:46:47Z</time>
      </trkpt>
      <trkpt lat="42.92684" lon="0.13467">
        <ele>2250</ele>
        <time>2012-02-18T15:46:50Z</time>
      </trkpt>
      <trkpt lat="42.92685" lon="0.13469">
        <ele>2250</ele>
        <time>2012-02-18T15:46:53Z</time>
      </trkpt>
      <trkpt lat="42.92686" lon="0.13471">
        <ele>2250</ele>
        <time>2012-02-18T15:46:56Z</time>
      </trkpt>
      <trkpt lat="42.92688" lon="0.13474">
        <ele>2250</ele>
        <time>2012-02-18T15:47:00Z</time>
      </trkpt>
      <trkpt lat="42.9269" lon="0.13477">
        <ele>2250</ele>
        <time>2012-02-18T15:47:04Z</time>
      </trkpt>
      <trkpt lat="42.92692" lon="0.1348">
        <ele>2251</ele>
        <time>2012-02-18T15:47:08Z</time>
      </trkpt>
      <trkpt lat="42.92694" lon="0.13483">
        <ele>2251</ele>
        <time>2012-02-18T15:47:12Z</time>
      </trkpt>
      <trkpt lat="42.92696" lon="0.13487">
        <ele>2251</ele>
        <time>2012-02-18T15:47:16Z</time>
      </trkpt>
      <trkpt lat="42.92699" lon="0.13489">
        <ele>2251</ele>
        <time>2012-02-18T15:47:20Z</time>
      </trkpt>
      <trkpt lat="42.92701" lon="0.13492">
        <ele>2251</ele>
        <time>2012-02-18T15:47:25Z</time>
      </trkpt>
      <trkpt lat="42.92702" lon="0.13494">
        <ele>2251</ele>
        <time>2012-02-18T15:47:37Z</time>
      </trkpt>
      <trkpt lat="42.92704" lon="0.13497">
        <ele>2252</ele>
        <time>2012-02-18T15:47:42Z</time>
      </trkpt>
      <trkpt lat="42.92707" lon="0.135">
        <ele>2252</ele>
        <time>2012-02-18T15:47:47Z</time>
      </trkpt>
      <trkpt lat="42.92709" lon="0.13502">
        <ele>2252</ele>
        <time>2012-02-18T15:47:50Z</time>
      </trkpt>
      <trkpt lat="42.92711" lon="0.13504">
        <ele>2252</ele>
        <time>2012-02-18T15:47:54Z</time>
      </trkpt>
      <trkpt lat="42.92712" lon="0.13505">
        <ele>2253</ele>
        <time>2012-02-18T15:47:57Z</time>
      </trkpt>
      <trkpt lat="42.92714" lon="0.13508">
        <ele>2254</ele>
        <time>2012-02-18T15:48:01Z</time>
      </trkpt>
      <trkpt lat="42.92715" lon="0.13509">
        <ele>2254</ele>
        <time>2012-02-18T15:48:04Z</time>
      </trkpt>
      <trkpt lat="42.92717" lon="0.13513">
        <ele>2255</ele>
        <time>2012-02-18T15:48:08Z</time>
      </trkpt>
      <trkpt lat="42.9272" lon="0.13516">
        <ele>2255</ele>
        <time>2012-02-18T15:48:13Z</time>
      </trkpt>
      <trkpt lat="42.92721" lon="0.13518">
        <ele>2256</ele>
        <time>2012-02-18T15:48:27Z</time>
      </trkpt>
      <trkpt lat="42.92723" lon="0.13522">
        <ele>2256</ele>
        <time>2012-02-18T15:48:32Z</time>
      </trkpt>
      <trkpt lat="42.92724" lon="0.13523">
        <ele>2257</ele>
        <time>2012-02-18T15:48:35Z</time>
      </trkpt>
      <trkpt lat="42.92726" lon="0.13524">
        <ele>2259</ele>
        <time>2012-02-18T15:48:38Z</time>
      </trkpt>
      <trkpt lat="42.92727" lon="0.13526">
        <ele>2260</ele>
        <time>2012-02-18T15:48:41Z</time>
      </trkpt>
      <trkpt lat="42.9273" lon="0.13528">
        <ele>2261</ele>
        <time>2012-02-18T15:48:45Z</time>
      </trkpt>
      <trkpt lat="42.92731" lon="0.1353">
        <ele>2262</ele>
        <time>2012-02-18T15:48:48Z</time>
      </trkpt>
      <trkpt lat="42.92732" lon="0.13534">
        <ele>2262</ele>
        <time>2012-02-18T15:48:51Z</time>
      </trkpt>
      <trkpt lat="42.92733" lon="0.13536">
        <ele>2262</ele>
        <time>2012-02-18T15:48:54Z</time>
      </trkpt>
      <trkpt lat="42.92736" lon="0.13537">
        <ele>2262</ele>
        <time>2012-02-18T15:48:58Z</time>
      </trkpt>
      <trkpt lat="42.9274" lon="0.13539">
        <ele>2262</ele>
        <time>2012-02-18T15:49:02Z</time>
      </trkpt>
      <trkpt lat="42.92743" lon="0.13539">
        <ele>2262</ele>
        <time>2012-02-18T15:49:05Z</time>
      </trkpt>
      <trkpt lat="42.92746" lon="0.1354">
        <ele>2262</ele>
        <time>2012-02-18T15:49:14Z</time>
      </trkpt>
      <trkpt lat="42.92749" lon="0.13542">
        <ele>2262</ele>
        <time>2012-02-18T15:49:18Z</time>
      </trkpt>
      <trkpt lat="42.92751" lon="0.13542">
        <ele>2262</ele>
        <time>2012-02-18T15:49:21Z</time>
      </trkpt>
      <trkpt lat="42.92752" lon="0.13542">
        <ele>2262</ele>
        <time>2012-02-18T15:49:24Z</time>
      </trkpt>
      <trkpt lat="42.92753" lon="0.13542">
        <ele>2262</ele>
        <time>2012-02-18T15:49:27Z</time>
      </trkpt>
      <trkpt lat="42.92754" lon="0.13542">
        <ele>2262</ele>
        <time>2012-02-18T15:49:30Z</time>
      </trkpt>
      <trkpt lat="42.92756" lon="0.13542">
        <ele>2262</ele>
        <time>2012-02-18T15:49:34Z</time>
      </trkpt>
      <trkpt lat="42.92757" lon="0.13542">
        <ele>2262</ele>
        <time>2012-02-18T15:49:37Z</time>
      </trkpt>
      <trkpt lat="42.92759" lon="0.13542">
        <ele>2262</ele>
        <time>2012-02-18T15:49:52Z</time>
      </trkpt>
      <trkpt lat="42.92762" lon="0.13542">
        <ele>2262</ele>
        <time>2012-02-18T15:50:04Z</time>
      </trkpt>
      <trkpt lat="42.92763" lon="0.13543">
        <ele>2262</ele>
        <time>2012-02-18T15:50:57Z</time>
      </trkpt>
      <trkpt lat="42.92764" lon="0.13542">
        <ele>2262</ele>
        <time>2012-02-18T15:51:22Z</time>
      </trkpt>
      <trkpt lat="42.92762" lon="0.13543">
        <ele>2264</ele>
        <time>2012-02-18T15:51:36Z</time>
      </trkpt>
      <trkpt lat="42.92764" lon="0.13542">
        <ele>2262</ele>
        <time>2012-02-18T15:52:12Z</time>
      </trkpt>
      <trkpt lat="42.92765" lon="0.13543">
        <ele>2262</ele>
        <time>2012-02-18T15:52:17Z</time>
      </trkpt>
      <trkpt lat="42.92764" lon="0.13543">
        <ele>2262</ele>
        <time>2012-02-18T15:52:40Z</time>
      </trkpt>
      <trkpt lat="42.92762" lon="0.13543">
        <ele>2261</ele>
        <time>2012-02-18T15:52:46Z</time>
      </trkpt>
      <trkpt lat="42.92764" lon="0.13541">
        <ele>2259</ele>
        <time>2012-02-18T15:53:08Z</time>
      </trkpt>
      <trkpt lat="42.92763" lon="0.13539">
        <ele>2259</ele>
        <time>2012-02-18T15:53:11Z</time>
      </trkpt>
      <trkpt lat="42.92763" lon="0.13538">
        <ele>2259</ele>
        <time>2012-02-18T15:53:15Z</time>
      </trkpt>
      <trkpt lat="42.92763" lon="0.13536">
        <ele>2261</ele>
        <time>2012-02-18T15:53:19Z</time>
      </trkpt>
      <trkpt lat="42.92762" lon="0.13535">
        <ele>2263</ele>
        <time>2012-02-18T15:53:25Z</time>
      </trkpt>
      <trkpt lat="42.92762" lon="0.13536">
        <ele>2266</ele>
        <time>2012-02-18T15:53:44Z</time>
      </trkpt>
      <trkpt lat="42.92762" lon="0.13538">
        <ele>2266</ele>
        <time>2012-02-18T15:53:52Z</time>
      </trkpt>
      <trkpt lat="42.92763" lon="0.13539">
        <ele>2266</ele>
        <time>2012-02-18T15:54:02Z</time>
      </trkpt>
      <trkpt lat="42.92763" lon="0.1354">
        <ele>2266</ele>
        <time>2012-02-18T15:54:05Z</time>
      </trkpt>
      <trkpt lat="42.92763" lon="0.13539">
        <ele>2267</ele>
        <time>2012-02-18T15:54:31Z</time>
      </trkpt>
      <trkpt lat="42.92762" lon="0.13537">
        <ele>2267</ele>
        <time>2012-02-18T15:54:43Z</time>
      </trkpt>
      <trkpt lat="42.92761" lon="0.13536">
        <ele>2267</ele>
        <time>2012-02-18T15:54:51Z</time>
      </trkpt>
      <trkpt lat="42.9276" lon="0.13537">
        <ele>2267</ele>
        <time>2012-02-18T15:54:54Z</time>
      </trkpt>
      <trkpt lat="42.9276" lon="0.13535">
        <ele>2267</ele>
        <time>2012-02-18T15:54:59Z</time>
      </trkpt>
      <trkpt lat="42.9276" lon="0.13537">
        <ele>2266</ele>
        <time>2012-02-18T15:55:18Z</time>
      </trkpt>
      <trkpt lat="42.9276" lon="0.13538">
        <ele>2263</ele>
        <time>2012-02-18T15:55:40Z</time>
      </trkpt>
      <trkpt lat="42.92761" lon="0.1354">
        <ele>2263</ele>
        <time>2012-02-18T15:55:51Z</time>
      </trkpt>
      <trkpt lat="42.92762" lon="0.13539">
        <ele>2263</ele>
        <time>2012-02-18T15:55:55Z</time>
      </trkpt>
      <trkpt lat="42.92763" lon="0.13538">
        <ele>2263</ele>
        <time>2012-02-18T15:55:59Z</time>
      </trkpt>
      <trkpt lat="42.92763" lon="0.13538">
        <ele>2263</ele>
        <time>2012-02-18T15:56:07Z</time>
      </trkpt>
    </trkseg>
  </trk>
</gpx>